SIA24 WSSS-KJFK
Flight info
| Callsign | SIA24 |
|---|---|
| Flight time | 17h 24m |
| Altitude | 32000 |
| Route | TOMAN5B TOMAN L625 AKMON/K0956F320 L625 ANOKI/N0511F320 L625 ABVAR/N0498F350 L625 MEVIN B462 KAZIK Y59 AZAMA Y57 POROT/N0485F370 Y57 PUTER A590 POOFF/N0481F390 A590 HAMND DCT TED J511 GKN J124 ORT DCT 63N140W 63N130W 62N120W/N0482F410 59N110W 5530N10000W DCT MISAX DCT SSM DCT SIKBO DCT AHPAH Q140 MEMMS PUCKY1 |
| Aircraft | A359/H-SDE2E3GHIJ3J4J5LM1ORWXY/LB1D1 |
Departure
| Time | 2026-05-05 20:52 |
|---|---|
| Airport | Singapore Changi Airport (WSSS) |
Arrival
| Time | 2026-05-06 14:16 |
|---|---|
| Airport | John F. Kennedy International Airport (KJFK) |
| Time | Latitude | Longitude | Altitude | Speed | Heading |
|---|---|---|---|---|---|
| 2026-05-05 19:56 | 1.36390 | 103.99470 | 30 ft | 0 kts | 323° |
| 2026-05-05 20:41 | 1.36389 | 103.99471 | 58 ft | 2 kts | 323° |
| 2026-05-05 20:42 | 1.36369 | 103.99487 | 28 ft | 4 kts | 320° |
| 2026-05-05 20:42 | 1.36351 | 103.99502 | 28 ft | 4 kts | 330° |
| 2026-05-05 20:42 | 1.36331 | 103.99506 | 26 ft | 4 kts | 34° |
| 2026-05-05 20:42 | 1.36313 | 103.99487 | 27 ft | 3 kts | 53° |
| 2026-05-05 20:43 | 1.36310 | 103.99483 | 27 ft | 6 kts | 52° |
| 2026-05-05 20:47 | 1.36321 | 103.99497 | 29 ft | 8 kts | 53° |
| 2026-05-05 20:47 | 1.36366 | 103.99558 | 31 ft | 11 kts | 53° |
| 2026-05-05 20:47 | 1.36425 | 103.99596 | 31 ft | 10 kts | 22° |
| 2026-05-05 20:48 | 1.36464 | 103.99638 | 31 ft | 8 kts | 84° |
| 2026-05-05 20:48 | 1.36441 | 103.99706 | 31 ft | 13 kts | 112° |
| 2026-05-05 20:48 | 1.36407 | 103.99788 | 31 ft | 13 kts | 112° |
| 2026-05-05 20:48 | 1.36362 | 103.99855 | 31 ft | 11 kts | 150° |
| 2026-05-05 20:49 | 1.36289 | 103.99871 | 32 ft | 10 kts | 172° |
| 2026-05-05 20:49 | 1.36282 | 103.99872 | 32 ft | 0 kts | 172° |
| 2026-05-05 20:49 | 1.36242 | 103.99878 | 32 ft | 12 kts | 172° |
| 2026-05-05 20:50 | 1.36156 | 103.99880 | 32 ft | 12 kts | 192° |
| 2026-05-05 20:50 | 1.36125 | 103.99868 | 32 ft | 0 kts | 202° |
| 2026-05-05 20:50 | 1.36084 | 103.99851 | 32 ft | 24 kts | 202° |
| 2026-05-05 20:51 | 1.35737 | 103.99704 | 35 ft | 83 kts | 203° |
| 2026-05-05 20:51 | 1.35031 | 103.99406 | 36 ft | 135 kts | 203° |
| 2026-05-05 20:51 | 1.34020 | 103.98979 | 50 ft | 178 kts | 203° |
| 2026-05-05 20:51 | 1.32928 | 103.98508 | 612 ft | 174 kts | 203° |
| 2026-05-05 20:52 | 1.31788 | 103.98019 | 987 ft | 182 kts | 202° |
| 2026-05-05 20:52 | 1.30575 | 103.97511 | 1304 ft | 197 kts | 202° |
| 2026-05-05 20:52 | 1.29268 | 103.96962 | 1457 ft | 210 kts | 202° |
| 2026-05-05 20:52 | 1.27866 | 103.96372 | 1587 ft | 227 kts | 202° |
| 2026-05-05 20:53 | 1.26354 | 103.95740 | 1723 ft | 244 kts | 202° |
| 2026-05-05 20:53 | 1.24722 | 103.95136 | 1934 ft | 256 kts | 193° |
| 2026-05-05 20:53 | 1.22938 | 103.95074 | 2334 ft | 259 kts | 167° |
| 2026-05-05 20:53 | 1.21323 | 103.95850 | 2777 ft | 261 kts | 142° |
| 2026-05-05 20:54 | 1.19925 | 103.97022 | 3219 ft | 264 kts | 139° |
| 2026-05-05 20:54 | 1.18547 | 103.98254 | 3660 ft | 267 kts | 138° |
| 2026-05-05 20:54 | 1.17157 | 103.99491 | 4102 ft | 269 kts | 139° |
| 2026-05-05 20:54 | 1.15751 | 104.00735 | 4550 ft | 271 kts | 139° |
| 2026-05-05 20:55 | 1.14496 | 104.02144 | 4966 ft | 274 kts | 121° |
| 2026-05-05 20:55 | 1.13638 | 104.03845 | 5417 ft | 275 kts | 114° |
| 2026-05-05 20:55 | 1.12876 | 104.05608 | 5812 ft | 277 kts | 113° |
| 2026-05-05 20:55 | 1.12115 | 104.07382 | 5964 ft | 278 kts | 113° |
| 2026-05-05 20:56 | 1.11347 | 104.09159 | 6126 ft | 280 kts | 114° |
| 2026-05-05 20:56 | 1.10567 | 104.10955 | 6506 ft | 283 kts | 114° |
| 2026-05-05 20:56 | 1.09778 | 104.12763 | 6952 ft | 284 kts | 114° |
| 2026-05-05 20:56 | 1.08986 | 104.14576 | 7416 ft | 285 kts | 114° |
| 2026-05-05 20:57 | 1.08227 | 104.16410 | 7851 ft | 287 kts | 108° |
| 2026-05-05 20:57 | 1.07939 | 104.18379 | 8311 ft | 288 kts | 90° |
| 2026-05-05 20:57 | 1.07987 | 104.20388 | 8778 ft | 290 kts | 88° |
| 2026-05-05 20:57 | 1.08076 | 104.22408 | 9235 ft | 292 kts | 88° |
| 2026-05-05 20:58 | 1.08161 | 104.24437 | 9732 ft | 293 kts | 88° |
| 2026-05-05 20:58 | 1.08241 | 104.26485 | 10063 ft | 299 kts | 88° |
| 2026-05-05 20:58 | 1.08320 | 104.28604 | 10231 ft | 311 kts | 88° |
| 2026-05-05 20:58 | 1.08400 | 104.30803 | 10410 ft | 322 kts | 88° |
| 2026-05-05 20:59 | 1.08481 | 104.33081 | 10589 ft | 333 kts | 88° |
| 2026-05-05 20:59 | 1.08564 | 104.35390 | 10907 ft | 337 kts | 88° |
| 2026-05-05 20:59 | 1.08646 | 104.37719 | 11445 ft | 335 kts | 88° |
| 2026-05-05 20:59 | 1.08729 | 104.40050 | 11891 ft | 336 kts | 88° |
| 2026-05-05 21:00 | 1.08811 | 104.42391 | 12331 ft | 337 kts | 88° |
| 2026-05-05 21:00 | 1.09064 | 104.44720 | 12718 ft | 340 kts | 74° |
| 2026-05-05 21:00 | 1.10166 | 104.46800 | 13102 ft | 342 kts | 50° |
| 2026-05-05 21:00 | 1.11833 | 104.48504 | 13530 ft | 344 kts | 44° |
| 2026-05-05 21:01 | 1.13575 | 104.50151 | 13901 ft | 346 kts | 45° |
| 2026-05-05 21:01 | 1.15319 | 104.51822 | 14233 ft | 348 kts | 45° |
| 2026-05-05 21:01 | 1.17059 | 104.53514 | 14565 ft | 350 kts | 45° |
| 2026-05-05 21:01 | 1.18795 | 104.55220 | 14902 ft | 352 kts | 46° |
| 2026-05-05 21:02 | 1.20546 | 104.56949 | 15230 ft | 354 kts | 46° |
| 2026-05-05 21:02 | 1.22298 | 104.58686 | 15577 ft | 356 kts | 46° |
| 2026-05-05 21:02 | 1.24061 | 104.60439 | 15905 ft | 358 kts | 46° |
| 2026-05-05 21:02 | 1.25833 | 104.62194 | 16219 ft | 360 kts | 46° |
| 2026-05-05 21:03 | 1.27612 | 104.63958 | 16543 ft | 361 kts | 46° |
| 2026-05-05 21:03 | 1.29403 | 104.65734 | 16861 ft | 363 kts | 46° |
| 2026-05-05 21:03 | 1.31185 | 104.67538 | 17123 ft | 367 kts | 49° |
| 2026-05-05 21:03 | 1.32695 | 104.69615 | 17226 ft | 373 kts | 63° |
| 2026-05-05 21:04 | 1.33598 | 104.72052 | 17338 ft | 379 kts | 79° |
| 2026-05-05 21:04 | 1.33867 | 104.74686 | 17465 ft | 385 kts | 88° |
| 2026-05-05 21:04 | 1.33929 | 104.77381 | 17580 ft | 391 kts | 89° |
| 2026-05-05 21:04 | 1.33976 | 104.80122 | 17713 ft | 397 kts | 89° |
| 2026-05-05 21:05 | 1.34030 | 104.82900 | 17822 ft | 403 kts | 89° |
| 2026-05-05 21:05 | 1.34091 | 104.85722 | 17918 ft | 409 kts | 89° |
| 2026-05-05 21:05 | 1.34156 | 104.88581 | 18032 ft | 414 kts | 89° |
| 2026-05-05 21:05 | 1.34223 | 104.91474 | 18202 ft | 417 kts | 89° |
| 2026-05-05 21:06 | 1.34291 | 104.94376 | 18402 ft | 419 kts | 89° |
| 2026-05-05 21:06 | 1.34361 | 104.97286 | 18609 ft | 420 kts | 88° |
| 2026-05-05 21:06 | 1.34431 | 105.00208 | 18817 ft | 421 kts | 88° |
| 2026-05-05 21:06 | 1.34501 | 105.03100 | 19026 ft | 422 kts | 88° |
| 2026-05-05 21:07 | 1.34571 | 105.06037 | 19218 ft | 424 kts | 88° |
| 2026-05-05 21:07 | 1.34642 | 105.08985 | 19429 ft | 425 kts | 88° |
| 2026-05-05 21:07 | 1.34713 | 105.11938 | 19643 ft | 426 kts | 88° |
| 2026-05-05 21:07 | 1.34784 | 105.14903 | 19828 ft | 427 kts | 88° |
| 2026-05-05 21:08 | 1.34855 | 105.17871 | 20033 ft | 428 kts | 88° |
| 2026-05-05 21:08 | 1.34926 | 105.20852 | 20236 ft | 430 kts | 88° |
| 2026-05-05 21:08 | 1.34998 | 105.23844 | 20427 ft | 431 kts | 88° |
| 2026-05-05 21:08 | 1.35069 | 105.26843 | 20636 ft | 432 kts | 88° |
| 2026-05-05 21:09 | 1.35141 | 105.29845 | 20818 ft | 433 kts | 88° |
| 2026-05-05 21:09 | 1.35213 | 105.32859 | 21046 ft | 434 kts | 88° |
| 2026-05-05 21:09 | 1.35285 | 105.35883 | 21243 ft | 436 kts | 88° |
| 2026-05-05 21:09 | 1.35358 | 105.38909 | 21425 ft | 437 kts | 88° |
| 2026-05-05 21:10 | 1.35430 | 105.41951 | 21638 ft | 438 kts | 88° |
| 2026-05-05 21:10 | 1.35503 | 105.44999 | 21822 ft | 439 kts | 88° |
| 2026-05-05 21:10 | 1.35576 | 105.48059 | 22029 ft | 441 kts | 88° |
| 2026-05-05 21:10 | 1.35649 | 105.51126 | 22230 ft | 442 kts | 88° |
| 2026-05-05 21:11 | 1.35721 | 105.54162 | 22433 ft | 443 kts | 88° |
| 2026-05-05 21:11 | 1.35794 | 105.57248 | 22633 ft | 445 kts | 88° |
| 2026-05-05 21:11 | 1.35868 | 105.60346 | 22832 ft | 446 kts | 88° |
| 2026-05-05 21:11 | 1.35942 | 105.63447 | 23031 ft | 447 kts | 88° |
| 2026-05-05 21:12 | 1.36016 | 105.66557 | 23240 ft | 448 kts | 88° |
| 2026-05-05 21:12 | 1.36174 | 105.69678 | 23430 ft | 449 kts | 83° |
| 2026-05-05 21:12 | 1.36750 | 105.72744 | 23578 ft | 450 kts | 73° |
| 2026-05-05 21:12 | 1.37854 | 105.75668 | 23731 ft | 451 kts | 64° |
| 2026-05-05 21:13 | 1.39466 | 105.78357 | 23876 ft | 452 kts | 54° |
| 2026-05-05 21:13 | 1.40821 | 105.79998 | 23985 ft | 454 kts | 47° |
| 2026-05-05 21:13 | 1.43176 | 105.82105 | 24144 ft | 456 kts | 37° |
| 2026-05-05 21:13 | 1.45853 | 105.83808 | 24305 ft | 458 kts | 31° |
| 2026-05-05 21:14 | 1.48648 | 105.85341 | 24459 ft | 460 kts | 28° |
| 2026-05-05 21:14 | 1.51500 | 105.86810 | 24621 ft | 461 kts | 28° |
| 2026-05-05 21:14 | 1.54332 | 105.88234 | 24785 ft | 463 kts | 27° |
| 2026-05-05 21:14 | 1.57218 | 105.89683 | 24970 ft | 464 kts | 27° |
| 2026-05-05 21:15 | 1.60101 | 105.91142 | 25150 ft | 465 kts | 28° |
| 2026-05-05 21:15 | 1.62987 | 105.92616 | 25344 ft | 467 kts | 28° |
| 2026-05-05 21:15 | 1.65878 | 105.94103 | 25545 ft | 468 kts | 28° |
| 2026-05-05 21:15 | 1.68776 | 105.95600 | 25722 ft | 470 kts | 28° |
| 2026-05-05 21:16 | 1.71678 | 105.97104 | 25919 ft | 471 kts | 28° |
| 2026-05-05 21:16 | 1.74591 | 105.98614 | 26110 ft | 473 kts | 28° |
| 2026-05-05 21:16 | 1.77516 | 106.00130 | 26307 ft | 474 kts | 28° |
| 2026-05-05 21:16 | 1.80454 | 106.01652 | 26517 ft | 476 kts | 28° |
| 2026-05-05 21:17 | 1.83400 | 106.03178 | 26718 ft | 478 kts | 28° |
| 2026-05-05 21:17 | 1.86357 | 106.04710 | 26929 ft | 479 kts | 28° |
| 2026-05-05 21:17 | 1.89332 | 106.06250 | 27146 ft | 481 kts | 28° |
| 2026-05-05 21:17 | 1.92304 | 106.07791 | 27352 ft | 483 kts | 28° |
| 2026-05-05 21:18 | 1.95293 | 106.09343 | 27576 ft | 484 kts | 28° |
| 2026-05-05 21:18 | 1.98289 | 106.10893 | 27786 ft | 486 kts | 28° |
| 2026-05-05 21:18 | 2.01298 | 106.12447 | 27997 ft | 488 kts | 28° |
| 2026-05-05 21:18 | 2.04323 | 106.14009 | 28204 ft | 489 kts | 28° |
| 2026-05-05 21:19 | 2.07348 | 106.15571 | 28404 ft | 491 kts | 28° |
| 2026-05-05 21:19 | 2.10388 | 106.17142 | 28610 ft | 492 kts | 28° |
| 2026-05-05 21:19 | 2.13432 | 106.18716 | 28789 ft | 494 kts | 28° |
| 2026-05-05 21:19 | 2.16492 | 106.20299 | 28977 ft | 495 kts | 28° |
| 2026-05-05 21:20 | 2.19556 | 106.21885 | 29156 ft | 497 kts | 28° |
| 2026-05-05 21:20 | 2.22630 | 106.23475 | 29349 ft | 498 kts | 28° |
| 2026-05-05 21:20 | 2.25670 | 106.25048 | 29514 ft | 499 kts | 28° |
| 2026-05-05 21:20 | 2.28797 | 106.26666 | 29698 ft | 501 kts | 28° |
| 2026-05-05 21:21 | 2.31848 | 106.28245 | 29841 ft | 502 kts | 28° |
| 2026-05-05 21:21 | 2.35001 | 106.29877 | 29987 ft | 503 kts | 28° |
| 2026-05-05 21:21 | 2.38074 | 106.31467 | 30115 ft | 504 kts | 28° |
| 2026-05-05 21:21 | 2.41190 | 106.33080 | 30229 ft | 506 kts | 28° |
| 2026-05-05 21:22 | 2.44321 | 106.34700 | 30384 ft | 506 kts | 28° |
| 2026-05-05 21:22 | 2.47447 | 106.36318 | 30568 ft | 506 kts | 28° |
| 2026-05-05 21:22 | 2.50574 | 106.37937 | 30756 ft | 505 kts | 28° |
| 2026-05-05 21:22 | 2.53693 | 106.39552 | 30928 ft | 505 kts | 28° |
| 2026-05-05 21:23 | 2.56813 | 106.41168 | 31097 ft | 505 kts | 28° |
| 2026-05-05 21:23 | 2.59929 | 106.42783 | 31296 ft | 504 kts | 28° |
| 2026-05-05 21:23 | 2.63041 | 106.44394 | 31470 ft | 504 kts | 28° |
| 2026-05-05 21:23 | 2.66156 | 106.46008 | 31639 ft | 504 kts | 28° |
| 2026-05-05 21:24 | 2.69272 | 106.47621 | 31778 ft | 503 kts | 28° |
| 2026-05-05 21:24 | 2.72386 | 106.49234 | 31936 ft | 503 kts | 28° |
| 2026-05-05 21:24 | 2.75487 | 106.50842 | 32087 ft | 503 kts | 28° |
| 2026-05-05 21:24 | 2.78597 | 106.52456 | 32238 ft | 503 kts | 28° |
| 2026-05-05 21:25 | 2.81705 | 106.54066 | 32392 ft | 503 kts | 28° |
| 2026-05-05 21:25 | 2.84810 | 106.55673 | 32516 ft | 503 kts | 28° |
| 2026-05-05 21:25 | 2.87914 | 106.57283 | 32670 ft | 502 kts | 28° |
| 2026-05-05 21:25 | 2.91019 | 106.58889 | 32798 ft | 502 kts | 28° |
| 2026-05-05 21:26 | 2.94122 | 106.60493 | 32929 ft | 502 kts | 28° |
| 2026-05-05 21:26 | 2.97220 | 106.62093 | 33113 ft | 501 kts | 28° |
| 2026-05-05 21:26 | 3.00316 | 106.63693 | 33230 ft | 500 kts | 28° |
| 2026-05-05 21:26 | 3.03406 | 106.65291 | 33356 ft | 501 kts | 28° |
| 2026-05-05 21:27 | 3.06499 | 106.66892 | 33465 ft | 501 kts | 28° |
| 2026-05-05 21:27 | 3.09594 | 106.68494 | 33566 ft | 501 kts | 28° |
| 2026-05-05 21:27 | 3.12694 | 106.70099 | 33689 ft | 501 kts | 28° |
| 2026-05-05 21:27 | 3.15786 | 106.71700 | 33776 ft | 501 kts | 28° |
| 2026-05-05 21:28 | 3.18876 | 106.73300 | 33885 ft | 500 kts | 28° |
| 2026-05-05 21:28 | 3.21927 | 106.74880 | 33988 ft | 500 kts | 28° |
| 2026-05-05 21:28 | 3.25014 | 106.76479 | 34099 ft | 499 kts | 28° |
| 2026-05-05 21:28 | 3.28095 | 106.78074 | 34203 ft | 499 kts | 28° |
| 2026-05-05 21:29 | 3.31179 | 106.79671 | 34306 ft | 498 kts | 28° |
| 2026-05-05 21:29 | 3.34256 | 106.81265 | 34391 ft | 498 kts | 28° |
| 2026-05-05 21:29 | 3.40399 | 106.84448 | 34578 ft | 497 kts | 28° |
| 2026-05-05 21:30 | 3.46529 | 106.87624 | 34762 ft | 496 kts | 28° |
| 2026-05-05 21:30 | 3.52653 | 106.90798 | 34856 ft | 496 kts | 28° |
| 2026-05-05 21:31 | 3.58502 | 106.94305 | 34829 ft | 485 kts | 35° |
| 2026-05-05 21:31 | 3.64024 | 106.98132 | 34826 ft | 487 kts | 36° |
| 2026-05-05 21:32 | 3.69579 | 107.02068 | 34826 ft | 491 kts | 36° |
| 2026-05-05 21:32 | 3.75208 | 107.06061 | 34824 ft | 494 kts | 36° |
| 2026-05-05 21:33 | 3.80801 | 107.10018 | 34825 ft | 497 kts | 36° |
| 2026-05-05 21:33 | 3.86474 | 107.14025 | 34826 ft | 500 kts | 36° |
| 2026-05-05 21:34 | 3.92178 | 107.18055 | 34822 ft | 503 kts | 36° |
| 2026-05-05 21:34 | 3.97906 | 107.22102 | 34823 ft | 505 kts | 36° |
| 2026-05-05 21:35 | 4.03665 | 107.26172 | 34824 ft | 507 kts | 36° |
| 2026-05-05 21:35 | 4.09434 | 107.30249 | 34823 ft | 508 kts | 36° |
| 2026-05-05 21:36 | 4.15219 | 107.34340 | 34827 ft | 509 kts | 36° |
| 2026-05-05 21:36 | 4.21006 | 107.38432 | 34826 ft | 510 kts | 36° |
| 2026-05-05 21:37 | 4.26763 | 107.42504 | 34827 ft | 510 kts | 36° |
| 2026-05-05 21:37 | 4.32600 | 107.46633 | 34827 ft | 510 kts | 36° |
| 2026-05-05 21:38 | 4.38404 | 107.50740 | 34829 ft | 511 kts | 36° |
| 2026-05-05 21:38 | 4.44207 | 107.54846 | 34829 ft | 511 kts | 36° |
| 2026-05-05 21:39 | 4.50009 | 107.58953 | 34831 ft | 510 kts | 36° |
| 2026-05-05 21:39 | 4.55771 | 107.63032 | 34832 ft | 510 kts | 36° |
| 2026-05-05 21:40 | 4.61572 | 107.67140 | 34832 ft | 510 kts | 36° |
| 2026-05-05 21:40 | 4.67374 | 107.71250 | 34831 ft | 510 kts | 36° |
| 2026-05-05 21:41 | 4.73176 | 107.75360 | 34831 ft | 510 kts | 36° |
| 2026-05-05 21:41 | 4.78972 | 107.79467 | 34832 ft | 510 kts | 36° |
| 2026-05-05 21:42 | 4.84764 | 107.83571 | 34831 ft | 510 kts | 36° |
| 2026-05-05 21:42 | 4.90552 | 107.87674 | 34832 ft | 509 kts | 36° |
| 2026-05-05 21:43 | 4.96306 | 107.91754 | 34830 ft | 509 kts | 36° |
| 2026-05-05 21:43 | 5.02102 | 107.95858 | 34828 ft | 509 kts | 36° |
| 2026-05-05 21:44 | 5.07908 | 107.99932 | 34832 ft | 509 kts | 35° |
| 2026-05-05 21:44 | 5.13712 | 108.04000 | 34831 ft | 509 kts | 35° |
| 2026-05-05 21:45 | 5.19507 | 108.08067 | 34833 ft | 508 kts | 35° |
| 2026-05-05 21:45 | 5.25296 | 108.12136 | 34835 ft | 508 kts | 36° |
| 2026-05-05 21:46 | 5.31097 | 108.16214 | 34832 ft | 508 kts | 36° |
| 2026-05-05 21:46 | 5.36884 | 108.20284 | 34834 ft | 508 kts | 36° |
| 2026-05-05 21:47 | 5.42636 | 108.24329 | 34830 ft | 508 kts | 36° |
| 2026-05-05 21:47 | 5.48420 | 108.28399 | 34835 ft | 508 kts | 35° |
| 2026-05-05 21:48 | 5.54205 | 108.32469 | 34835 ft | 508 kts | 36° |
| 2026-05-05 21:48 | 5.59989 | 108.36540 | 34833 ft | 508 kts | 36° |
| 2026-05-05 21:49 | 5.65772 | 108.40612 | 34837 ft | 508 kts | 36° |
| 2026-05-05 21:49 | 5.71552 | 108.44683 | 34838 ft | 508 kts | 36° |
| 2026-05-05 21:50 | 5.77333 | 108.48754 | 34836 ft | 507 kts | 36° |
| 2026-05-05 21:50 | 5.83120 | 108.52832 | 34837 ft | 507 kts | 35° |
| 2026-05-05 21:51 | 5.88897 | 108.56903 | 34837 ft | 507 kts | 35° |
| 2026-05-05 21:51 | 5.94673 | 108.60975 | 34837 ft | 507 kts | 35° |
| 2026-05-05 21:52 | 6.03342 | 108.67088 | 34837 ft | 507 kts | 35° |
| 2026-05-05 21:53 | 6.09119 | 108.71163 | 34842 ft | 507 kts | 35° |
| 2026-05-05 21:53 | 6.14897 | 108.75240 | 34843 ft | 508 kts | 35° |
| 2026-05-05 21:54 | 6.20649 | 108.79299 | 34842 ft | 508 kts | 35° |
| 2026-05-05 21:54 | 6.26438 | 108.83386 | 34842 ft | 509 kts | 35° |
| 2026-05-05 21:55 | 6.32235 | 108.87480 | 34842 ft | 509 kts | 36° |
| 2026-05-05 21:55 | 6.38038 | 108.91579 | 34842 ft | 509 kts | 36° |
| 2026-05-05 21:56 | 6.43834 | 108.95674 | 34843 ft | 510 kts | 36° |
| 2026-05-05 21:56 | 6.49638 | 108.99776 | 34845 ft | 510 kts | 36° |
| 2026-05-05 21:57 | 6.55446 | 109.03882 | 34845 ft | 510 kts | 36° |
| 2026-05-05 21:57 | 6.61253 | 109.07988 | 34845 ft | 510 kts | 36° |
| 2026-05-05 21:58 | 6.67058 | 109.12095 | 34846 ft | 510 kts | 36° |
| 2026-05-05 21:58 | 6.72865 | 109.16204 | 34848 ft | 510 kts | 36° |
| 2026-05-05 21:59 | 6.78676 | 109.20316 | 34848 ft | 511 kts | 36° |
| 2026-05-05 21:59 | 6.84450 | 109.24404 | 34849 ft | 510 kts | 36° |
| 2026-05-05 22:00 | 6.90261 | 109.28520 | 34849 ft | 510 kts | 36° |
| 2026-05-05 22:00 | 6.96060 | 109.32629 | 34848 ft | 510 kts | 36° |
| 2026-05-05 22:01 | 7.00884 | 109.36047 | 34853 ft | 510 kts | 36° |
| 2026-05-05 22:01 | 7.06683 | 109.40157 | 34851 ft | 510 kts | 36° |
| 2026-05-05 22:02 | 7.12483 | 109.44270 | 34851 ft | 510 kts | 36° |
| 2026-05-05 22:02 | 7.18288 | 109.48388 | 34848 ft | 510 kts | 36° |
| 2026-05-05 22:03 | 7.24086 | 109.52501 | 34850 ft | 510 kts | 36° |
| 2026-05-05 22:03 | 7.29889 | 109.56620 | 34850 ft | 509 kts | 36° |
| 2026-05-05 22:04 | 7.35678 | 109.60730 | 34850 ft | 509 kts | 36° |
| 2026-05-05 22:04 | 7.41432 | 109.64816 | 34850 ft | 509 kts | 36° |
| 2026-05-05 22:05 | 7.47222 | 109.68930 | 34851 ft | 509 kts | 36° |
| 2026-05-05 22:05 | 7.53015 | 109.73047 | 34850 ft | 509 kts | 36° |
| 2026-05-05 22:06 | 7.58805 | 109.77163 | 34851 ft | 509 kts | 36° |
| 2026-05-05 22:06 | 7.64594 | 109.81280 | 34850 ft | 509 kts | 36° |
| 2026-05-05 22:07 | 7.70384 | 109.85399 | 34851 ft | 509 kts | 36° |
| 2026-05-05 22:07 | 7.76172 | 109.89518 | 34851 ft | 509 kts | 36° |
| 2026-05-05 22:08 | 7.81919 | 109.93609 | 34851 ft | 509 kts | 36° |
| 2026-05-05 22:08 | 7.87743 | 109.97756 | 34851 ft | 509 kts | 36° |
| 2026-05-05 22:09 | 7.93496 | 110.01854 | 34851 ft | 509 kts | 36° |
| 2026-05-05 22:09 | 7.99281 | 110.05977 | 34851 ft | 509 kts | 36° |
| 2026-05-05 22:10 | 8.05067 | 110.10101 | 34852 ft | 509 kts | 36° |
| 2026-05-05 22:10 | 8.10857 | 110.14230 | 34854 ft | 509 kts | 36° |
| 2026-05-05 22:11 | 8.16646 | 110.18360 | 34851 ft | 509 kts | 36° |
| 2026-05-05 22:11 | 8.22430 | 110.22489 | 34854 ft | 509 kts | 36° |
| 2026-05-05 22:12 | 8.28201 | 110.26637 | 34854 ft | 509 kts | 36° |
| 2026-05-05 22:12 | 8.33968 | 110.30797 | 34853 ft | 509 kts | 36° |
| 2026-05-05 22:13 | 8.39730 | 110.34954 | 34854 ft | 509 kts | 36° |
| 2026-05-05 22:13 | 8.45497 | 110.39111 | 34854 ft | 509 kts | 36° |
| 2026-05-05 22:14 | 8.51262 | 110.43268 | 34852 ft | 509 kts | 36° |
| 2026-05-05 22:14 | 8.57025 | 110.47425 | 34853 ft | 509 kts | 36° |
| 2026-05-05 22:15 | 8.62799 | 110.51592 | 34854 ft | 510 kts | 36° |
| 2026-05-05 22:15 | 8.68529 | 110.55729 | 34853 ft | 510 kts | 36° |
| 2026-05-05 22:16 | 8.74300 | 110.59896 | 34852 ft | 510 kts | 36° |
| 2026-05-05 22:16 | 8.80073 | 110.64067 | 34853 ft | 510 kts | 36° |
| 2026-05-05 22:17 | 8.85839 | 110.68234 | 34853 ft | 510 kts | 36° |
| 2026-05-05 22:17 | 8.91614 | 110.72410 | 34852 ft | 509 kts | 36° |
| 2026-05-05 22:18 | 8.97375 | 110.76577 | 34854 ft | 509 kts | 36° |
| 2026-05-05 22:18 | 9.03136 | 110.80746 | 34852 ft | 509 kts | 36° |
| 2026-05-05 22:19 | 9.08888 | 110.84910 | 34852 ft | 508 kts | 36° |
| 2026-05-05 22:19 | 9.14636 | 110.89072 | 34854 ft | 508 kts | 36° |
| 2026-05-05 22:20 | 9.20343 | 110.93207 | 34856 ft | 508 kts | 36° |
| 2026-05-05 22:20 | 9.26090 | 110.97373 | 34855 ft | 508 kts | 36° |
| 2026-05-05 22:21 | 9.31846 | 111.01547 | 34858 ft | 509 kts | 36° |
| 2026-05-05 22:21 | 9.37598 | 111.05719 | 34858 ft | 509 kts | 36° |
| 2026-05-05 22:22 | 9.43353 | 111.09895 | 34858 ft | 509 kts | 36° |
| 2026-05-05 22:22 | 9.49115 | 111.14078 | 34855 ft | 509 kts | 36° |
| 2026-05-05 22:23 | 9.54872 | 111.18260 | 34859 ft | 509 kts | 36° |
| 2026-05-05 22:23 | 9.60635 | 111.22455 | 34860 ft | 510 kts | 36° |
| 2026-05-05 22:24 | 9.66412 | 111.26650 | 34854 ft | 511 kts | 36° |
| 2026-05-05 22:24 | 9.72194 | 111.30852 | 34858 ft | 511 kts | 36° |
| 2026-05-05 22:25 | 9.77976 | 111.35057 | 34859 ft | 512 kts | 36° |
| 2026-05-05 22:25 | 9.83717 | 111.39237 | 34857 ft | 512 kts | 36° |
| 2026-05-05 22:26 | 9.89506 | 111.43453 | 34861 ft | 513 kts | 36° |
| 2026-05-05 22:26 | 9.95308 | 111.47679 | 34857 ft | 514 kts | 36° |
| 2026-05-05 22:27 | 10.01130 | 111.51922 | 34858 ft | 515 kts | 36° |
| 2026-05-05 22:27 | 10.06955 | 111.56170 | 34861 ft | 516 kts | 36° |
| 2026-05-05 22:28 | 10.12787 | 111.60424 | 34863 ft | 516 kts | 36° |
| 2026-05-05 22:28 | 10.18621 | 111.64682 | 34861 ft | 516 kts | 36° |
| 2026-05-05 22:29 | 10.24462 | 111.68947 | 34863 ft | 517 kts | 35° |
| 2026-05-05 22:29 | 10.30310 | 111.73219 | 34858 ft | 518 kts | 35° |
| 2026-05-05 22:30 | 10.36164 | 111.77498 | 34859 ft | 519 kts | 35° |
| 2026-05-05 22:30 | 10.42021 | 111.81781 | 34861 ft | 519 kts | 35° |
| 2026-05-05 22:31 | 10.47873 | 111.86061 | 34862 ft | 518 kts | 35° |
| 2026-05-05 22:31 | 10.53729 | 111.90347 | 34863 ft | 518 kts | 34° |
| 2026-05-05 22:32 | 10.59530 | 111.94595 | 34862 ft | 517 kts | 35° |
| 2026-05-05 22:32 | 10.65368 | 111.98872 | 34861 ft | 517 kts | 34° |
| 2026-05-05 22:33 | 10.71199 | 112.03146 | 34862 ft | 517 kts | 35° |
| 2026-05-05 22:33 | 10.77032 | 112.07423 | 34863 ft | 517 kts | 35° |
| 2026-05-05 22:34 | 10.82861 | 112.11700 | 34862 ft | 517 kts | 35° |
| 2026-05-05 22:34 | 10.88688 | 112.15978 | 34861 ft | 516 kts | 35° |
| 2026-05-05 22:35 | 10.94507 | 112.20251 | 34863 ft | 516 kts | 35° |
| 2026-05-05 22:35 | 11.00324 | 112.24516 | 34862 ft | 515 kts | 34° |
| 2026-05-05 22:36 | 11.06154 | 112.28774 | 34864 ft | 515 kts | 34° |
| 2026-05-05 22:36 | 11.11946 | 112.33006 | 34868 ft | 515 kts | 35° |
| 2026-05-05 22:37 | 11.17804 | 112.37293 | 34869 ft | 515 kts | 34° |
| 2026-05-05 22:37 | 11.23579 | 112.41524 | 34869 ft | 515 kts | 35° |
| 2026-05-05 22:38 | 11.29392 | 112.45784 | 34867 ft | 515 kts | 34° |
| 2026-05-05 22:38 | 11.35207 | 112.50048 | 34870 ft | 515 kts | 35° |
| 2026-05-05 22:39 | 11.41026 | 112.54316 | 34866 ft | 515 kts | 34° |
| 2026-05-05 22:39 | 11.46839 | 112.58584 | 34867 ft | 515 kts | 34° |
| 2026-05-05 22:40 | 11.52648 | 112.62859 | 34867 ft | 515 kts | 34° |
| 2026-05-05 22:40 | 11.58453 | 112.67136 | 34873 ft | 515 kts | 34° |
| 2026-05-05 22:41 | 11.64253 | 112.71413 | 34872 ft | 515 kts | 34° |
| 2026-05-05 22:41 | 11.67152 | 112.73551 | 34975 ft | 511 kts | 34° |
| 2026-05-05 22:41 | 11.70008 | 112.75659 | 35424 ft | 502 kts | 34° |
| 2026-05-05 22:41 | 11.72820 | 112.77736 | 35718 ft | 497 kts | 34° |
| 2026-05-05 22:42 | 11.75616 | 112.79799 | 35845 ft | 496 kts | 34° |
| 2026-05-05 22:42 | 11.81206 | 112.83926 | 35990 ft | 495 kts | 34° |
| 2026-05-05 22:43 | 11.86793 | 112.88052 | 36092 ft | 496 kts | 34° |
| 2026-05-05 22:43 | 11.92338 | 112.92149 | 36218 ft | 495 kts | 34° |
| 2026-05-05 22:44 | 11.97915 | 112.96273 | 36344 ft | 495 kts | 34° |
| 2026-05-05 22:44 | 12.03489 | 113.00398 | 36459 ft | 495 kts | 34° |
| 2026-05-05 22:45 | 12.09059 | 113.04521 | 36549 ft | 494 kts | 34° |
| 2026-05-05 22:45 | 12.14630 | 113.08647 | 36614 ft | 495 kts | 34° |
| 2026-05-05 22:46 | 12.20209 | 113.12781 | 36719 ft | 495 kts | 34° |
| 2026-05-05 22:46 | 12.25780 | 113.16912 | 36808 ft | 495 kts | 34° |
| 2026-05-05 22:47 | 12.31349 | 113.21044 | 36875 ft | 495 kts | 34° |
| 2026-05-05 22:47 | 12.36929 | 113.25185 | 36878 ft | 496 kts | 34° |
| 2026-05-05 22:48 | 12.42529 | 113.29344 | 36878 ft | 498 kts | 34° |
| 2026-05-05 22:48 | 12.48149 | 113.33505 | 36878 ft | 499 kts | 34° |
| 2026-05-05 22:49 | 12.52837 | 113.36980 | 36878 ft | 501 kts | 34° |
| 2026-05-05 22:49 | 12.59397 | 113.41848 | 36881 ft | 501 kts | 34° |
| 2026-05-05 22:50 | 12.64122 | 113.45357 | 36878 ft | 501 kts | 34° |
| 2026-05-05 22:50 | 12.69722 | 113.49518 | 36881 ft | 501 kts | 34° |
| 2026-05-05 22:51 | 12.75365 | 113.53714 | 36882 ft | 500 kts | 34° |
| 2026-05-05 22:51 | 12.81002 | 113.57907 | 36881 ft | 500 kts | 34° |
| 2026-05-05 22:52 | 12.86627 | 113.62094 | 36880 ft | 500 kts | 34° |
| 2026-05-05 22:52 | 12.92255 | 113.66285 | 36881 ft | 500 kts | 34° |
| 2026-05-05 22:53 | 12.97878 | 113.70474 | 36881 ft | 500 kts | 34° |
| 2026-05-05 22:53 | 13.03501 | 113.74667 | 36881 ft | 500 kts | 34° |
| 2026-05-05 22:54 | 13.09123 | 113.78861 | 36881 ft | 500 kts | 34° |
| 2026-05-05 22:54 | 13.14745 | 113.83058 | 36881 ft | 500 kts | 34° |
| 2026-05-05 22:55 | 13.20363 | 113.87253 | 36884 ft | 500 kts | 34° |
| 2026-05-05 22:55 | 13.25982 | 113.91452 | 36884 ft | 500 kts | 34° |
| 2026-05-05 22:56 | 13.31601 | 113.95653 | 36884 ft | 500 kts | 34° |
| 2026-05-05 22:56 | 13.37216 | 113.99855 | 36887 ft | 500 kts | 34° |
| 2026-05-05 22:57 | 13.42837 | 114.04063 | 36889 ft | 499 kts | 34° |
| 2026-05-05 22:57 | 13.48415 | 114.08240 | 36889 ft | 500 kts | 34° |
| 2026-05-05 22:58 | 13.54036 | 114.12453 | 36889 ft | 500 kts | 34° |
| 2026-05-05 22:58 | 13.59651 | 114.16664 | 36889 ft | 500 kts | 34° |
| 2026-05-05 22:59 | 13.65273 | 114.20882 | 36889 ft | 500 kts | 34° |
| 2026-05-05 22:59 | 13.70887 | 114.25098 | 36893 ft | 500 kts | 33° |
| 2026-05-05 23:00 | 13.79324 | 114.31437 | 36895 ft | 501 kts | 33° |
| 2026-05-05 23:00 | 13.84953 | 114.35670 | 36895 ft | 501 kts | 33° |
| 2026-05-05 23:01 | 13.90572 | 114.39899 | 36892 ft | 500 kts | 34° |
| 2026-05-05 23:01 | 13.96133 | 114.44138 | 36887 ft | 501 kts | 37° |
| 2026-05-05 23:02 | 14.01167 | 114.49133 | 36892 ft | 503 kts | 44° |
| 2026-05-05 23:02 | 14.06001 | 114.54360 | 36895 ft | 504 kts | 44° |
| 2026-05-05 23:03 | 14.10798 | 114.59622 | 36897 ft | 504 kts | 44° |
| 2026-05-05 23:03 | 14.15603 | 114.64885 | 36897 ft | 504 kts | 44° |
| 2026-05-05 23:04 | 14.20417 | 114.70141 | 36897 ft | 504 kts | 44° |
| 2026-05-05 23:04 | 14.25228 | 114.75392 | 36897 ft | 504 kts | 44° |
| 2026-05-05 23:05 | 14.30041 | 114.80650 | 36895 ft | 504 kts | 44° |
| 2026-05-05 23:05 | 14.34856 | 114.85912 | 36895 ft | 505 kts | 44° |
| 2026-05-05 23:06 | 14.39674 | 114.91183 | 36900 ft | 505 kts | 44° |
| 2026-05-05 23:06 | 14.44489 | 114.96453 | 36900 ft | 505 kts | 44° |
| 2026-05-05 23:07 | 14.49306 | 115.01730 | 36899 ft | 505 kts | 44° |
| 2026-05-05 23:07 | 14.54115 | 115.07001 | 36900 ft | 504 kts | 44° |
| 2026-05-05 23:08 | 14.58892 | 115.12241 | 36898 ft | 504 kts | 44° |
| 2026-05-05 23:08 | 14.63702 | 115.17520 | 36896 ft | 504 kts | 44° |
| 2026-05-05 23:09 | 14.68509 | 115.22800 | 36900 ft | 504 kts | 44° |
| 2026-05-05 23:09 | 14.73314 | 115.28082 | 36900 ft | 504 kts | 44° |
| 2026-05-05 23:10 | 14.78119 | 115.33366 | 36901 ft | 504 kts | 44° |
| 2026-05-05 23:10 | 14.82919 | 115.38649 | 36901 ft | 504 kts | 44° |
| 2026-05-05 23:11 | 14.87710 | 115.43926 | 36904 ft | 503 kts | 44° |
| 2026-05-05 23:11 | 14.92491 | 115.49196 | 36901 ft | 502 kts | 44° |
| 2026-05-05 23:12 | 14.97266 | 115.54462 | 36902 ft | 502 kts | 44° |
| 2026-05-05 23:12 | 15.02046 | 115.59738 | 36902 ft | 502 kts | 44° |
| 2026-05-05 23:13 | 15.06823 | 115.65014 | 36901 ft | 502 kts | 44° |
| 2026-05-05 23:13 | 15.11595 | 115.70288 | 36902 ft | 502 kts | 44° |
| 2026-05-05 23:14 | 15.16359 | 115.75558 | 36902 ft | 502 kts | 44° |
| 2026-05-05 23:14 | 15.21131 | 115.80840 | 36902 ft | 502 kts | 44° |
| 2026-05-05 23:15 | 15.25900 | 115.86121 | 36907 ft | 502 kts | 44° |
| 2026-05-05 23:15 | 15.30668 | 115.91406 | 36907 ft | 502 kts | 45° |
| 2026-05-05 23:16 | 15.35434 | 115.96693 | 36909 ft | 502 kts | 45° |
| 2026-05-05 23:16 | 15.40168 | 116.01948 | 36907 ft | 502 kts | 45° |
| 2026-05-05 23:17 | 15.44935 | 116.07242 | 36911 ft | 502 kts | 45° |
| 2026-05-05 23:17 | 15.49708 | 116.12548 | 36912 ft | 503 kts | 45° |
| 2026-05-05 23:18 | 15.54480 | 116.17856 | 36911 ft | 503 kts | 45° |
| 2026-05-05 23:18 | 15.59253 | 116.23170 | 36911 ft | 503 kts | 45° |
| 2026-05-05 23:19 | 15.64020 | 116.28480 | 36912 ft | 503 kts | 45° |
| 2026-05-05 23:19 | 15.68756 | 116.33760 | 36921 ft | 502 kts | 45° |
| 2026-05-05 23:20 | 15.73518 | 116.39072 | 36914 ft | 502 kts | 45° |
| 2026-05-05 23:20 | 15.78277 | 116.44386 | 36913 ft | 503 kts | 45° |
| 2026-05-05 23:21 | 15.83042 | 116.49710 | 36916 ft | 503 kts | 45° |
| 2026-05-05 23:21 | 15.87804 | 116.55035 | 36916 ft | 503 kts | 45° |
| 2026-05-05 23:22 | 15.92563 | 116.60360 | 36914 ft | 503 kts | 45° |
| 2026-05-05 23:22 | 15.97320 | 116.65688 | 36918 ft | 502 kts | 45° |
| 2026-05-05 23:23 | 16.02074 | 116.71014 | 36914 ft | 503 kts | 45° |
| 2026-05-05 23:23 | 16.06804 | 116.76319 | 36914 ft | 503 kts | 45° |
| 2026-05-05 23:24 | 16.11563 | 116.81660 | 36916 ft | 503 kts | 45° |
| 2026-05-05 23:24 | 16.16321 | 116.87005 | 36918 ft | 503 kts | 45° |
| 2026-05-05 23:25 | 16.21074 | 116.92347 | 36920 ft | 503 kts | 45° |
| 2026-05-05 23:25 | 16.25823 | 116.97690 | 36921 ft | 503 kts | 45° |
| 2026-05-05 23:26 | 16.30575 | 117.03039 | 36919 ft | 504 kts | 45° |
| 2026-05-05 23:26 | 16.35334 | 117.08401 | 36919 ft | 504 kts | 45° |
| 2026-05-05 23:27 | 16.40098 | 117.13772 | 36917 ft | 504 kts | 45° |
| 2026-05-05 23:27 | 16.44854 | 117.19139 | 36916 ft | 504 kts | 45° |
| 2026-05-05 23:28 | 16.49599 | 117.24500 | 36917 ft | 503 kts | 45° |
| 2026-05-05 23:28 | 16.54342 | 117.29860 | 36920 ft | 503 kts | 45° |
| 2026-05-05 23:29 | 16.59070 | 117.35207 | 36919 ft | 505 kts | 45° |
| 2026-05-05 23:29 | 16.63833 | 117.40598 | 36916 ft | 505 kts | 45° |
| 2026-05-05 23:30 | 16.67821 | 117.45116 | 36919 ft | 505 kts | 45° |
| 2026-05-05 23:30 | 16.73351 | 117.51385 | 36918 ft | 505 kts | 45° |
| 2026-05-05 23:31 | 16.78105 | 117.56781 | 36918 ft | 505 kts | 45° |
| 2026-05-05 23:31 | 16.82858 | 117.62179 | 36918 ft | 505 kts | 45° |
| 2026-05-05 23:32 | 16.87615 | 117.67585 | 36918 ft | 505 kts | 45° |
| 2026-05-05 23:32 | 16.92362 | 117.72985 | 36918 ft | 505 kts | 45° |
| 2026-05-05 23:33 | 16.97118 | 117.78399 | 36919 ft | 505 kts | 45° |
| 2026-05-05 23:33 | 17.01863 | 117.83805 | 36920 ft | 505 kts | 45° |
| 2026-05-05 23:34 | 17.06614 | 117.89223 | 36918 ft | 506 kts | 45° |
| 2026-05-05 23:34 | 17.11341 | 117.94616 | 36916 ft | 507 kts | 45° |
| 2026-05-05 23:35 | 17.16104 | 118.00056 | 36919 ft | 507 kts | 45° |
| 2026-05-05 23:35 | 17.20861 | 118.05493 | 36917 ft | 507 kts | 45° |
| 2026-05-05 23:36 | 17.25621 | 118.10938 | 36920 ft | 507 kts | 46° |
| 2026-05-05 23:36 | 17.30377 | 118.16384 | 36927 ft | 507 kts | 45° |
| 2026-05-05 23:37 | 17.35136 | 118.21837 | 36923 ft | 508 kts | 45° |
| 2026-05-05 23:37 | 17.39099 | 118.26382 | 36920 ft | 508 kts | 45° |
| 2026-05-05 23:38 | 17.43874 | 118.31861 | 36920 ft | 509 kts | 45° |
| 2026-05-05 23:38 | 17.48638 | 118.37333 | 36915 ft | 508 kts | 45° |
| 2026-05-05 23:39 | 17.53402 | 118.42809 | 36922 ft | 509 kts | 45° |
| 2026-05-05 23:39 | 17.58170 | 118.48295 | 36925 ft | 509 kts | 45° |
| 2026-05-05 23:40 | 17.62937 | 118.53784 | 36923 ft | 510 kts | 45° |
| 2026-05-05 23:40 | 17.67713 | 118.59288 | 36922 ft | 510 kts | 45° |
| 2026-05-05 23:41 | 17.72451 | 118.64752 | 36926 ft | 510 kts | 45° |
| 2026-05-05 23:41 | 17.77222 | 118.70260 | 36926 ft | 510 kts | 45° |
| 2026-05-05 23:42 | 17.81990 | 118.75769 | 36927 ft | 510 kts | 45° |
| 2026-05-05 23:42 | 17.86766 | 118.81293 | 36926 ft | 511 kts | 45° |
| 2026-05-05 23:43 | 17.91540 | 118.86818 | 36928 ft | 511 kts | 45° |
| 2026-05-05 23:43 | 17.96314 | 118.92348 | 36925 ft | 511 kts | 45° |
| 2026-05-05 23:44 | 18.01092 | 118.97890 | 36931 ft | 511 kts | 45° |
| 2026-05-05 23:44 | 18.05867 | 119.03433 | 36926 ft | 511 kts | 45° |
| 2026-05-05 23:45 | 18.10612 | 119.08942 | 36930 ft | 511 kts | 45° |
| 2026-05-05 23:45 | 18.15385 | 119.14489 | 36918 ft | 512 kts | 45° |
| 2026-05-05 23:46 | 18.20152 | 119.20036 | 36933 ft | 512 kts | 45° |
| 2026-05-05 23:46 | 18.24922 | 119.25591 | 36912 ft | 512 kts | 45° |
| 2026-05-05 23:47 | 18.29693 | 119.31151 | 36932 ft | 512 kts | 45° |
| 2026-05-05 23:47 | 18.34468 | 119.36723 | 36922 ft | 512 kts | 45° |
| 2026-05-05 23:48 | 18.39239 | 119.42295 | 36927 ft | 512 kts | 45° |
| 2026-05-05 23:48 | 18.44011 | 119.47871 | 36924 ft | 512 kts | 45° |
| 2026-05-05 23:49 | 18.48778 | 119.53448 | 36925 ft | 512 kts | 45° |
| 2026-05-05 23:49 | 18.53547 | 119.59032 | 36923 ft | 513 kts | 45° |
| 2026-05-05 23:50 | 18.58319 | 119.64624 | 36931 ft | 513 kts | 45° |
| 2026-05-05 23:50 | 18.63089 | 119.70229 | 36927 ft | 513 kts | 45° |
| 2026-05-05 23:51 | 18.67865 | 119.75833 | 36924 ft | 513 kts | 45° |
| 2026-05-05 23:51 | 18.72637 | 119.81436 | 36925 ft | 513 kts | 45° |
| 2026-05-05 23:52 | 18.77411 | 119.87049 | 36927 ft | 514 kts | 45° |
| 2026-05-05 23:52 | 18.82185 | 119.92669 | 36929 ft | 514 kts | 45° |
| 2026-05-05 23:53 | 18.86924 | 119.98254 | 36924 ft | 515 kts | 45° |
| 2026-05-05 23:53 | 18.91701 | 120.03888 | 36927 ft | 515 kts | 45° |
| 2026-05-05 23:54 | 18.96477 | 120.09526 | 36930 ft | 515 kts | 45° |
| 2026-05-05 23:54 | 19.01256 | 120.15173 | 36931 ft | 515 kts | 45° |
| 2026-05-05 23:55 | 19.06033 | 120.20823 | 36929 ft | 515 kts | 45° |
| 2026-05-05 23:55 | 19.10818 | 120.26489 | 36934 ft | 516 kts | 44° |
| 2026-05-05 23:56 | 19.15596 | 120.32150 | 36933 ft | 517 kts | 45° |
| 2026-05-05 23:56 | 19.20390 | 120.37835 | 36932 ft | 517 kts | 45° |
| 2026-05-05 23:57 | 19.25178 | 120.43520 | 36933 ft | 517 kts | 45° |
| 2026-05-05 23:57 | 19.29963 | 120.49206 | 36937 ft | 517 kts | 45° |
| 2026-05-05 23:58 | 19.34749 | 120.54900 | 36933 ft | 517 kts | 45° |
| 2026-05-05 23:58 | 19.39536 | 120.60600 | 36935 ft | 517 kts | 45° |
| 2026-05-05 23:59 | 19.44317 | 120.66300 | 36936 ft | 517 kts | 45° |
| 2026-05-05 23:59 | 19.49064 | 120.71962 | 36939 ft | 517 kts | 45° |
| 2026-05-06 00:00 | 19.53853 | 120.77680 | 36940 ft | 517 kts | 45° |
| 2026-05-06 00:00 | 19.58629 | 120.83388 | 36943 ft | 518 kts | 44° |
| 2026-05-06 00:01 | 19.63423 | 120.89123 | 36939 ft | 519 kts | 44° |
| 2026-05-06 00:01 | 19.68214 | 120.94862 | 36940 ft | 519 kts | 44° |
| 2026-05-06 00:02 | 19.73003 | 121.00602 | 36944 ft | 519 kts | 45° |
| 2026-05-06 00:02 | 19.77787 | 121.06343 | 36943 ft | 519 kts | 45° |
| 2026-05-06 00:03 | 19.82581 | 121.12102 | 36945 ft | 520 kts | 44° |
| 2026-05-06 00:03 | 19.87375 | 121.17866 | 36947 ft | 521 kts | 44° |
| 2026-05-06 00:04 | 19.92176 | 121.23644 | 36944 ft | 521 kts | 44° |
| 2026-05-06 00:04 | 19.96942 | 121.29387 | 36947 ft | 521 kts | 44° |
| 2026-05-06 00:05 | 20.04142 | 121.38071 | 36954 ft | 522 kts | 44° |
| 2026-05-06 00:06 | 20.08951 | 121.43880 | 36945 ft | 523 kts | 44° |
| 2026-05-06 00:06 | 20.13765 | 121.49699 | 36954 ft | 524 kts | 44° |
| 2026-05-06 00:07 | 20.18580 | 121.55527 | 36950 ft | 524 kts | 44° |
| 2026-05-06 00:07 | 20.23394 | 121.61360 | 36960 ft | 524 kts | 44° |
| 2026-05-06 00:08 | 20.28174 | 121.67156 | 36963 ft | 525 kts | 44° |
| 2026-05-06 00:08 | 20.32998 | 121.73011 | 36956 ft | 526 kts | 44° |
| 2026-05-06 00:09 | 20.37835 | 121.78889 | 36964 ft | 527 kts | 44° |
| 2026-05-06 00:09 | 20.42666 | 121.84767 | 36962 ft | 527 kts | 44° |
| 2026-05-06 00:10 | 20.47491 | 121.90643 | 36963 ft | 527 kts | 44° |
| 2026-05-06 00:10 | 20.52318 | 121.96527 | 36964 ft | 528 kts | 44° |
| 2026-05-06 00:11 | 20.57166 | 122.02442 | 36967 ft | 529 kts | 44° |
| 2026-05-06 00:11 | 20.61970 | 122.08311 | 36973 ft | 529 kts | 45° |
| 2026-05-06 00:12 | 20.66812 | 122.14231 | 36971 ft | 529 kts | 45° |
| 2026-05-06 00:12 | 20.71647 | 122.20150 | 36974 ft | 529 kts | 45° |
| 2026-05-06 00:13 | 20.76493 | 122.26088 | 36968 ft | 531 kts | 45° |
| 2026-05-06 00:13 | 20.81347 | 122.32043 | 36975 ft | 531 kts | 45° |
| 2026-05-06 00:14 | 20.86198 | 122.37999 | 36976 ft | 531 kts | 45° |
| 2026-05-06 00:14 | 20.91041 | 122.43953 | 36976 ft | 531 kts | 45° |
| 2026-05-06 00:15 | 20.95889 | 122.49921 | 36979 ft | 531 kts | 45° |
| 2026-05-06 00:15 | 21.01072 | 122.55507 | 36977 ft | 524 kts | 32° |
| 2026-05-06 00:16 | 21.07036 | 122.59948 | 36979 ft | 521 kts | 28° |
| 2026-05-06 00:16 | 21.13079 | 122.64144 | 36991 ft | 521 kts | 28° |
| 2026-05-06 00:17 | 21.19184 | 122.68349 | 36984 ft | 522 kts | 27° |
| 2026-05-06 00:17 | 21.25291 | 122.72582 | 36979 ft | 524 kts | 28° |
| 2026-05-06 00:18 | 21.31404 | 122.76841 | 36982 ft | 524 kts | 28° |
| 2026-05-06 00:18 | 21.37518 | 122.81112 | 36982 ft | 524 kts | 28° |
| 2026-05-06 00:19 | 21.43630 | 122.85385 | 36988 ft | 524 kts | 27° |
| 2026-05-06 00:19 | 21.49747 | 122.89664 | 36975 ft | 525 kts | 28° |
| 2026-05-06 00:20 | 21.55881 | 122.93958 | 36982 ft | 526 kts | 28° |
| 2026-05-06 00:20 | 21.62020 | 122.98261 | 36985 ft | 527 kts | 28° |
| 2026-05-06 00:21 | 21.68157 | 123.02568 | 36985 ft | 527 kts | 28° |
| 2026-05-06 00:21 | 21.74295 | 123.06880 | 36988 ft | 527 kts | 28° |
| 2026-05-06 00:22 | 21.80434 | 123.11197 | 36988 ft | 527 kts | 28° |
| 2026-05-06 00:22 | 21.86522 | 123.15482 | 36987 ft | 526 kts | 28° |
| 2026-05-06 00:23 | 21.92657 | 123.19804 | 36989 ft | 528 kts | 28° |
| 2026-05-06 00:23 | 21.98811 | 123.24144 | 36990 ft | 529 kts | 28° |
| 2026-05-06 00:24 | 22.04966 | 123.28490 | 36990 ft | 529 kts | 28° |
| 2026-05-06 00:24 | 22.11119 | 123.32840 | 36989 ft | 529 kts | 28° |
| 2026-05-06 00:25 | 22.17276 | 123.37197 | 36990 ft | 529 kts | 28° |
| 2026-05-06 00:25 | 22.22395 | 123.40822 | 36987 ft | 529 kts | 28° |
| 2026-05-06 00:26 | 22.29552 | 123.45896 | 36987 ft | 529 kts | 28° |
| 2026-05-06 00:26 | 22.35713 | 123.50270 | 36993 ft | 529 kts | 28° |
| 2026-05-06 00:27 | 22.40827 | 123.53903 | 36991 ft | 529 kts | 28° |
| 2026-05-06 00:27 | 22.46986 | 123.58284 | 36990 ft | 530 kts | 28° |
| 2026-05-06 00:28 | 22.53142 | 123.62667 | 36990 ft | 530 kts | 28° |
| 2026-05-06 00:28 | 22.59294 | 123.67052 | 36994 ft | 530 kts | 28° |
| 2026-05-06 00:29 | 22.65452 | 123.71446 | 36992 ft | 530 kts | 28° |
| 2026-05-06 00:29 | 22.71618 | 123.75850 | 36988 ft | 531 kts | 28° |
| 2026-05-06 00:30 | 22.77789 | 123.80263 | 36992 ft | 531 kts | 28° |
| 2026-05-06 00:30 | 22.83947 | 123.84682 | 37004 ft | 532 kts | 28° |
| 2026-05-06 00:31 | 22.90129 | 123.89110 | 36991 ft | 532 kts | 28° |
| 2026-05-06 00:31 | 22.96299 | 123.93532 | 36995 ft | 532 kts | 28° |
| 2026-05-06 00:32 | 23.02468 | 123.97970 | 36992 ft | 532 kts | 28° |
| 2026-05-06 00:32 | 23.08606 | 124.02485 | 36997 ft | 533 kts | 29° |
| 2026-05-06 00:33 | 23.14741 | 124.07033 | 36990 ft | 534 kts | 29° |
| 2026-05-06 00:33 | 23.20880 | 124.11579 | 36993 ft | 534 kts | 29° |
| 2026-05-06 00:34 | 23.27022 | 124.16124 | 36991 ft | 534 kts | 29° |
| 2026-05-06 00:34 | 23.33147 | 124.20701 | 36989 ft | 536 kts | 32° |
| 2026-05-06 00:35 | 23.38529 | 124.26312 | 36986 ft | 543 kts | 44° |
| 2026-05-06 00:35 | 23.43562 | 124.32472 | 37004 ft | 544 kts | 45° |
| 2026-05-06 00:36 | 23.48523 | 124.38708 | 36993 ft | 545 kts | 46° |
| 2026-05-06 00:36 | 23.53493 | 124.44944 | 36994 ft | 545 kts | 45° |
| 2026-05-06 00:37 | 23.58484 | 124.51183 | 36991 ft | 546 kts | 46° |
| 2026-05-06 00:37 | 23.63476 | 124.57419 | 36991 ft | 546 kts | 46° |
| 2026-05-06 00:38 | 23.68467 | 124.63663 | 36992 ft | 546 kts | 46° |
| 2026-05-06 00:38 | 23.73460 | 124.69916 | 36997 ft | 547 kts | 46° |
| 2026-05-06 00:39 | 23.78459 | 124.76187 | 36985 ft | 548 kts | 46° |
| 2026-05-06 00:39 | 23.83466 | 124.82477 | 36993 ft | 548 kts | 46° |
| 2026-05-06 00:40 | 23.88469 | 124.88766 | 36994 ft | 548 kts | 46° |
| 2026-05-06 00:40 | 23.93470 | 124.95062 | 36993 ft | 548 kts | 46° |
| 2026-05-06 00:41 | 23.98464 | 125.01359 | 36989 ft | 548 kts | 46° |
| 2026-05-06 00:41 | 24.03452 | 125.07655 | 36995 ft | 547 kts | 46° |
| 2026-05-06 00:42 | 24.08438 | 125.13958 | 36993 ft | 547 kts | 46° |
| 2026-05-06 00:42 | 24.13415 | 125.20255 | 36994 ft | 547 kts | 46° |
| 2026-05-06 00:43 | 24.18389 | 125.26560 | 36984 ft | 547 kts | 46° |
| 2026-05-06 00:43 | 24.23355 | 125.32861 | 36990 ft | 547 kts | 46° |
| 2026-05-06 00:44 | 24.28291 | 125.39132 | 37004 ft | 547 kts | 47° |
| 2026-05-06 00:44 | 24.33246 | 125.45436 | 36990 ft | 545 kts | 47° |
| 2026-05-06 00:45 | 24.38196 | 125.51743 | 36983 ft | 545 kts | 47° |
| 2026-05-06 00:45 | 24.43136 | 125.58044 | 36999 ft | 545 kts | 47° |
| 2026-05-06 00:46 | 24.48072 | 125.64348 | 37009 ft | 544 kts | 47° |
| 2026-05-06 00:46 | 24.53006 | 125.70657 | 36993 ft | 544 kts | 47° |
| 2026-05-06 00:47 | 24.57929 | 125.76962 | 36985 ft | 543 kts | 47° |
| 2026-05-06 00:47 | 24.62847 | 125.83269 | 36996 ft | 543 kts | 47° |
| 2026-05-06 00:48 | 24.67764 | 125.89580 | 37013 ft | 543 kts | 47° |
| 2026-05-06 00:48 | 24.72679 | 125.95900 | 36999 ft | 544 kts | 47° |
| 2026-05-06 00:49 | 24.77593 | 126.02228 | 36999 ft | 544 kts | 47° |
| 2026-05-06 00:49 | 24.82509 | 126.08563 | 36999 ft | 544 kts | 47° |
| 2026-05-06 00:50 | 24.87418 | 126.14900 | 37002 ft | 544 kts | 48° |
| 2026-05-06 00:50 | 24.92327 | 126.21244 | 37002 ft | 544 kts | 48° |
| 2026-05-06 00:51 | 24.97198 | 126.27549 | 36993 ft | 544 kts | 48° |
| 2026-05-06 00:51 | 25.02105 | 126.33909 | 37001 ft | 545 kts | 48° |
| 2026-05-06 00:52 | 25.07011 | 126.40274 | 37004 ft | 544 kts | 49° |
| 2026-05-06 00:52 | 25.11910 | 126.46641 | 37007 ft | 544 kts | 49° |
| 2026-05-06 00:53 | 25.16796 | 126.53001 | 36993 ft | 543 kts | 49° |
| 2026-05-06 00:53 | 25.21691 | 126.59380 | 37001 ft | 545 kts | 49° |
| 2026-05-06 00:54 | 25.26591 | 126.65772 | 37004 ft | 545 kts | 49° |
| 2026-05-06 00:54 | 25.31489 | 126.72172 | 37008 ft | 545 kts | 49° |
| 2026-05-06 00:55 | 25.36384 | 126.78579 | 37004 ft | 545 kts | 49° |
| 2026-05-06 00:55 | 25.41279 | 126.84993 | 37023 ft | 546 kts | 49° |
| 2026-05-06 00:56 | 25.46179 | 126.91421 | 37000 ft | 546 kts | 49° |
| 2026-05-06 00:56 | 25.51078 | 126.97858 | 37003 ft | 547 kts | 49° |
| 2026-05-06 00:57 | 25.55941 | 127.04258 | 37015 ft | 547 kts | 49° |
| 2026-05-06 00:57 | 25.60873 | 127.10751 | 37008 ft | 547 kts | 49° |
| 2026-05-06 00:58 | 25.65862 | 127.17044 | 37007 ft | 547 kts | 47° |
| 2026-05-06 00:58 | 25.70949 | 127.23317 | 37007 ft | 546 kts | 47° |
| 2026-05-06 00:59 | 25.76021 | 127.29615 | 37010 ft | 547 kts | 47° |
| 2026-05-06 00:59 | 25.81072 | 127.35933 | 37007 ft | 548 kts | 47° |
| 2026-05-06 01:00 | 25.86119 | 127.42269 | 37009 ft | 548 kts | 47° |
| 2026-05-06 01:00 | 25.91171 | 127.48620 | 37007 ft | 548 kts | 47° |
| 2026-05-06 01:01 | 25.96220 | 127.54976 | 37016 ft | 548 kts | 47° |
| 2026-05-06 01:01 | 26.01228 | 127.61287 | 37015 ft | 548 kts | 47° |
| 2026-05-06 01:02 | 26.06265 | 127.67644 | 36998 ft | 548 kts | 47° |
| 2026-05-06 01:02 | 26.11301 | 127.74009 | 36992 ft | 548 kts | 47° |
| 2026-05-06 01:03 | 26.16461 | 127.80247 | 37041 ft | 546 kts | 39° |
| 2026-05-06 01:03 | 26.22177 | 127.85799 | 37046 ft | 545 kts | 38° |
| 2026-05-06 01:04 | 26.27985 | 127.91218 | 37040 ft | 545 kts | 37° |
| 2026-05-06 01:04 | 26.33810 | 127.96625 | 37032 ft | 545 kts | 38° |
| 2026-05-06 01:05 | 26.39639 | 128.02063 | 37024 ft | 546 kts | 38° |
| 2026-05-06 01:05 | 26.45459 | 128.07514 | 37022 ft | 546 kts | 38° |
| 2026-05-06 01:06 | 26.51085 | 128.12794 | 37015 ft | 547 kts | 38° |
| 2026-05-06 01:06 | 26.56909 | 128.18267 | 37012 ft | 547 kts | 38° |
| 2026-05-06 01:07 | 26.62739 | 128.23755 | 37008 ft | 547 kts | 38° |
| 2026-05-06 01:07 | 26.68554 | 128.29233 | 37022 ft | 547 kts | 38° |
| 2026-05-06 01:08 | 26.74387 | 128.34735 | 37016 ft | 549 kts | 38° |
| 2026-05-06 01:08 | 26.80234 | 128.40260 | 37020 ft | 550 kts | 38° |
| 2026-05-06 01:09 | 26.86044 | 128.45757 | 37029 ft | 550 kts | 38° |
| 2026-05-06 01:09 | 26.91897 | 128.51302 | 37028 ft | 551 kts | 38° |
| 2026-05-06 01:10 | 26.97755 | 128.56860 | 37028 ft | 552 kts | 38° |
| 2026-05-06 01:10 | 27.03611 | 128.62425 | 37029 ft | 552 kts | 38° |
| 2026-05-06 01:11 | 27.09470 | 128.68001 | 37025 ft | 553 kts | 39° |
| 2026-05-06 01:11 | 27.15346 | 128.73600 | 37035 ft | 554 kts | 39° |
| 2026-05-06 01:12 | 27.21225 | 128.79208 | 37039 ft | 554 kts | 39° |
| 2026-05-06 01:12 | 27.27113 | 128.84833 | 37041 ft | 557 kts | 39° |
| 2026-05-06 01:13 | 27.33030 | 128.90496 | 37023 ft | 561 kts | 39° |
| 2026-05-06 01:13 | 27.38996 | 128.96216 | 37036 ft | 564 kts | 39° |
| 2026-05-06 01:14 | 27.47968 | 129.04830 | 37043 ft | 566 kts | 39° |
| 2026-05-06 01:14 | 27.53757 | 129.10824 | 37048 ft | 567 kts | 49° |
| 2026-05-06 01:15 | 27.58913 | 129.17547 | 37035 ft | 565 kts | 50° |
| 2026-05-06 01:15 | 27.63880 | 129.24311 | 37047 ft | 564 kts | 51° |
| 2026-05-06 01:16 | 27.68860 | 129.31154 | 37046 ft | 564 kts | 51° |
| 2026-05-06 01:16 | 27.73852 | 129.37993 | 37056 ft | 564 kts | 51° |
| 2026-05-06 01:17 | 27.78831 | 129.44800 | 37051 ft | 562 kts | 51° |
| 2026-05-06 01:17 | 27.83802 | 129.51603 | 37050 ft | 561 kts | 51° |
| 2026-05-06 01:18 | 27.88772 | 129.58415 | 37038 ft | 562 kts | 50° |
| 2026-05-06 01:18 | 27.93744 | 129.65242 | 37050 ft | 562 kts | 51° |
| 2026-05-06 01:19 | 27.98708 | 129.72070 | 37047 ft | 562 kts | 51° |
| 2026-05-06 01:19 | 28.03672 | 129.78908 | 37057 ft | 562 kts | 51° |
| 2026-05-06 01:20 | 28.08632 | 129.85764 | 37048 ft | 562 kts | 51° |
| 2026-05-06 01:20 | 28.13565 | 129.92598 | 37064 ft | 560 kts | 51° |
| 2026-05-06 01:21 | 28.17677 | 129.98277 | 37068 ft | 562 kts | 51° |
| 2026-05-06 01:21 | 28.23445 | 130.06258 | 37067 ft | 562 kts | 51° |
| 2026-05-06 01:22 | 28.27589 | 130.12011 | 37087 ft | 563 kts | 51° |
| 2026-05-06 01:22 | 28.32554 | 130.18883 | 37062 ft | 562 kts | 50° |
| 2026-05-06 01:23 | 28.37461 | 130.25715 | 37035 ft | 563 kts | 51° |
| 2026-05-06 01:23 | 28.42397 | 130.32623 | 37068 ft | 563 kts | 51° |
| 2026-05-06 01:24 | 28.47317 | 130.39496 | 37057 ft | 560 kts | 51° |
| 2026-05-06 01:24 | 28.52238 | 130.46392 | 37059 ft | 563 kts | 51° |
| 2026-05-06 01:25 | 28.57168 | 130.53314 | 37053 ft | 562 kts | 51° |
| 2026-05-06 01:25 | 28.62073 | 130.60205 | 37055 ft | 560 kts | 51° |
| 2026-05-06 01:26 | 28.66974 | 130.67096 | 37060 ft | 559 kts | 52° |
| 2026-05-06 01:26 | 28.71881 | 130.74010 | 37064 ft | 562 kts | 51° |
| 2026-05-06 01:27 | 28.76804 | 130.80946 | 37065 ft | 562 kts | 52° |
| 2026-05-06 01:27 | 28.81724 | 130.87897 | 37045 ft | 564 kts | 52° |
| 2026-05-06 01:28 | 28.86653 | 130.94880 | 37053 ft | 564 kts | 52° |
| 2026-05-06 01:28 | 28.91550 | 131.01836 | 37063 ft | 561 kts | 52° |
| 2026-05-06 01:29 | 28.96439 | 131.08787 | 37070 ft | 562 kts | 52° |
| 2026-05-06 01:29 | 29.01350 | 131.15778 | 37055 ft | 565 kts | 52° |
| 2026-05-06 01:30 | 29.06269 | 131.22790 | 37064 ft | 565 kts | 52° |
| 2026-05-06 01:30 | 29.11175 | 131.29795 | 37064 ft | 564 kts | 52° |
| 2026-05-06 01:31 | 29.16044 | 131.36759 | 37054 ft | 563 kts | 53° |
| 2026-05-06 01:31 | 29.20938 | 131.43770 | 37065 ft | 564 kts | 53° |
| 2026-05-06 01:32 | 29.25828 | 131.50791 | 37066 ft | 564 kts | 52° |
| 2026-05-06 01:32 | 29.30725 | 131.57833 | 37052 ft | 566 kts | 52° |
| 2026-05-06 01:33 | 29.35629 | 131.64893 | 37061 ft | 566 kts | 52° |
| 2026-05-06 01:33 | 29.40528 | 131.71962 | 37067 ft | 567 kts | 52° |
| 2026-05-06 01:34 | 29.45447 | 131.79073 | 37060 ft | 570 kts | 52° |
| 2026-05-06 01:34 | 29.50383 | 131.86220 | 37068 ft | 572 kts | 52° |
| 2026-05-06 01:35 | 29.55344 | 131.93414 | 37066 ft | 575 kts | 52° |
| 2026-05-06 01:35 | 29.60302 | 132.00583 | 36993 ft | 569 kts | 51° |
| 2026-05-06 01:36 | 29.65168 | 132.07671 | 37076 ft | 568 kts | 52° |
| 2026-05-06 01:36 | 29.70135 | 132.14775 | 37067 ft | 571 kts | 51° |
| 2026-05-06 01:37 | 29.75199 | 132.21831 | 37069 ft | 573 kts | 50° |
| 2026-05-06 01:37 | 29.80271 | 132.28907 | 37073 ft | 572 kts | 50° |
| 2026-05-06 01:38 | 29.85334 | 132.36019 | 37069 ft | 575 kts | 50° |
| 2026-05-06 01:38 | 29.90406 | 132.43173 | 37074 ft | 577 kts | 50° |
| 2026-05-06 01:39 | 29.95472 | 132.50333 | 37090 ft | 576 kts | 50° |
| 2026-05-06 01:39 | 30.00544 | 132.57511 | 37088 ft | 578 kts | 50° |
| 2026-05-06 01:40 | 30.05617 | 132.64691 | 37133 ft | 575 kts | 50° |
| 2026-05-06 01:40 | 30.10685 | 132.71895 | 37089 ft | 580 kts | 50° |
| 2026-05-06 01:41 | 30.15749 | 132.79106 | 37091 ft | 582 kts | 50° |
| 2026-05-06 01:41 | 30.20854 | 132.86384 | 37102 ft | 583 kts | 50° |
| 2026-05-06 01:42 | 30.25958 | 132.93673 | 37096 ft | 584 kts | 50° |
| 2026-05-06 01:42 | 30.31059 | 133.00971 | 37103 ft | 584 kts | 50° |
| 2026-05-06 01:43 | 30.36165 | 133.08290 | 37106 ft | 585 kts | 50° |
| 2026-05-06 01:43 | 30.41277 | 133.15629 | 37101 ft | 585 kts | 50° |
| 2026-05-06 01:44 | 30.46386 | 133.22978 | 37084 ft | 586 kts | 50° |
| 2026-05-06 01:44 | 30.51490 | 133.30336 | 37105 ft | 586 kts | 50° |
| 2026-05-06 01:45 | 30.56594 | 133.37706 | 37110 ft | 585 kts | 50° |
| 2026-05-06 01:45 | 30.61693 | 133.45081 | 37091 ft | 585 kts | 50° |
| 2026-05-06 01:46 | 30.66788 | 133.52465 | 37111 ft | 586 kts | 50° |
| 2026-05-06 01:46 | 30.71847 | 133.59813 | 37139 ft | 586 kts | 50° |
| 2026-05-06 01:47 | 30.76926 | 133.67203 | 37107 ft | 585 kts | 50° |
| 2026-05-06 01:47 | 30.82011 | 133.74617 | 37119 ft | 586 kts | 51° |
| 2026-05-06 01:48 | 30.87091 | 133.82037 | 37124 ft | 584 kts | 50° |
| 2026-05-06 01:48 | 30.92153 | 133.89432 | 37119 ft | 584 kts | 51° |
| 2026-05-06 01:49 | 30.97223 | 133.96853 | 37139 ft | 585 kts | 51° |
| 2026-05-06 01:49 | 31.01832 | 134.03616 | 37099 ft | 583 kts | 51° |
| 2026-05-06 01:50 | 31.06886 | 134.11050 | 37130 ft | 586 kts | 51° |
| 2026-05-06 01:50 | 31.11954 | 134.18515 | 37138 ft | 585 kts | 51° |
| 2026-05-06 01:51 | 31.16997 | 134.25957 | 37129 ft | 585 kts | 51° |
| 2026-05-06 01:51 | 31.22055 | 134.33437 | 37154 ft | 587 kts | 51° |
| 2026-05-06 01:52 | 31.27084 | 134.40886 | 37134 ft | 587 kts | 51° |
| 2026-05-06 01:52 | 31.32144 | 134.48397 | 37143 ft | 588 kts | 51° |
| 2026-05-06 01:53 | 31.37206 | 134.55926 | 37132 ft | 589 kts | 51° |
| 2026-05-06 01:53 | 31.42269 | 134.63470 | 37141 ft | 589 kts | 51° |
| 2026-05-06 01:54 | 31.47326 | 134.71021 | 37153 ft | 589 kts | 50° |
| 2026-05-06 01:54 | 31.52373 | 134.78572 | 37149 ft | 588 kts | 51° |
| 2026-05-06 01:55 | 31.57419 | 134.86136 | 37174 ft | 588 kts | 50° |
| 2026-05-06 01:55 | 31.62452 | 134.93695 | 37154 ft | 588 kts | 50° |
| 2026-05-06 01:56 | 31.67485 | 135.01264 | 37132 ft | 588 kts | 50° |
| 2026-05-06 01:56 | 31.72506 | 135.08837 | 37151 ft | 587 kts | 50° |
| 2026-05-06 01:57 | 31.77846 | 135.16061 | 37154 ft | 585 kts | 44° |
| 2026-05-06 01:57 | 31.83407 | 135.23044 | 37160 ft | 585 kts | 44° |
| 2026-05-06 01:58 | 31.88895 | 135.30036 | 37158 ft | 585 kts | 45° |
| 2026-05-06 01:58 | 31.94354 | 135.37142 | 37157 ft | 585 kts | 45° |
| 2026-05-06 01:59 | 31.99789 | 135.44280 | 37155 ft | 585 kts | 45° |
| 2026-05-06 01:59 | 32.05228 | 135.51436 | 37167 ft | 585 kts | 45° |
| 2026-05-06 02:00 | 32.10657 | 135.58588 | 37176 ft | 586 kts | 45° |
| 2026-05-06 02:00 | 32.16089 | 135.65749 | 37169 ft | 585 kts | 45° |
| 2026-05-06 02:01 | 32.21519 | 135.72917 | 37171 ft | 585 kts | 45° |
| 2026-05-06 02:01 | 32.26938 | 135.80089 | 37171 ft | 585 kts | 45° |
| 2026-05-06 02:02 | 32.32358 | 135.87276 | 37171 ft | 586 kts | 45° |
| 2026-05-06 02:02 | 32.37780 | 135.94479 | 37170 ft | 586 kts | 45° |
| 2026-05-06 02:03 | 32.43052 | 136.01844 | 37185 ft | 589 kts | 54° |
| 2026-05-06 02:03 | 32.47622 | 136.09908 | 37174 ft | 590 kts | 55° |
| 2026-05-06 02:04 | 32.52053 | 136.18100 | 37185 ft | 590 kts | 56° |
| 2026-05-06 02:04 | 32.56457 | 136.26329 | 37181 ft | 591 kts | 56° |
| 2026-05-06 02:05 | 32.60845 | 136.34513 | 37181 ft | 591 kts | 56° |
| 2026-05-06 02:05 | 32.65268 | 136.42753 | 37180 ft | 592 kts | 56° |
| 2026-05-06 02:06 | 32.69685 | 136.50994 | 37181 ft | 592 kts | 56° |
| 2026-05-06 02:06 | 32.74097 | 136.59245 | 37187 ft | 592 kts | 55° |
| 2026-05-06 02:07 | 32.78509 | 136.67515 | 37186 ft | 592 kts | 55° |
| 2026-05-06 02:07 | 32.82913 | 136.75791 | 37189 ft | 592 kts | 56° |
| 2026-05-06 02:08 | 32.87307 | 136.84064 | 37195 ft | 591 kts | 55° |
| 2026-05-06 02:08 | 32.91697 | 136.92349 | 37195 ft | 591 kts | 55° |
| 2026-05-06 02:09 | 32.96077 | 137.00635 | 37195 ft | 591 kts | 55° |
| 2026-05-06 02:09 | 33.00446 | 137.08918 | 37200 ft | 590 kts | 55° |
| 2026-05-06 02:10 | 33.04782 | 137.17156 | 37198 ft | 590 kts | 55° |
| 2026-05-06 02:10 | 33.09136 | 137.25447 | 37200 ft | 590 kts | 55° |
| 2026-05-06 02:11 | 33.13488 | 137.33752 | 37203 ft | 590 kts | 56° |
| 2026-05-06 02:11 | 33.17837 | 137.42073 | 37210 ft | 590 kts | 56° |
| 2026-05-06 02:12 | 33.22180 | 137.50394 | 37200 ft | 590 kts | 56° |
| 2026-05-06 02:12 | 33.26521 | 137.58725 | 37210 ft | 591 kts | 56° |
| 2026-05-06 02:13 | 33.30826 | 137.67009 | 37216 ft | 590 kts | 55° |
| 2026-05-06 02:13 | 33.35158 | 137.75362 | 37207 ft | 591 kts | 56° |
| 2026-05-06 02:14 | 33.39485 | 137.83726 | 37211 ft | 590 kts | 55° |
| 2026-05-06 02:14 | 33.43796 | 137.92078 | 37217 ft | 590 kts | 55° |
| 2026-05-06 02:15 | 33.48105 | 138.00437 | 37218 ft | 590 kts | 56° |
| 2026-05-06 02:15 | 33.52406 | 138.08809 | 37219 ft | 589 kts | 56° |
| 2026-05-06 02:16 | 33.56702 | 138.17182 | 37214 ft | 589 kts | 56° |
| 2026-05-06 02:16 | 33.60986 | 138.25557 | 37223 ft | 589 kts | 56° |
| 2026-05-06 02:17 | 33.65263 | 138.33938 | 37224 ft | 589 kts | 56° |
| 2026-05-06 02:17 | 33.69533 | 138.42323 | 37223 ft | 589 kts | 56° |
| 2026-05-06 02:18 | 33.73771 | 138.50665 | 37224 ft | 589 kts | 56° |
| 2026-05-06 02:18 | 33.78035 | 138.59066 | 37213 ft | 588 kts | 56° |
| 2026-05-06 02:19 | 33.82289 | 138.67476 | 37229 ft | 589 kts | 55° |
| 2026-05-06 02:19 | 33.86533 | 138.75888 | 37227 ft | 588 kts | 56° |
| 2026-05-06 02:20 | 33.92892 | 138.88522 | 37216 ft | 588 kts | 56° |
| 2026-05-06 02:21 | 33.97125 | 138.96958 | 37235 ft | 588 kts | 56° |
| 2026-05-06 02:21 | 34.01345 | 139.05387 | 37225 ft | 587 kts | 56° |
| 2026-05-06 02:22 | 34.05556 | 139.13819 | 37223 ft | 587 kts | 56° |
| 2026-05-06 02:22 | 34.09768 | 139.22274 | 37225 ft | 587 kts | 56° |
| 2026-05-06 02:23 | 34.13965 | 139.30721 | 37223 ft | 586 kts | 56° |
| 2026-05-06 02:23 | 34.18126 | 139.39111 | 37224 ft | 586 kts | 56° |
| 2026-05-06 02:24 | 34.22313 | 139.47565 | 37225 ft | 587 kts | 56° |
| 2026-05-06 02:24 | 34.26498 | 139.56037 | 37228 ft | 586 kts | 56° |
| 2026-05-06 02:25 | 34.30672 | 139.64512 | 37230 ft | 586 kts | 56° |
| 2026-05-06 02:25 | 34.34835 | 139.72984 | 37233 ft | 586 kts | 56° |
| 2026-05-06 02:26 | 34.38993 | 139.81468 | 37233 ft | 585 kts | 56° |
| 2026-05-06 02:26 | 34.43143 | 139.89954 | 37230 ft | 585 kts | 56° |
| 2026-05-06 02:27 | 34.47281 | 139.98436 | 37233 ft | 585 kts | 56° |
| 2026-05-06 02:27 | 34.51410 | 140.06920 | 37230 ft | 585 kts | 56° |
| 2026-05-06 02:28 | 34.55511 | 140.15366 | 37232 ft | 584 kts | 56° |
| 2026-05-06 02:28 | 34.59633 | 140.23878 | 37232 ft | 584 kts | 56° |
| 2026-05-06 02:29 | 34.63741 | 140.32381 | 37235 ft | 584 kts | 56° |
| 2026-05-06 02:29 | 34.67846 | 140.40896 | 37236 ft | 584 kts | 56° |
| 2026-05-06 02:30 | 34.71930 | 140.49438 | 37240 ft | 584 kts | 57° |
| 2026-05-06 02:30 | 34.75895 | 140.58069 | 37241 ft | 585 kts | 57° |
| 2026-05-06 02:31 | 34.79830 | 140.66727 | 37247 ft | 585 kts | 57° |
| 2026-05-06 02:31 | 34.83774 | 140.75374 | 37243 ft | 584 kts | 57° |
| 2026-05-06 02:32 | 34.87697 | 140.83961 | 37241 ft | 584 kts | 57° |
| 2026-05-06 02:32 | 34.91643 | 140.92611 | 37246 ft | 584 kts | 57° |
| 2026-05-06 02:33 | 34.95578 | 141.01260 | 37243 ft | 583 kts | 57° |
| 2026-05-06 02:33 | 34.96906 | 141.04185 | 37244 ft | 583 kts | 57° |
| 2026-05-06 02:34 | 35.03419 | 141.18566 | 37249 ft | 582 kts | 57° |
| 2026-05-06 02:34 | 35.07327 | 141.27225 | 37270 ft | 582 kts | 57° |
| 2026-05-06 02:35 | 35.11226 | 141.35892 | 37255 ft | 584 kts | 57° |
| 2026-05-06 02:35 | 35.15136 | 141.44597 | 37248 ft | 586 kts | 57° |
| 2026-05-06 02:36 | 35.18396 | 141.51872 | 37250 ft | 586 kts | 57° |
| 2026-05-06 02:36 | 35.22302 | 141.60612 | 37252 ft | 586 kts | 58° |
| 2026-05-06 02:37 | 35.26202 | 141.69361 | 37251 ft | 586 kts | 58° |
| 2026-05-06 02:37 | 35.30097 | 141.78120 | 37252 ft | 586 kts | 58° |
| 2026-05-06 02:38 | 35.33986 | 141.86890 | 37256 ft | 586 kts | 58° |
| 2026-05-06 02:38 | 35.37876 | 141.95683 | 37254 ft | 587 kts | 58° |
| 2026-05-06 02:39 | 35.41760 | 142.04488 | 37257 ft | 587 kts | 58° |
| 2026-05-06 02:39 | 35.45637 | 142.13298 | 37261 ft | 587 kts | 58° |
| 2026-05-06 02:40 | 35.49510 | 142.22123 | 37257 ft | 587 kts | 58° |
| 2026-05-06 02:40 | 35.53375 | 142.30954 | 37263 ft | 587 kts | 57° |
| 2026-05-06 02:41 | 35.57232 | 142.39788 | 37265 ft | 587 kts | 57° |
| 2026-05-06 02:41 | 35.61082 | 142.48629 | 37269 ft | 587 kts | 58° |
| 2026-05-06 02:42 | 35.64927 | 142.57483 | 37266 ft | 587 kts | 57° |
| 2026-05-06 02:42 | 35.68743 | 142.66291 | 37266 ft | 587 kts | 58° |
| 2026-05-06 02:43 | 35.72576 | 142.75164 | 37267 ft | 587 kts | 58° |
| 2026-05-06 02:43 | 35.76405 | 142.84052 | 37274 ft | 588 kts | 58° |
| 2026-05-06 02:44 | 35.80231 | 142.92956 | 37257 ft | 588 kts | 58° |
| 2026-05-06 02:44 | 35.84053 | 143.01873 | 37263 ft | 588 kts | 58° |
| 2026-05-06 02:45 | 35.87871 | 143.10808 | 37284 ft | 589 kts | 58° |
| 2026-05-06 02:45 | 35.91829 | 143.19626 | 37285 ft | 583 kts | 49° |
| 2026-05-06 02:45 | 35.94357 | 143.23471 | 37279 ft | 570 kts | 37° |
| 2026-05-06 02:46 | 35.97284 | 143.26693 | 37271 ft | 561 kts | 30° |
| 2026-05-06 02:46 | 36.03441 | 143.32558 | 37296 ft | 559 kts | 27° |
| 2026-05-06 02:47 | 36.09722 | 143.38242 | 37277 ft | 561 kts | 26° |
| 2026-05-06 02:47 | 36.16021 | 143.43964 | 37276 ft | 562 kts | 27° |
| 2026-05-06 02:48 | 36.22306 | 143.49741 | 37276 ft | 562 kts | 27° |
| 2026-05-06 02:48 | 36.28540 | 143.55505 | 37279 ft | 562 kts | 27° |
| 2026-05-06 02:49 | 36.34808 | 143.61314 | 37280 ft | 563 kts | 27° |
| 2026-05-06 02:49 | 36.41083 | 143.67136 | 37276 ft | 564 kts | 27° |
| 2026-05-06 02:50 | 36.47376 | 143.72988 | 37275 ft | 565 kts | 27° |
| 2026-05-06 02:50 | 36.53661 | 143.78846 | 37272 ft | 564 kts | 27° |
| 2026-05-06 02:51 | 36.59941 | 143.84711 | 37272 ft | 564 kts | 27° |
| 2026-05-06 02:51 | 36.66224 | 143.90589 | 37270 ft | 565 kts | 27° |
| 2026-05-06 02:52 | 36.72517 | 143.96487 | 37273 ft | 566 kts | 27° |
| 2026-05-06 02:52 | 36.78811 | 144.02401 | 37272 ft | 566 kts | 27° |
| 2026-05-06 02:53 | 36.85104 | 144.08329 | 37272 ft | 566 kts | 27° |
| 2026-05-06 02:53 | 36.91355 | 144.14227 | 37295 ft | 567 kts | 27° |
| 2026-05-06 02:54 | 36.97643 | 144.20174 | 37264 ft | 567 kts | 27° |
| 2026-05-06 02:54 | 37.03933 | 144.26135 | 37279 ft | 567 kts | 27° |
| 2026-05-06 02:55 | 37.10196 | 144.32093 | 37270 ft | 566 kts | 28° |
| 2026-05-06 02:55 | 37.16464 | 144.38072 | 37274 ft | 566 kts | 28° |
| 2026-05-06 02:56 | 37.22724 | 144.44055 | 37281 ft | 565 kts | 27° |
| 2026-05-06 02:56 | 37.28962 | 144.50034 | 37269 ft | 564 kts | 27° |
| 2026-05-06 02:57 | 37.35187 | 144.56011 | 37272 ft | 563 kts | 27° |
| 2026-05-06 02:57 | 37.41402 | 144.61986 | 37272 ft | 563 kts | 27° |
| 2026-05-06 02:58 | 37.47624 | 144.67981 | 37274 ft | 563 kts | 27° |
| 2026-05-06 02:58 | 37.53800 | 144.73946 | 37270 ft | 563 kts | 27° |
| 2026-05-06 02:59 | 37.60006 | 144.79957 | 37273 ft | 562 kts | 27° |
| 2026-05-06 02:59 | 37.66212 | 144.85977 | 37277 ft | 562 kts | 27° |
| 2026-05-06 03:00 | 37.72412 | 144.92005 | 37277 ft | 562 kts | 27° |
| 2026-05-06 03:00 | 37.78612 | 144.98045 | 37333 ft | 562 kts | 27° |
| 2026-05-06 03:01 | 37.84805 | 145.04092 | 37275 ft | 562 kts | 28° |
| 2026-05-06 03:01 | 37.90979 | 145.10135 | 37274 ft | 561 kts | 28° |
| 2026-05-06 03:02 | 37.97150 | 145.16188 | 37271 ft | 561 kts | 28° |
| 2026-05-06 03:02 | 38.03320 | 145.22252 | 37271 ft | 561 kts | 28° |
| 2026-05-06 03:03 | 38.09488 | 145.28326 | 37287 ft | 561 kts | 28° |
| 2026-05-06 03:03 | 38.15663 | 145.34421 | 37270 ft | 562 kts | 28° |
| 2026-05-06 03:04 | 38.21801 | 145.40493 | 37269 ft | 563 kts | 28° |
| 2026-05-06 03:04 | 38.27976 | 145.46618 | 37268 ft | 563 kts | 28° |
| 2026-05-06 03:05 | 38.34148 | 145.52758 | 37275 ft | 563 kts | 29° |
| 2026-05-06 03:05 | 38.40063 | 145.59419 | 37273 ft | 570 kts | 36° |
| 2026-05-06 03:06 | 38.45792 | 145.66439 | 37268 ft | 572 kts | 36° |
| 2026-05-06 03:06 | 38.51556 | 145.73427 | 37265 ft | 571 kts | 35° |
| 2026-05-06 03:07 | 38.57362 | 145.80342 | 37273 ft | 571 kts | 35° |
| 2026-05-06 03:07 | 38.63188 | 145.87247 | 37267 ft | 571 kts | 35° |
| 2026-05-06 03:08 | 38.69012 | 145.94167 | 37314 ft | 571 kts | 35° |
| 2026-05-06 03:08 | 38.74822 | 146.01096 | 37267 ft | 571 kts | 36° |
| 2026-05-06 03:09 | 38.80632 | 146.08042 | 37261 ft | 571 kts | 36° |
| 2026-05-06 03:09 | 38.86400 | 146.14954 | 37265 ft | 571 kts | 36° |
| 2026-05-06 03:10 | 38.92198 | 146.21919 | 37266 ft | 571 kts | 36° |
| 2026-05-06 03:10 | 38.97991 | 146.28894 | 37266 ft | 571 kts | 36° |
| 2026-05-06 03:11 | 39.03786 | 146.35888 | 37269 ft | 571 kts | 36° |
| 2026-05-06 03:11 | 39.09567 | 146.42883 | 37263 ft | 570 kts | 36° |
| 2026-05-06 03:12 | 39.15340 | 146.49884 | 37256 ft | 570 kts | 36° |
| 2026-05-06 03:12 | 39.21108 | 146.56894 | 37257 ft | 570 kts | 36° |
| 2026-05-06 03:13 | 39.26874 | 146.63918 | 37254 ft | 570 kts | 36° |
| 2026-05-06 03:13 | 39.32637 | 146.70955 | 37299 ft | 570 kts | 37° |
| 2026-05-06 03:14 | 39.38346 | 146.77946 | 37265 ft | 569 kts | 37° |
| 2026-05-06 03:14 | 39.44082 | 146.84985 | 37265 ft | 568 kts | 37° |
| 2026-05-06 03:15 | 39.49812 | 146.92032 | 37257 ft | 569 kts | 37° |
| 2026-05-06 03:15 | 39.55542 | 146.99096 | 37254 ft | 569 kts | 37° |
| 2026-05-06 03:16 | 39.61272 | 147.06178 | 37255 ft | 569 kts | 37° |
| 2026-05-06 03:16 | 39.66991 | 147.13264 | 37257 ft | 568 kts | 37° |
| 2026-05-06 03:17 | 39.72687 | 147.20340 | 37253 ft | 566 kts | 37° |
| 2026-05-06 03:17 | 39.78369 | 147.27412 | 37249 ft | 566 kts | 37° |
| 2026-05-06 03:18 | 39.84052 | 147.34502 | 37252 ft | 566 kts | 37° |
| 2026-05-06 03:18 | 39.89695 | 147.41562 | 37244 ft | 564 kts | 37° |
| 2026-05-06 03:19 | 39.95334 | 147.48635 | 37279 ft | 563 kts | 38° |
| 2026-05-06 03:19 | 40.00965 | 147.55713 | 37246 ft | 560 kts | 38° |
| 2026-05-06 03:20 | 40.09370 | 147.66307 | 37230 ft | 559 kts | 38° |
| 2026-05-06 03:20 | 40.14965 | 147.73381 | 37236 ft | 559 kts | 38° |
| 2026-05-06 03:21 | 40.20545 | 147.80453 | 37235 ft | 559 kts | 38° |
| 2026-05-06 03:21 | 40.26123 | 147.87541 | 37234 ft | 559 kts | 38° |
| 2026-05-06 03:22 | 40.31682 | 147.94622 | 37227 ft | 557 kts | 38° |
| 2026-05-06 03:22 | 40.37194 | 148.01662 | 37227 ft | 556 kts | 38° |
| 2026-05-06 03:23 | 40.42730 | 148.08747 | 37227 ft | 556 kts | 38° |
| 2026-05-06 03:23 | 40.48259 | 148.15840 | 37227 ft | 555 kts | 39° |
| 2026-05-06 03:24 | 40.52849 | 148.21742 | 37222 ft | 554 kts | 39° |
| 2026-05-06 03:24 | 40.58361 | 148.28847 | 37222 ft | 554 kts | 39° |
| 2026-05-06 03:25 | 40.63864 | 148.35956 | 37219 ft | 554 kts | 39° |
| 2026-05-06 03:25 | 40.69361 | 148.43075 | 37216 ft | 554 kts | 39° |
| 2026-05-06 03:26 | 40.74849 | 148.50199 | 37234 ft | 554 kts | 39° |
| 2026-05-06 03:26 | 40.80320 | 148.57321 | 37214 ft | 552 kts | 39° |
| 2026-05-06 03:27 | 40.85780 | 148.64443 | 37210 ft | 552 kts | 39° |
| 2026-05-06 03:27 | 40.91234 | 148.71574 | 37205 ft | 551 kts | 39° |
| 2026-05-06 03:28 | 40.96634 | 148.78654 | 37211 ft | 549 kts | 39° |
| 2026-05-06 03:28 | 41.02061 | 148.85786 | 37206 ft | 549 kts | 39° |
| 2026-05-06 03:29 | 41.07474 | 148.92917 | 37194 ft | 549 kts | 39° |
| 2026-05-06 03:29 | 41.12892 | 149.00075 | 37206 ft | 549 kts | 39° |
| 2026-05-06 03:30 | 41.18294 | 149.07233 | 37191 ft | 549 kts | 39° |
| 2026-05-06 03:30 | 41.23698 | 149.14411 | 37203 ft | 548 kts | 40° |
| 2026-05-06 03:31 | 41.29070 | 149.21567 | 37189 ft | 546 kts | 40° |
| 2026-05-06 03:31 | 41.34435 | 149.28727 | 37189 ft | 546 kts | 40° |
| 2026-05-06 03:32 | 41.39784 | 149.35885 | 37184 ft | 544 kts | 40° |
| 2026-05-06 03:32 | 41.45085 | 149.42998 | 37184 ft | 544 kts | 40° |
| 2026-05-06 03:33 | 41.50418 | 149.50168 | 37185 ft | 544 kts | 40° |
| 2026-05-06 03:33 | 41.55740 | 149.57343 | 37182 ft | 542 kts | 40° |
| 2026-05-06 03:34 | 41.61038 | 149.64505 | 37178 ft | 541 kts | 40° |
| 2026-05-06 03:34 | 41.66333 | 149.71678 | 37173 ft | 541 kts | 40° |
| 2026-05-06 03:35 | 41.71608 | 149.78843 | 37175 ft | 540 kts | 40° |
| 2026-05-06 03:35 | 41.76869 | 149.86007 | 37173 ft | 539 kts | 40° |
| 2026-05-06 03:36 | 41.82127 | 149.93183 | 37184 ft | 539 kts | 40° |
| 2026-05-06 03:36 | 41.87372 | 150.00361 | 37167 ft | 538 kts | 41° |
| 2026-05-06 03:37 | 41.92611 | 150.07549 | 37161 ft | 538 kts | 41° |
| 2026-05-06 03:37 | 41.97805 | 150.14691 | 37177 ft | 538 kts | 41° |
| 2026-05-06 03:38 | 42.03028 | 150.21892 | 37158 ft | 538 kts | 41° |
| 2026-05-06 03:38 | 42.08254 | 150.29115 | 37149 ft | 538 kts | 41° |
| 2026-05-06 03:39 | 42.13470 | 150.36342 | 37157 ft | 538 kts | 41° |
| 2026-05-06 03:39 | 42.18685 | 150.43586 | 37151 ft | 538 kts | 41° |
| 2026-05-06 03:40 | 42.23892 | 150.50839 | 37143 ft | 538 kts | 41° |
| 2026-05-06 03:40 | 42.29096 | 150.58104 | 37154 ft | 538 kts | 41° |
| 2026-05-06 03:41 | 42.34298 | 150.65386 | 37131 ft | 538 kts | 41° |
| 2026-05-06 03:41 | 42.39490 | 150.72672 | 37129 ft | 538 kts | 41° |
| 2026-05-06 03:42 | 42.44683 | 150.79977 | 37125 ft | 538 kts | 41° |
| 2026-05-06 03:42 | 42.49872 | 150.87296 | 37124 ft | 538 kts | 41° |
| 2026-05-06 03:43 | 42.55058 | 150.94630 | 37120 ft | 539 kts | 41° |
| 2026-05-06 03:43 | 42.60245 | 151.01983 | 37114 ft | 539 kts | 41° |
| 2026-05-06 03:44 | 42.65398 | 151.09308 | 37113 ft | 540 kts | 41° |
| 2026-05-06 03:44 | 42.70577 | 151.16688 | 37105 ft | 540 kts | 41° |
| 2026-05-06 03:45 | 42.75754 | 151.24084 | 37106 ft | 540 kts | 41° |
| 2026-05-06 03:45 | 42.80930 | 151.31498 | 37104 ft | 539 kts | 41° |
| 2026-05-06 03:46 | 42.86094 | 151.38915 | 37101 ft | 540 kts | 41° |
| 2026-05-06 03:46 | 42.91268 | 151.46364 | 37093 ft | 541 kts | 41° |
| 2026-05-06 03:47 | 42.96439 | 151.53829 | 37080 ft | 541 kts | 41° |
| 2026-05-06 03:47 | 43.01598 | 151.61297 | 37086 ft | 541 kts | 41° |
| 2026-05-06 03:48 | 43.06760 | 151.68789 | 37079 ft | 541 kts | 41° |
| 2026-05-06 03:48 | 43.11910 | 151.76283 | 37081 ft | 541 kts | 41° |
| 2026-05-06 03:49 | 43.17056 | 151.83790 | 37099 ft | 541 kts | 41° |
| 2026-05-06 03:49 | 43.22188 | 151.91295 | 37075 ft | 539 kts | 41° |
| 2026-05-06 03:50 | 43.27274 | 151.98756 | 37071 ft | 538 kts | 41° |
| 2026-05-06 03:50 | 43.32381 | 152.06267 | 37067 ft | 538 kts | 41° |
| 2026-05-06 03:51 | 43.37484 | 152.13789 | 37061 ft | 538 kts | 41° |
| 2026-05-06 03:51 | 43.42582 | 152.21325 | 37063 ft | 538 kts | 41° |
| 2026-05-06 03:52 | 43.47674 | 152.28871 | 37058 ft | 538 kts | 41° |
| 2026-05-06 03:52 | 43.52755 | 152.36423 | 37055 ft | 537 kts | 41° |
| 2026-05-06 03:53 | 43.57834 | 152.43991 | 37063 ft | 537 kts | 41° |
| 2026-05-06 03:53 | 43.62902 | 152.51563 | 37050 ft | 537 kts | 41° |
| 2026-05-06 03:54 | 43.67967 | 152.59150 | 37051 ft | 537 kts | 41° |
| 2026-05-06 03:54 | 43.73024 | 152.66746 | 37066 ft | 537 kts | 41° |
| 2026-05-06 03:55 | 43.78083 | 152.74366 | 37038 ft | 538 kts | 41° |
| 2026-05-06 03:55 | 43.83135 | 152.81994 | 37045 ft | 538 kts | 41° |
| 2026-05-06 03:56 | 43.88191 | 152.89652 | 37037 ft | 538 kts | 41° |
| 2026-05-06 03:56 | 43.93238 | 152.97315 | 37037 ft | 538 kts | 41° |
| 2026-05-06 03:57 | 43.98285 | 153.04999 | 37035 ft | 539 kts | 41° |
| 2026-05-06 03:57 | 44.03332 | 153.12704 | 37027 ft | 539 kts | 41° |
| 2026-05-06 03:58 | 44.08334 | 153.20362 | 37027 ft | 539 kts | 41° |
| 2026-05-06 03:58 | 44.13377 | 153.28102 | 37023 ft | 540 kts | 41° |
| 2026-05-06 03:59 | 44.18423 | 153.35869 | 37021 ft | 540 kts | 41° |
| 2026-05-06 03:59 | 44.23463 | 153.43647 | 37012 ft | 541 kts | 41° |
| 2026-05-06 04:00 | 44.28504 | 153.51451 | 37015 ft | 541 kts | 41° |
| 2026-05-06 04:00 | 44.33536 | 153.59261 | 37007 ft | 541 kts | 41° |
| 2026-05-06 04:01 | 44.38567 | 153.67092 | 37019 ft | 541 kts | 41° |
| 2026-05-06 04:01 | 44.43600 | 153.74945 | 37001 ft | 542 kts | 41° |
| 2026-05-06 04:02 | 44.48630 | 153.82817 | 36993 ft | 543 kts | 41° |
| 2026-05-06 04:02 | 44.53660 | 153.90713 | 36993 ft | 543 kts | 41° |
| 2026-05-06 04:03 | 44.58691 | 153.98629 | 36978 ft | 544 kts | 41° |
| 2026-05-06 04:03 | 44.63722 | 154.06571 | 36982 ft | 544 kts | 41° |
| 2026-05-06 04:04 | 44.68719 | 154.14481 | 36975 ft | 544 kts | 41° |
| 2026-05-06 04:04 | 44.73740 | 154.22451 | 36976 ft | 544 kts | 41° |
| 2026-05-06 04:05 | 44.78762 | 154.30445 | 36970 ft | 544 kts | 42° |
| 2026-05-06 04:05 | 44.83776 | 154.38450 | 36973 ft | 544 kts | 42° |
| 2026-05-06 04:06 | 44.88766 | 154.46478 | 36971 ft | 544 kts | 43° |
| 2026-05-06 04:06 | 44.93690 | 154.54598 | 36957 ft | 544 kts | 43° |
| 2026-05-06 04:07 | 44.98590 | 154.62723 | 36946 ft | 544 kts | 43° |
| 2026-05-06 04:07 | 45.03466 | 154.70806 | 36946 ft | 544 kts | 43° |
| 2026-05-06 04:08 | 45.08370 | 154.78943 | 36946 ft | 543 kts | 43° |
| 2026-05-06 04:08 | 45.13271 | 154.87097 | 36933 ft | 543 kts | 43° |
| 2026-05-06 04:09 | 45.18159 | 154.95254 | 36948 ft | 543 kts | 43° |
| 2026-05-06 04:09 | 45.23045 | 155.03430 | 36938 ft | 543 kts | 43° |
| 2026-05-06 04:10 | 45.27919 | 155.11612 | 36931 ft | 543 kts | 43° |
| 2026-05-06 04:10 | 45.32795 | 155.19820 | 36927 ft | 543 kts | 43° |
| 2026-05-06 04:11 | 45.37663 | 155.28040 | 36931 ft | 543 kts | 43° |
| 2026-05-06 04:11 | 45.41709 | 155.34888 | 36919 ft | 544 kts | 43° |
| 2026-05-06 04:12 | 45.46572 | 155.43141 | 36916 ft | 544 kts | 43° |
| 2026-05-06 04:12 | 45.51433 | 155.51416 | 36914 ft | 544 kts | 44° |
| 2026-05-06 04:13 | 45.56286 | 155.59704 | 36909 ft | 544 kts | 43° |
| 2026-05-06 04:13 | 45.61134 | 155.68007 | 36903 ft | 545 kts | 43° |
| 2026-05-06 04:14 | 45.65978 | 155.76328 | 36903 ft | 545 kts | 43° |
| 2026-05-06 04:14 | 45.70782 | 155.84606 | 36899 ft | 545 kts | 43° |
| 2026-05-06 04:15 | 45.75620 | 155.92965 | 36895 ft | 545 kts | 43° |
| 2026-05-06 04:15 | 45.80457 | 156.01349 | 36893 ft | 545 kts | 43° |
| 2026-05-06 04:16 | 45.85287 | 156.09745 | 36884 ft | 545 kts | 44° |
| 2026-05-06 04:16 | 45.90111 | 156.18156 | 36894 ft | 546 kts | 43° |
| 2026-05-06 04:17 | 45.94930 | 156.26584 | 36882 ft | 546 kts | 43° |
| 2026-05-06 04:17 | 45.99743 | 156.35026 | 36873 ft | 546 kts | 43° |
| 2026-05-06 04:18 | 46.04546 | 156.43478 | 36865 ft | 546 kts | 43° |
| 2026-05-06 04:18 | 46.09318 | 156.51900 | 36874 ft | 546 kts | 44° |
| 2026-05-06 04:19 | 46.14115 | 156.60391 | 36862 ft | 546 kts | 44° |
| 2026-05-06 04:19 | 46.18908 | 156.68901 | 36861 ft | 546 kts | 44° |
| 2026-05-06 04:20 | 46.23695 | 156.77428 | 36852 ft | 547 kts | 44° |
| 2026-05-06 04:20 | 46.28479 | 156.85975 | 36845 ft | 547 kts | 44° |
| 2026-05-06 04:21 | 46.33259 | 156.94541 | 36842 ft | 547 kts | 44° |
| 2026-05-06 04:21 | 46.38030 | 157.03116 | 36840 ft | 547 kts | 44° |
| 2026-05-06 04:22 | 46.42763 | 157.11651 | 36832 ft | 547 kts | 44° |
| 2026-05-06 04:23 | 46.49898 | 157.24566 | 36825 ft | 547 kts | 44° |
| 2026-05-06 04:23 | 46.54655 | 157.33209 | 36817 ft | 548 kts | 45° |
| 2026-05-06 04:24 | 46.59406 | 157.41870 | 36815 ft | 548 kts | 45° |
| 2026-05-06 04:24 | 46.64153 | 157.50552 | 36813 ft | 548 kts | 45° |
| 2026-05-06 04:25 | 46.68892 | 157.59246 | 36802 ft | 548 kts | 45° |
| 2026-05-06 04:25 | 46.73629 | 157.67960 | 36800 ft | 548 kts | 45° |
| 2026-05-06 04:26 | 46.78359 | 157.76692 | 36803 ft | 549 kts | 45° |
| 2026-05-06 04:26 | 46.83083 | 157.85441 | 36797 ft | 548 kts | 45° |
| 2026-05-06 04:27 | 46.87772 | 157.94151 | 36793 ft | 549 kts | 45° |
| 2026-05-06 04:27 | 46.92516 | 158.02993 | 36793 ft | 549 kts | 45° |
| 2026-05-06 04:28 | 46.97193 | 158.11736 | 36792 ft | 549 kts | 45° |
| 2026-05-06 04:28 | 47.01895 | 158.20555 | 36789 ft | 549 kts | 45° |
| 2026-05-06 04:29 | 47.06583 | 158.29374 | 36785 ft | 548 kts | 46° |
| 2026-05-06 04:29 | 47.11267 | 158.38217 | 36782 ft | 548 kts | 46° |
| 2026-05-06 04:30 | 47.15942 | 158.47071 | 36780 ft | 548 kts | 46° |
| 2026-05-06 04:30 | 47.20615 | 158.55947 | 36781 ft | 548 kts | 46° |
| 2026-05-06 04:31 | 47.25275 | 158.64828 | 36773 ft | 548 kts | 46° |
| 2026-05-06 04:31 | 47.29935 | 158.73739 | 36773 ft | 548 kts | 46° |
| 2026-05-06 04:32 | 47.34582 | 158.82653 | 36767 ft | 548 kts | 46° |
| 2026-05-06 04:32 | 47.39195 | 158.91530 | 36760 ft | 548 kts | 46° |
| 2026-05-06 04:33 | 47.43831 | 159.00481 | 36762 ft | 548 kts | 46° |
| 2026-05-06 04:33 | 47.48456 | 159.09441 | 36760 ft | 549 kts | 46° |
| 2026-05-06 04:34 | 47.53077 | 159.18422 | 36753 ft | 549 kts | 46° |
| 2026-05-06 04:34 | 47.57702 | 159.27440 | 36752 ft | 549 kts | 46° |
| 2026-05-06 04:35 | 47.62308 | 159.36450 | 36749 ft | 549 kts | 47° |
| 2026-05-06 04:35 | 47.66916 | 159.45493 | 36765 ft | 548 kts | 47° |
| 2026-05-06 04:36 | 47.71495 | 159.54513 | 36744 ft | 546 kts | 47° |
| 2026-05-06 04:36 | 47.76034 | 159.63480 | 36742 ft | 546 kts | 47° |
| 2026-05-06 04:37 | 47.80592 | 159.72515 | 36734 ft | 546 kts | 47° |
| 2026-05-06 04:37 | 47.85150 | 159.81579 | 36737 ft | 546 kts | 47° |
| 2026-05-06 04:38 | 47.89700 | 159.90655 | 36731 ft | 547 kts | 47° |
| 2026-05-06 04:38 | 47.94244 | 159.99755 | 36724 ft | 547 kts | 47° |
| 2026-05-06 04:39 | 47.98781 | 160.08868 | 36722 ft | 547 kts | 47° |
| 2026-05-06 04:39 | 48.03309 | 160.17992 | 36721 ft | 546 kts | 48° |
| 2026-05-06 04:40 | 48.07822 | 160.27122 | 36724 ft | 546 kts | 48° |
| 2026-05-06 04:40 | 48.12330 | 160.36268 | 36713 ft | 546 kts | 48° |
| 2026-05-06 04:41 | 48.16798 | 160.45364 | 36718 ft | 546 kts | 48° |
| 2026-05-06 04:41 | 48.21288 | 160.54536 | 36722 ft | 546 kts | 48° |
| 2026-05-06 04:42 | 48.25772 | 160.63727 | 36714 ft | 546 kts | 48° |
| 2026-05-06 04:42 | 48.30231 | 160.72965 | 36713 ft | 546 kts | 49° |
| 2026-05-06 04:43 | 48.34559 | 160.82367 | 36717 ft | 547 kts | 50° |
| 2026-05-06 04:43 | 48.38853 | 160.91810 | 36704 ft | 546 kts | 51° |
| 2026-05-06 04:44 | 48.43151 | 161.01238 | 36707 ft | 545 kts | 50° |
| 2026-05-06 04:44 | 48.47449 | 161.10655 | 36704 ft | 545 kts | 50° |
| 2026-05-06 04:45 | 48.51740 | 161.20079 | 36697 ft | 545 kts | 51° |
| 2026-05-06 04:45 | 48.56023 | 161.29522 | 36700 ft | 545 kts | 51° |
| 2026-05-06 04:46 | 48.60270 | 161.38919 | 36695 ft | 545 kts | 51° |
| 2026-05-06 04:46 | 48.64540 | 161.48401 | 36696 ft | 545 kts | 51° |
| 2026-05-06 04:47 | 48.68796 | 161.57884 | 36693 ft | 545 kts | 51° |
| 2026-05-06 04:47 | 48.73045 | 161.67388 | 36699 ft | 545 kts | 51° |
| 2026-05-06 04:48 | 48.77279 | 161.76892 | 36685 ft | 543 kts | 51° |
| 2026-05-06 04:48 | 48.81498 | 161.86391 | 36679 ft | 543 kts | 52° |
| 2026-05-06 04:49 | 48.85710 | 161.95910 | 36677 ft | 543 kts | 52° |
| 2026-05-06 04:49 | 48.89908 | 162.05434 | 36677 ft | 543 kts | 52° |
| 2026-05-06 04:50 | 48.94107 | 162.14990 | 36675 ft | 543 kts | 52° |
| 2026-05-06 04:50 | 48.98292 | 162.24550 | 36676 ft | 543 kts | 52° |
| 2026-05-06 04:51 | 49.02447 | 162.34075 | 36674 ft | 543 kts | 52° |
| 2026-05-06 04:51 | 49.06617 | 162.43672 | 36671 ft | 543 kts | 53° |
| 2026-05-06 04:52 | 49.10777 | 162.53278 | 36667 ft | 542 kts | 53° |
| 2026-05-06 04:52 | 49.14927 | 162.62896 | 36664 ft | 542 kts | 53° |
| 2026-05-06 04:53 | 49.19066 | 162.72520 | 36669 ft | 542 kts | 53° |
| 2026-05-06 04:53 | 49.23198 | 162.82164 | 36660 ft | 542 kts | 53° |
| 2026-05-06 04:54 | 49.27325 | 162.91830 | 36655 ft | 542 kts | 53° |
| 2026-05-06 04:54 | 49.31442 | 163.01507 | 36653 ft | 542 kts | 53° |
| 2026-05-06 04:55 | 49.35545 | 163.11191 | 36652 ft | 542 kts | 54° |
| 2026-05-06 04:55 | 49.39642 | 163.20894 | 36645 ft | 542 kts | 54° |
| 2026-05-06 04:56 | 49.43732 | 163.30616 | 36661 ft | 542 kts | 54° |
| 2026-05-06 04:56 | 49.47809 | 163.40341 | 36644 ft | 541 kts | 54° |
| 2026-05-06 04:57 | 49.51869 | 163.50065 | 36639 ft | 540 kts | 54° |
| 2026-05-06 04:57 | 49.55925 | 163.59812 | 36639 ft | 540 kts | 54° |
| 2026-05-06 04:58 | 49.59970 | 163.69568 | 36636 ft | 540 kts | 54° |
| 2026-05-06 04:58 | 49.64003 | 163.79332 | 36634 ft | 540 kts | 55° |
| 2026-05-06 04:59 | 49.68004 | 163.89053 | 36628 ft | 540 kts | 55° |
| 2026-05-06 04:59 | 49.71368 | 163.97256 | 36628 ft | 540 kts | 55° |
| 2026-05-06 05:00 | 49.75375 | 164.07059 | 36628 ft | 540 kts | 55° |
| 2026-05-06 05:00 | 49.80020 | 164.18471 | 36630 ft | 539 kts | 55° |
| 2026-05-06 05:01 | 49.83365 | 164.26718 | 36623 ft | 538 kts | 55° |
| 2026-05-06 05:01 | 49.87303 | 164.36462 | 36620 ft | 537 kts | 56° |
| 2026-05-06 05:02 | 49.91262 | 164.46292 | 36617 ft | 537 kts | 56° |
| 2026-05-06 05:02 | 49.95208 | 164.56127 | 36609 ft | 537 kts | 56° |
| 2026-05-06 05:03 | 49.99144 | 164.65974 | 36606 ft | 537 kts | 56° |
| 2026-05-06 05:03 | 50.03077 | 164.75852 | 36607 ft | 537 kts | 56° |
| 2026-05-06 05:04 | 50.07000 | 164.85739 | 36601 ft | 537 kts | 56° |
| 2026-05-06 05:04 | 50.10910 | 164.95633 | 36604 ft | 537 kts | 56° |
| 2026-05-06 05:05 | 50.14814 | 165.05550 | 36608 ft | 536 kts | 57° |
| 2026-05-06 05:05 | 50.18700 | 165.15466 | 36600 ft | 535 kts | 57° |
| 2026-05-06 05:06 | 50.22538 | 165.25423 | 36597 ft | 535 kts | 57° |
| 2026-05-06 05:06 | 50.26353 | 165.35409 | 36595 ft | 535 kts | 57° |
| 2026-05-06 05:07 | 50.30167 | 165.45415 | 36590 ft | 535 kts | 57° |
| 2026-05-06 05:07 | 50.33974 | 165.55426 | 36593 ft | 535 kts | 57° |
| 2026-05-06 05:08 | 50.37772 | 165.65445 | 36585 ft | 535 kts | 58° |
| 2026-05-06 05:08 | 50.41562 | 165.75484 | 36587 ft | 535 kts | 58° |
| 2026-05-06 05:09 | 50.45352 | 165.85562 | 36591 ft | 535 kts | 58° |
| 2026-05-06 05:09 | 50.49095 | 165.95557 | 36591 ft | 535 kts | 58° |
| 2026-05-06 05:10 | 50.52855 | 166.05632 | 36582 ft | 534 kts | 58° |
| 2026-05-06 05:10 | 50.56600 | 166.15707 | 36581 ft | 534 kts | 58° |
| 2026-05-06 05:11 | 50.60335 | 166.25795 | 36582 ft | 533 kts | 59° |
| 2026-05-06 05:11 | 50.64066 | 166.35913 | 36580 ft | 534 kts | 59° |
| 2026-05-06 05:12 | 50.67784 | 166.46037 | 36589 ft | 534 kts | 59° |
| 2026-05-06 05:12 | 50.71497 | 166.56183 | 36586 ft | 533 kts | 59° |
| 2026-05-06 05:13 | 50.75196 | 166.66333 | 36585 ft | 533 kts | 59° |
| 2026-05-06 05:13 | 50.78886 | 166.76499 | 36573 ft | 533 kts | 59° |
| 2026-05-06 05:14 | 50.82573 | 166.86694 | 36574 ft | 534 kts | 59° |
| 2026-05-06 05:14 | 50.86242 | 166.96885 | 36582 ft | 533 kts | 59° |
| 2026-05-06 05:15 | 50.89907 | 167.07104 | 36579 ft | 534 kts | 59° |
| 2026-05-06 05:15 | 50.93541 | 167.17276 | 36573 ft | 534 kts | 59° |
| 2026-05-06 05:16 | 50.97187 | 167.27522 | 36572 ft | 533 kts | 60° |
| 2026-05-06 05:16 | 51.00826 | 167.37792 | 36574 ft | 534 kts | 60° |
| 2026-05-06 05:17 | 51.04455 | 167.48073 | 36569 ft | 533 kts | 60° |
| 2026-05-06 05:17 | 51.08067 | 167.58351 | 36569 ft | 533 kts | 60° |
| 2026-05-06 05:18 | 51.11674 | 167.68653 | 36567 ft | 533 kts | 60° |
| 2026-05-06 05:18 | 51.15266 | 167.78954 | 36573 ft | 532 kts | 60° |
| 2026-05-06 05:19 | 51.18845 | 167.89263 | 36571 ft | 532 kts | 61° |
| 2026-05-06 05:19 | 51.22417 | 167.99589 | 36566 ft | 532 kts | 61° |
| 2026-05-06 05:20 | 51.25977 | 168.09924 | 36566 ft | 530 kts | 61° |
| 2026-05-06 05:20 | 51.29520 | 168.20255 | 36570 ft | 530 kts | 61° |
| 2026-05-06 05:21 | 51.33058 | 168.30615 | 36565 ft | 531 kts | 61° |
| 2026-05-06 05:21 | 51.36583 | 168.40978 | 36565 ft | 530 kts | 61° |
| 2026-05-06 05:22 | 51.40097 | 168.51348 | 36565 ft | 530 kts | 62° |
| 2026-05-06 05:22 | 51.43601 | 168.61734 | 36566 ft | 530 kts | 62° |
| 2026-05-06 05:23 | 51.47074 | 168.72073 | 36565 ft | 530 kts | 62° |
| 2026-05-06 05:23 | 51.52305 | 168.87721 | 36557 ft | 530 kts | 62° |
| 2026-05-06 05:24 | 51.55770 | 168.98144 | 36569 ft | 528 kts | 62° |
| 2026-05-06 05:24 | 51.59223 | 169.08573 | 36561 ft | 529 kts | 63° |
| 2026-05-06 05:25 | 51.62670 | 169.19027 | 36567 ft | 528 kts | 63° |
| 2026-05-06 05:25 | 51.66104 | 169.29486 | 36569 ft | 528 kts | 63° |
| 2026-05-06 05:26 | 51.69530 | 169.39963 | 36572 ft | 528 kts | 63° |
| 2026-05-06 05:26 | 51.72938 | 169.50429 | 36564 ft | 527 kts | 63° |
| 2026-05-06 05:27 | 51.76332 | 169.60900 | 36563 ft | 527 kts | 63° |
| 2026-05-06 05:27 | 51.79700 | 169.71332 | 36569 ft | 527 kts | 63° |
| 2026-05-06 05:28 | 51.83079 | 169.81842 | 36568 ft | 526 kts | 63° |
| 2026-05-06 05:28 | 51.86443 | 169.92353 | 36572 ft | 525 kts | 64° |
| 2026-05-06 05:29 | 51.89788 | 170.02848 | 36571 ft | 525 kts | 64° |
| 2026-05-06 05:29 | 51.93120 | 170.13350 | 36571 ft | 524 kts | 64° |
| 2026-05-06 05:30 | 51.96447 | 170.23878 | 36564 ft | 524 kts | 64° |
| 2026-05-06 05:30 | 51.99755 | 170.34394 | 36567 ft | 523 kts | 64° |
| 2026-05-06 05:31 | 52.03050 | 170.44911 | 36568 ft | 522 kts | 64° |
| 2026-05-06 05:31 | 52.06336 | 170.55447 | 36570 ft | 522 kts | 64° |
| 2026-05-06 05:32 | 52.09593 | 170.65934 | 36570 ft | 522 kts | 64° |
| 2026-05-06 05:32 | 52.13350 | 170.76033 | 36574 ft | 523 kts | 52° |
| 2026-05-06 05:33 | 52.17984 | 170.85179 | 36574 ft | 524 kts | 50° |
| 2026-05-06 05:33 | 52.22748 | 170.94158 | 36565 ft | 523 kts | 50° |
| 2026-05-06 05:34 | 52.27522 | 171.03139 | 36565 ft | 523 kts | 50° |
| 2026-05-06 05:34 | 52.32270 | 171.12148 | 36565 ft | 523 kts | 50° |
| 2026-05-06 05:35 | 52.37004 | 171.21193 | 36562 ft | 523 kts | 50° |
| 2026-05-06 05:35 | 52.41724 | 171.30252 | 36567 ft | 523 kts | 50° |
| 2026-05-06 05:36 | 52.46441 | 171.39335 | 36560 ft | 523 kts | 51° |
| 2026-05-06 05:36 | 52.51145 | 171.48424 | 36560 ft | 522 kts | 51° |
| 2026-05-06 05:37 | 52.55834 | 171.57518 | 36557 ft | 521 kts | 51° |
| 2026-05-06 05:37 | 52.60489 | 171.66578 | 36557 ft | 521 kts | 51° |
| 2026-05-06 05:38 | 52.65160 | 171.75702 | 36556 ft | 521 kts | 51° |
| 2026-05-06 05:38 | 52.69827 | 171.84852 | 36556 ft | 521 kts | 51° |
| 2026-05-06 05:39 | 52.74484 | 171.94015 | 36536 ft | 521 kts | 51° |
| 2026-05-06 05:39 | 52.79122 | 172.03173 | 36557 ft | 520 kts | 52° |
| 2026-05-06 05:40 | 52.83750 | 172.12345 | 36563 ft | 519 kts | 52° |
| 2026-05-06 05:40 | 52.88370 | 172.21537 | 36547 ft | 519 kts | 52° |
| 2026-05-06 05:41 | 52.92981 | 172.30745 | 36553 ft | 519 kts | 52° |
| 2026-05-06 05:41 | 52.97583 | 172.39965 | 36539 ft | 519 kts | 52° |
| 2026-05-06 05:42 | 53.02173 | 172.49197 | 36557 ft | 518 kts | 52° |
| 2026-05-06 05:42 | 53.06746 | 172.58430 | 36553 ft | 517 kts | 52° |
| 2026-05-06 05:43 | 53.11311 | 172.67680 | 36551 ft | 517 kts | 52° |
| 2026-05-06 05:43 | 53.15867 | 172.76946 | 36547 ft | 517 kts | 52° |
| 2026-05-06 05:44 | 53.20415 | 172.86230 | 36545 ft | 516 kts | 53° |
| 2026-05-06 05:44 | 53.24963 | 172.95568 | 36543 ft | 519 kts | 53° |
| 2026-05-06 05:45 | 53.29476 | 173.04883 | 36559 ft | 518 kts | 54° |
| 2026-05-06 05:45 | 53.34026 | 173.14227 | 36567 ft | 519 kts | 54° |
| 2026-05-06 05:46 | 53.38607 | 173.23680 | 36575 ft | 524 kts | 54° |
| 2026-05-06 05:46 | 53.42405 | 173.31589 | 36559 ft | 523 kts | 55° |
| 2026-05-06 05:47 | 53.46929 | 173.41079 | 36588 ft | 519 kts | 54° |
| 2026-05-06 05:47 | 53.51443 | 173.50555 | 36585 ft | 517 kts | 54° |
| 2026-05-06 05:48 | 53.55600 | 173.60377 | 36609 ft | 516 kts | 59° |
| 2026-05-06 05:48 | 53.59508 | 173.70506 | 36611 ft | 515 kts | 60° |
| 2026-05-06 05:49 | 53.63353 | 173.80658 | 36614 ft | 514 kts | 61° |
| 2026-05-06 05:49 | 53.67190 | 173.90834 | 36619 ft | 515 kts | 62° |
| 2026-05-06 05:50 | 53.71028 | 174.01056 | 36629 ft | 515 kts | 60° |
| 2026-05-06 05:50 | 53.74860 | 174.11270 | 36629 ft | 514 kts | 61° |
| 2026-05-06 05:51 | 53.78668 | 174.21465 | 36643 ft | 513 kts | 61° |
| 2026-05-06 05:51 | 53.82476 | 174.31698 | 36638 ft | 514 kts | 62° |
| 2026-05-06 05:52 | 53.86254 | 174.41894 | 36655 ft | 514 kts | 62° |
| 2026-05-06 05:52 | 53.90043 | 174.52166 | 36657 ft | 513 kts | 62° |
| 2026-05-06 05:53 | 53.93821 | 174.62451 | 36671 ft | 513 kts | 62° |
| 2026-05-06 05:53 | 53.97581 | 174.72716 | 36673 ft | 513 kts | 62° |
| 2026-05-06 05:54 | 54.01336 | 174.83014 | 36683 ft | 512 kts | 63° |
| 2026-05-06 05:54 | 54.05080 | 174.93335 | 36694 ft | 512 kts | 62° |
| 2026-05-06 05:55 | 54.08809 | 175.03657 | 36693 ft | 512 kts | 62° |
| 2026-05-06 05:55 | 54.12527 | 175.13990 | 36703 ft | 511 kts | 62° |
| 2026-05-06 05:56 | 54.16239 | 175.24339 | 36710 ft | 511 kts | 63° |
| 2026-05-06 05:56 | 54.19932 | 175.34684 | 36726 ft | 510 kts | 63° |
| 2026-05-06 05:57 | 54.23590 | 175.44983 | 36724 ft | 510 kts | 63° |
| 2026-05-06 05:57 | 54.27257 | 175.55351 | 36742 ft | 509 kts | 63° |
| 2026-05-06 05:58 | 54.30922 | 175.65741 | 36739 ft | 509 kts | 63° |
| 2026-05-06 05:58 | 54.34573 | 175.76142 | 36749 ft | 509 kts | 63° |
| 2026-05-06 05:59 | 54.38207 | 175.86543 | 36760 ft | 508 kts | 63° |
| 2026-05-06 05:59 | 54.41829 | 175.96950 | 36775 ft | 508 kts | 63° |
| 2026-05-06 06:00 | 54.45438 | 176.07366 | 36778 ft | 507 kts | 64° |
| 2026-05-06 06:00 | 54.49031 | 176.17778 | 36795 ft | 506 kts | 64° |
| 2026-05-06 06:01 | 54.52611 | 176.28199 | 36780 ft | 506 kts | 64° |
| 2026-05-06 06:01 | 54.56181 | 176.38634 | 36805 ft | 505 kts | 64° |
| 2026-05-06 06:02 | 54.59740 | 176.49083 | 36802 ft | 505 kts | 64° |
| 2026-05-06 06:02 | 54.63288 | 176.59540 | 36822 ft | 505 kts | 64° |
| 2026-05-06 06:03 | 54.66806 | 176.69955 | 36824 ft | 505 kts | 64° |
| 2026-05-06 06:03 | 54.70339 | 176.80460 | 36822 ft | 505 kts | 64° |
| 2026-05-06 06:04 | 54.73857 | 176.90967 | 36836 ft | 504 kts | 64° |
| 2026-05-06 06:04 | 54.77361 | 177.01471 | 36842 ft | 503 kts | 64° |
| 2026-05-06 06:05 | 54.80850 | 177.11981 | 36861 ft | 503 kts | 64° |
| 2026-05-06 06:05 | 54.84329 | 177.22507 | 36867 ft | 503 kts | 64° |
| 2026-05-06 06:06 | 54.87799 | 177.33050 | 36865 ft | 503 kts | 64° |
| 2026-05-06 06:06 | 54.91268 | 177.43638 | 36881 ft | 504 kts | 64° |
| 2026-05-06 06:07 | 54.94723 | 177.54227 | 36878 ft | 504 kts | 64° |
| 2026-05-06 06:07 | 54.98174 | 177.64849 | 36894 ft | 504 kts | 64° |
| 2026-05-06 06:08 | 55.01610 | 177.75473 | 36895 ft | 503 kts | 64° |
| 2026-05-06 06:08 | 55.05030 | 177.86095 | 36907 ft | 503 kts | 64° |
| 2026-05-06 06:09 | 55.08445 | 177.96751 | 36908 ft | 503 kts | 64° |
| 2026-05-06 06:09 | 55.11852 | 178.07424 | 36916 ft | 503 kts | 64° |
| 2026-05-06 06:10 | 55.15251 | 178.18122 | 36922 ft | 503 kts | 64° |
| 2026-05-06 06:10 | 55.18622 | 178.28778 | 36933 ft | 503 kts | 65° |
| 2026-05-06 06:11 | 55.21995 | 178.39491 | 36925 ft | 503 kts | 65° |
| 2026-05-06 06:11 | 55.25373 | 178.50265 | 36943 ft | 504 kts | 65° |
| 2026-05-06 06:12 | 55.28736 | 178.61041 | 36947 ft | 503 kts | 65° |
| 2026-05-06 06:12 | 55.32086 | 178.71823 | 36961 ft | 503 kts | 65° |
| 2026-05-06 06:13 | 55.35437 | 178.82627 | 36956 ft | 503 kts | 65° |
| 2026-05-06 06:13 | 55.38781 | 178.93418 | 36965 ft | 503 kts | 65° |
| 2026-05-06 06:14 | 55.42127 | 179.04263 | 36969 ft | 504 kts | 64° |
| 2026-05-06 06:14 | 55.45440 | 179.15056 | 36984 ft | 504 kts | 65° |
| 2026-05-06 06:15 | 55.48769 | 179.25957 | 36986 ft | 504 kts | 65° |
| 2026-05-06 06:15 | 55.52087 | 179.36872 | 36999 ft | 504 kts | 65° |
| 2026-05-06 06:16 | 55.55388 | 179.47783 | 36987 ft | 504 kts | 64° |
| 2026-05-06 06:16 | 55.58678 | 179.58705 | 37011 ft | 505 kts | 65° |
| 2026-05-06 06:17 | 55.61977 | 179.69706 | 37013 ft | 505 kts | 65° |
| 2026-05-06 06:17 | 55.65257 | 179.80700 | 37017 ft | 505 kts | 65° |
| 2026-05-06 06:18 | 55.68527 | 179.91705 | 37026 ft | 505 kts | 65° |
| 2026-05-06 06:18 | 55.71784 | -179.97276 | 37007 ft | 505 kts | 65° |
| 2026-05-06 06:19 | 55.75021 | -179.86273 | 37033 ft | 507 kts | 65° |
| 2026-05-06 06:19 | 55.78272 | -179.75174 | 37036 ft | 507 kts | 65° |
| 2026-05-06 06:20 | 55.81514 | -179.64052 | 37024 ft | 506 kts | 65° |
| 2026-05-06 06:20 | 55.84745 | -179.52914 | 37042 ft | 506 kts | 65° |
| 2026-05-06 06:21 | 55.87968 | -179.41751 | 37035 ft | 506 kts | 65° |
| 2026-05-06 06:21 | 55.91176 | -179.30586 | 37048 ft | 506 kts | 65° |
| 2026-05-06 06:22 | 55.94373 | -179.19402 | 37065 ft | 506 kts | 65° |
| 2026-05-06 06:22 | 55.97562 | -179.08199 | 37067 ft | 506 kts | 65° |
| 2026-05-06 06:23 | 56.00740 | -178.96977 | 37056 ft | 506 kts | 65° |
| 2026-05-06 06:23 | 56.03906 | -178.85743 | 37047 ft | 506 kts | 65° |
| 2026-05-06 06:24 | 56.07041 | -178.74562 | 37068 ft | 507 kts | 65° |
| 2026-05-06 06:24 | 56.10196 | -178.63257 | 37076 ft | 507 kts | 65° |
| 2026-05-06 06:25 | 56.13343 | -178.51927 | 37088 ft | 507 kts | 65° |
| 2026-05-06 06:26 | 56.18041 | -178.34906 | 37087 ft | 507 kts | 65° |
| 2026-05-06 06:26 | 56.21164 | -178.23517 | 37090 ft | 508 kts | 65° |
| 2026-05-06 06:27 | 56.24280 | -178.12098 | 37097 ft | 510 kts | 65° |
| 2026-05-06 06:27 | 56.27389 | -178.00652 | 37098 ft | 510 kts | 65° |
| 2026-05-06 06:28 | 56.30490 | -177.89177 | 37116 ft | 510 kts | 65° |
| 2026-05-06 06:28 | 56.33583 | -177.77673 | 37108 ft | 510 kts | 65° |
| 2026-05-06 06:29 | 56.36667 | -177.66140 | 37109 ft | 510 kts | 65° |
| 2026-05-06 06:29 | 56.39728 | -177.54638 | 37113 ft | 512 kts | 65° |
| 2026-05-06 06:30 | 56.42804 | -177.43023 | 37120 ft | 512 kts | 65° |
| 2026-05-06 06:30 | 56.45868 | -177.31393 | 37120 ft | 512 kts | 65° |
| 2026-05-06 06:31 | 56.48917 | -177.19757 | 37126 ft | 512 kts | 65° |
| 2026-05-06 06:31 | 56.51958 | -177.08089 | 37120 ft | 512 kts | 65° |
| 2026-05-06 06:32 | 56.54992 | -176.96389 | 37132 ft | 514 kts | 65° |
| 2026-05-06 06:32 | 56.58022 | -176.84646 | 37132 ft | 514 kts | 65° |
| 2026-05-06 06:33 | 56.60533 | -176.74868 | 37138 ft | 514 kts | 65° |
| 2026-05-06 06:33 | 56.63538 | -176.63107 | 37136 ft | 514 kts | 65° |
| 2026-05-06 06:34 | 56.67019 | -176.49404 | 37133 ft | 514 kts | 65° |
| 2026-05-06 06:34 | 56.69523 | -176.39499 | 37149 ft | 515 kts | 65° |
| 2026-05-06 06:35 | 56.72484 | -176.27721 | 37146 ft | 515 kts | 65° |
| 2026-05-06 06:35 | 56.75454 | -176.15847 | 37151 ft | 515 kts | 65° |
| 2026-05-06 06:36 | 56.78418 | -176.03933 | 37161 ft | 515 kts | 65° |
| 2026-05-06 06:36 | 56.81363 | -175.92028 | 37159 ft | 514 kts | 65° |
| 2026-05-06 06:37 | 56.84292 | -175.80125 | 37156 ft | 514 kts | 65° |
| 2026-05-06 06:37 | 56.87197 | -175.68195 | 37159 ft | 514 kts | 65° |
| 2026-05-06 06:38 | 56.90091 | -175.56239 | 37162 ft | 514 kts | 65° |
| 2026-05-06 06:38 | 56.92974 | -175.44276 | 37165 ft | 514 kts | 65° |
| 2026-05-06 06:39 | 56.95845 | -175.32297 | 37166 ft | 514 kts | 65° |
| 2026-05-06 06:39 | 56.98706 | -175.20302 | 37169 ft | 513 kts | 65° |
| 2026-05-06 06:40 | 57.01548 | -175.08315 | 37187 ft | 512 kts | 65° |
| 2026-05-06 06:40 | 57.04356 | -174.96401 | 37172 ft | 511 kts | 65° |
| 2026-05-06 06:41 | 57.07168 | -174.84410 | 37174 ft | 511 kts | 65° |
| 2026-05-06 06:41 | 57.09967 | -174.72404 | 37177 ft | 511 kts | 65° |
| 2026-05-06 06:42 | 57.12756 | -174.60374 | 37178 ft | 511 kts | 65° |
| 2026-05-06 06:42 | 57.15533 | -174.48333 | 37182 ft | 511 kts | 65° |
| 2026-05-06 06:43 | 57.18295 | -174.36283 | 37181 ft | 511 kts | 65° |
| 2026-05-06 06:43 | 57.21049 | -174.24201 | 37184 ft | 511 kts | 65° |
| 2026-05-06 06:44 | 57.23790 | -174.12109 | 37183 ft | 511 kts | 65° |
| 2026-05-06 06:44 | 57.26517 | -174.00003 | 37190 ft | 511 kts | 65° |
| 2026-05-06 06:45 | 57.29238 | -173.87863 | 37187 ft | 511 kts | 65° |
| 2026-05-06 06:45 | 57.31947 | -173.75702 | 37185 ft | 511 kts | 65° |
| 2026-05-06 06:46 | 57.34654 | -173.63530 | 37186 ft | 511 kts | 64° |
| 2026-05-06 06:46 | 57.37410 | -173.51397 | 37186 ft | 511 kts | 64° |
| 2026-05-06 06:47 | 57.40170 | -173.39247 | 37189 ft | 511 kts | 64° |
| 2026-05-06 06:47 | 57.42908 | -173.27086 | 37198 ft | 511 kts | 65° |
| 2026-05-06 06:48 | 57.45611 | -173.14983 | 37192 ft | 511 kts | 65° |
| 2026-05-06 06:48 | 57.48320 | -173.02772 | 37193 ft | 511 kts | 65° |
| 2026-05-06 06:49 | 57.51020 | -172.90538 | 37197 ft | 511 kts | 65° |
| 2026-05-06 06:49 | 57.53707 | -172.78287 | 37197 ft | 511 kts | 65° |
| 2026-05-06 06:50 | 57.56383 | -172.66014 | 37198 ft | 511 kts | 64° |
| 2026-05-06 06:50 | 57.59048 | -172.53723 | 37197 ft | 511 kts | 65° |
| 2026-05-06 06:51 | 57.61699 | -172.41420 | 37199 ft | 511 kts | 65° |
| 2026-05-06 06:51 | 57.64342 | -172.29083 | 37197 ft | 511 kts | 65° |
| 2026-05-06 06:52 | 57.66972 | -172.16732 | 37197 ft | 511 kts | 65° |
| 2026-05-06 06:52 | 57.69586 | -172.04379 | 37204 ft | 511 kts | 65° |
| 2026-05-06 06:53 | 57.72188 | -171.92012 | 37198 ft | 511 kts | 65° |
| 2026-05-06 06:53 | 57.74776 | -171.79635 | 37200 ft | 511 kts | 65° |
| 2026-05-06 06:54 | 57.77336 | -171.67318 | 37198 ft | 511 kts | 65° |
| 2026-05-06 06:54 | 57.79902 | -171.54897 | 37200 ft | 511 kts | 65° |
| 2026-05-06 06:55 | 57.82454 | -171.42465 | 37198 ft | 511 kts | 65° |
| 2026-05-06 06:55 | 57.84992 | -171.30021 | 37197 ft | 511 kts | 65° |
| 2026-05-06 06:56 | 57.87521 | -171.17552 | 37198 ft | 511 kts | 65° |
| 2026-05-06 06:56 | 57.90033 | -171.05085 | 37202 ft | 510 kts | 65° |
| 2026-05-06 06:57 | 57.92538 | -170.92574 | 37200 ft | 511 kts | 65° |
| 2026-05-06 06:57 | 57.95029 | -170.80057 | 37214 ft | 511 kts | 65° |
| 2026-05-06 06:58 | 57.97569 | -170.67571 | 37196 ft | 510 kts | 64° |
| 2026-05-06 06:58 | 58.00259 | -170.55223 | 37197 ft | 509 kts | 63° |
| 2026-05-06 06:59 | 58.02950 | -170.42860 | 37197 ft | 509 kts | 63° |
| 2026-05-06 06:59 | 58.05604 | -170.30458 | 37197 ft | 510 kts | 64° |
| 2026-05-06 07:00 | 58.08215 | -170.18108 | 37198 ft | 510 kts | 64° |
| 2026-05-06 07:00 | 58.10833 | -170.05634 | 37202 ft | 509 kts | 64° |
| 2026-05-06 07:01 | 58.13432 | -169.93178 | 37199 ft | 509 kts | 64° |
| 2026-05-06 07:01 | 58.16020 | -169.80706 | 37197 ft | 509 kts | 64° |
| 2026-05-06 07:02 | 58.18597 | -169.68213 | 37195 ft | 509 kts | 64° |
| 2026-05-06 07:02 | 58.21159 | -169.55709 | 37195 ft | 509 kts | 64° |
| 2026-05-06 07:03 | 58.23712 | -169.43175 | 37205 ft | 509 kts | 65° |
| 2026-05-06 07:03 | 58.26246 | -169.30651 | 37193 ft | 508 kts | 65° |
| 2026-05-06 07:04 | 58.28765 | -169.18123 | 37192 ft | 508 kts | 65° |
| 2026-05-06 07:04 | 58.31274 | -169.05573 | 37197 ft | 507 kts | 65° |
| 2026-05-06 07:05 | 58.33752 | -168.93096 | 37189 ft | 507 kts | 65° |
| 2026-05-06 07:05 | 58.36232 | -168.80526 | 37188 ft | 507 kts | 66° |
| 2026-05-06 07:06 | 58.38718 | -168.67851 | 37184 ft | 507 kts | 66° |
| 2026-05-06 07:06 | 58.41155 | -168.55341 | 37182 ft | 507 kts | 66° |
| 2026-05-06 07:07 | 58.43598 | -168.42724 | 37179 ft | 507 kts | 66° |
| 2026-05-06 07:07 | 58.46028 | -168.30089 | 37188 ft | 507 kts | 66° |
| 2026-05-06 07:08 | 58.48446 | -168.17435 | 37184 ft | 507 kts | 66° |
| 2026-05-06 07:08 | 58.50851 | -168.04771 | 37193 ft | 506 kts | 67° |
| 2026-05-06 07:09 | 58.53231 | -167.92145 | 37177 ft | 504 kts | 67° |
| 2026-05-06 07:09 | 58.55595 | -167.79527 | 37180 ft | 504 kts | 67° |
| 2026-05-06 07:10 | 58.57953 | -167.66860 | 37177 ft | 504 kts | 67° |
| 2026-05-06 07:10 | 58.60296 | -167.54190 | 37179 ft | 504 kts | 68° |
| 2026-05-06 07:11 | 58.62613 | -167.41578 | 37184 ft | 504 kts | 68° |
| 2026-05-06 07:11 | 58.64929 | -167.28879 | 37170 ft | 504 kts | 68° |
| 2026-05-06 07:12 | 58.67233 | -167.16165 | 37170 ft | 503 kts | 68° |
| 2026-05-06 07:12 | 58.69522 | -167.03452 | 37172 ft | 503 kts | 68° |
| 2026-05-06 07:13 | 58.71808 | -166.90738 | 37169 ft | 503 kts | 68° |
| 2026-05-06 07:13 | 58.74115 | -166.78017 | 37168 ft | 503 kts | 68° |
| 2026-05-06 07:14 | 58.76411 | -166.65285 | 37166 ft | 503 kts | 68° |
| 2026-05-06 07:14 | 58.78692 | -166.52523 | 37165 ft | 503 kts | 68° |
| 2026-05-06 07:15 | 58.80957 | -166.39747 | 37165 ft | 503 kts | 68° |
| 2026-05-06 07:15 | 58.83208 | -166.26963 | 37164 ft | 503 kts | 68° |
| 2026-05-06 07:16 | 58.85449 | -166.14149 | 37160 ft | 503 kts | 68° |
| 2026-05-06 07:16 | 58.87674 | -166.01333 | 37163 ft | 502 kts | 69° |
| 2026-05-06 07:17 | 58.89890 | -165.88528 | 37163 ft | 502 kts | 69° |
| 2026-05-06 07:17 | 58.92102 | -165.75716 | 37160 ft | 502 kts | 69° |
| 2026-05-06 07:18 | 58.94300 | -165.62889 | 37164 ft | 502 kts | 69° |
| 2026-05-06 07:18 | 58.96472 | -165.50127 | 37165 ft | 502 kts | 69° |
| 2026-05-06 07:19 | 58.98647 | -165.37255 | 37159 ft | 502 kts | 69° |
| 2026-05-06 07:19 | 59.00807 | -165.24386 | 37160 ft | 502 kts | 69° |
| 2026-05-06 07:20 | 59.02953 | -165.11498 | 37149 ft | 502 kts | 69° |
| 2026-05-06 07:20 | 59.05086 | -164.98604 | 37156 ft | 502 kts | 69° |
| 2026-05-06 07:21 | 59.07207 | -164.85684 | 37155 ft | 501 kts | 69° |
| 2026-05-06 07:21 | 59.08958 | -164.74946 | 37155 ft | 501 kts | 70° |
| 2026-05-06 07:22 | 59.11058 | -164.61985 | 37157 ft | 501 kts | 70° |
| 2026-05-06 07:22 | 59.13142 | -164.49021 | 37149 ft | 502 kts | 70° |
| 2026-05-06 07:23 | 59.15200 | -164.36130 | 37149 ft | 501 kts | 70° |
| 2026-05-06 07:23 | 59.17258 | -164.23138 | 37149 ft | 501 kts | 70° |
| 2026-05-06 07:24 | 59.19301 | -164.10147 | 37149 ft | 501 kts | 70° |
| 2026-05-06 07:24 | 59.21331 | -163.97134 | 37144 ft | 501 kts | 70° |
| 2026-05-06 07:25 | 59.23353 | -163.84080 | 37143 ft | 501 kts | 70° |
| 2026-05-06 07:25 | 59.25357 | -163.71040 | 37149 ft | 501 kts | 70° |
| 2026-05-06 07:26 | 59.27352 | -163.57961 | 37140 ft | 502 kts | 70° |
| 2026-05-06 07:26 | 59.29334 | -163.44862 | 37137 ft | 502 kts | 70° |
| 2026-05-06 07:27 | 59.31290 | -163.31833 | 37134 ft | 502 kts | 70° |
| 2026-05-06 07:27 | 59.33246 | -163.18701 | 37127 ft | 502 kts | 70° |
| 2026-05-06 07:28 | 59.35190 | -163.05555 | 37125 ft | 502 kts | 71° |
| 2026-05-06 07:28 | 59.38081 | -162.85791 | 37127 ft | 504 kts | 70° |
| 2026-05-06 07:29 | 59.39998 | -162.72560 | 37122 ft | 504 kts | 71° |
| 2026-05-06 07:29 | 59.41902 | -162.59312 | 37119 ft | 504 kts | 71° |
| 2026-05-06 07:30 | 59.43792 | -162.46052 | 37120 ft | 504 kts | 71° |
| 2026-05-06 07:30 | 59.45658 | -162.32854 | 37109 ft | 504 kts | 71° |
| 2026-05-06 07:31 | 59.47705 | -162.19698 | 37116 ft | 502 kts | 68° |
| 2026-05-06 07:31 | 59.49977 | -162.06692 | 37105 ft | 502 kts | 67° |
| 2026-05-06 07:32 | 59.52227 | -161.93651 | 37097 ft | 503 kts | 68° |
| 2026-05-06 07:32 | 59.54419 | -161.80563 | 37118 ft | 503 kts | 68° |
| 2026-05-06 07:33 | 59.56581 | -161.67433 | 37106 ft | 503 kts | 68° |
| 2026-05-06 07:33 | 59.58727 | -161.54289 | 37100 ft | 503 kts | 69° |
| 2026-05-06 07:34 | 59.60864 | -161.41120 | 37084 ft | 504 kts | 69° |
| 2026-05-06 07:34 | 59.62988 | -161.27939 | 37077 ft | 503 kts | 69° |
| 2026-05-06 07:35 | 59.65097 | -161.14753 | 37062 ft | 503 kts | 69° |
| 2026-05-06 07:35 | 59.67181 | -161.01629 | 37068 ft | 504 kts | 69° |
| 2026-05-06 07:36 | 59.69266 | -160.88399 | 37049 ft | 504 kts | 69° |
| 2026-05-06 07:36 | 59.71336 | -160.75158 | 37036 ft | 504 kts | 69° |
| 2026-05-06 07:37 | 59.73394 | -160.61889 | 37044 ft | 504 kts | 70° |
| 2026-05-06 07:37 | 59.75442 | -160.48583 | 37028 ft | 505 kts | 70° |
| 2026-05-06 07:38 | 59.77481 | -160.35240 | 37023 ft | 505 kts | 70° |
| 2026-05-06 07:38 | 59.79504 | -160.21888 | 37025 ft | 505 kts | 70° |
| 2026-05-06 07:39 | 59.81515 | -160.08511 | 37018 ft | 505 kts | 70° |
| 2026-05-06 07:39 | 59.83513 | -159.95117 | 37018 ft | 505 kts | 70° |
| 2026-05-06 07:40 | 59.85496 | -159.81723 | 37010 ft | 505 kts | 71° |
| 2026-05-06 07:40 | 59.87465 | -159.68303 | 37007 ft | 505 kts | 71° |
| 2026-05-06 07:41 | 59.89410 | -159.54944 | 37010 ft | 505 kts | 71° |
| 2026-05-06 07:41 | 59.91352 | -159.41498 | 37008 ft | 505 kts | 71° |
| 2026-05-06 07:42 | 59.93279 | -159.28043 | 37010 ft | 505 kts | 71° |
| 2026-05-06 07:42 | 59.95194 | -159.14560 | 36996 ft | 505 kts | 71° |
| 2026-05-06 07:43 | 59.97095 | -159.01062 | 36999 ft | 505 kts | 72° |
| 2026-05-06 07:43 | 59.98981 | -158.87557 | 36989 ft | 505 kts | 72° |
| 2026-05-06 07:44 | 60.00853 | -158.74034 | 36989 ft | 505 kts | 72° |
| 2026-05-06 07:44 | 60.02711 | -158.60503 | 36985 ft | 505 kts | 72° |
| 2026-05-06 07:45 | 60.04556 | -158.46952 | 37000 ft | 505 kts | 72° |
| 2026-05-06 07:45 | 60.06377 | -158.33457 | 36985 ft | 505 kts | 72° |
| 2026-05-06 07:46 | 60.08195 | -158.19870 | 36984 ft | 505 kts | 73° |
| 2026-05-06 07:46 | 60.10001 | -158.06254 | 36983 ft | 505 kts | 73° |
| 2026-05-06 07:47 | 60.11792 | -157.92626 | 36988 ft | 505 kts | 73° |
| 2026-05-06 07:47 | 60.13569 | -157.78989 | 36979 ft | 505 kts | 73° |
| 2026-05-06 07:48 | 60.15331 | -157.65341 | 36974 ft | 505 kts | 73° |
| 2026-05-06 07:48 | 60.17077 | -157.51693 | 36978 ft | 505 kts | 73° |
| 2026-05-06 07:49 | 60.18813 | -157.38002 | 36979 ft | 505 kts | 74° |
| 2026-05-06 07:49 | 60.20536 | -157.24284 | 36972 ft | 506 kts | 74° |
| 2026-05-06 07:50 | 60.22244 | -157.10560 | 36963 ft | 506 kts | 74° |
| 2026-05-06 07:50 | 60.23937 | -156.96829 | 36967 ft | 506 kts | 74° |
| 2026-05-06 07:51 | 60.25617 | -156.83070 | 36961 ft | 506 kts | 75° |
| 2026-05-06 07:51 | 60.27282 | -156.69307 | 36960 ft | 506 kts | 75° |
| 2026-05-06 07:52 | 60.28923 | -156.55613 | 36961 ft | 506 kts | 75° |
| 2026-05-06 07:52 | 60.30563 | -156.41797 | 36954 ft | 507 kts | 75° |
| 2026-05-06 07:53 | 60.32189 | -156.27952 | 36955 ft | 507 kts | 75° |
| 2026-05-06 07:53 | 60.33802 | -156.14096 | 36956 ft | 507 kts | 75° |
| 2026-05-06 07:54 | 60.35400 | -156.00217 | 36973 ft | 507 kts | 76° |
| 2026-05-06 07:54 | 60.36983 | -155.86343 | 36955 ft | 507 kts | 76° |
| 2026-05-06 07:55 | 60.38551 | -155.72452 | 36950 ft | 507 kts | 76° |
| 2026-05-06 07:55 | 60.40106 | -155.58530 | 36942 ft | 508 kts | 76° |
| 2026-05-06 07:56 | 60.41649 | -155.44577 | 36942 ft | 508 kts | 77° |
| 2026-05-06 07:56 | 60.43168 | -155.30706 | 36942 ft | 508 kts | 77° |
| 2026-05-06 07:57 | 60.44680 | -155.16745 | 36926 ft | 508 kts | 77° |
| 2026-05-06 07:57 | 60.46181 | -155.02741 | 36927 ft | 508 kts | 77° |
| 2026-05-06 07:58 | 60.47665 | -154.88743 | 36918 ft | 508 kts | 77° |
| 2026-05-06 07:58 | 60.49135 | -154.74722 | 36916 ft | 508 kts | 78° |
| 2026-05-06 07:59 | 60.50980 | -154.60905 | 36917 ft | 508 kts | 72° |
| 2026-05-06 07:59 | 60.53145 | -154.47243 | 36910 ft | 508 kts | 71° |
| 2026-05-06 08:00 | 60.55328 | -154.33711 | 36912 ft | 508 kts | 71° |
| 2026-05-06 08:00 | 60.57515 | -154.20036 | 36901 ft | 508 kts | 71° |
| 2026-05-06 08:01 | 60.59676 | -154.06363 | 36899 ft | 508 kts | 72° |
| 2026-05-06 08:01 | 60.61822 | -153.92659 | 36899 ft | 508 kts | 72° |
| 2026-05-06 08:02 | 60.63957 | -153.78907 | 36882 ft | 509 kts | 72° |
| 2026-05-06 08:02 | 60.66076 | -153.65150 | 36877 ft | 509 kts | 72° |
| 2026-05-06 08:03 | 60.68182 | -153.51373 | 36879 ft | 509 kts | 73° |
| 2026-05-06 08:03 | 60.70261 | -153.37665 | 36861 ft | 509 kts | 73° |
| 2026-05-06 08:04 | 60.72353 | -153.23753 | 36857 ft | 509 kts | 73° |
| 2026-05-06 08:04 | 60.74416 | -153.09934 | 36851 ft | 509 kts | 73° |
| 2026-05-06 08:05 | 60.76453 | -152.96167 | 36855 ft | 509 kts | 73° |
| 2026-05-06 08:05 | 60.78492 | -152.82276 | 36855 ft | 509 kts | 73° |
| 2026-05-06 08:06 | 60.80514 | -152.68383 | 36851 ft | 509 kts | 74° |
| 2026-05-06 08:06 | 60.82523 | -152.54458 | 36849 ft | 510 kts | 74° |
| 2026-05-06 08:07 | 60.84516 | -152.40535 | 36848 ft | 509 kts | 74° |
| 2026-05-06 08:07 | 60.86497 | -152.26572 | 36845 ft | 509 kts | 74° |
| 2026-05-06 08:08 | 60.88465 | -152.12587 | 36846 ft | 509 kts | 75° |
| 2026-05-06 08:08 | 60.90418 | -151.98589 | 36849 ft | 510 kts | 75° |
| 2026-05-06 08:09 | 60.92356 | -151.84565 | 36854 ft | 510 kts | 75° |
| 2026-05-06 08:09 | 60.94283 | -151.70512 | 36853 ft | 510 kts | 75° |
| 2026-05-06 08:10 | 60.96194 | -151.56444 | 36856 ft | 510 kts | 75° |
| 2026-05-06 08:10 | 60.98079 | -151.42446 | 36849 ft | 510 kts | 75° |
| 2026-05-06 08:11 | 60.99961 | -151.28342 | 36849 ft | 510 kts | 75° |
| 2026-05-06 08:11 | 61.01827 | -151.14236 | 36841 ft | 511 kts | 76° |
| 2026-05-06 08:12 | 61.03682 | -151.00080 | 36841 ft | 511 kts | 76° |
| 2026-05-06 08:12 | 61.05213 | -150.88295 | 36843 ft | 512 kts | 76° |
| 2026-05-06 08:13 | 61.07043 | -150.74095 | 36846 ft | 511 kts | 76° |
| 2026-05-06 08:13 | 61.08858 | -150.59880 | 36846 ft | 511 kts | 76° |
| 2026-05-06 08:14 | 61.10656 | -150.45666 | 36845 ft | 511 kts | 76° |
| 2026-05-06 08:14 | 61.12440 | -150.31421 | 36842 ft | 511 kts | 76° |
| 2026-05-06 08:15 | 61.14209 | -150.17166 | 36842 ft | 511 kts | 76° |
| 2026-05-06 08:15 | 61.15964 | -150.02893 | 36834 ft | 511 kts | 77° |
| 2026-05-06 08:16 | 61.18490 | -149.89159 | 36869 ft | 512 kts | 65° |
| 2026-05-06 08:16 | 61.21608 | -149.75858 | 36860 ft | 512 kts | 64° |
| 2026-05-06 08:17 | 61.24781 | -149.62726 | 36861 ft | 512 kts | 64° |
| 2026-05-06 08:17 | 61.27963 | -149.49468 | 36860 ft | 512 kts | 64° |
| 2026-05-06 08:18 | 61.31117 | -149.36170 | 36884 ft | 512 kts | 64° |
| 2026-05-06 08:18 | 61.34248 | -149.22850 | 36880 ft | 513 kts | 64° |
| 2026-05-06 08:19 | 61.37370 | -149.09486 | 36871 ft | 513 kts | 64° |
| 2026-05-06 08:19 | 61.40481 | -148.96083 | 36851 ft | 513 kts | 64° |
| 2026-05-06 08:20 | 61.43586 | -148.82633 | 36853 ft | 514 kts | 65° |
| 2026-05-06 08:20 | 61.46681 | -148.69137 | 36854 ft | 514 kts | 65° |
| 2026-05-06 08:21 | 61.49755 | -148.55646 | 36865 ft | 514 kts | 65° |
| 2026-05-06 08:21 | 61.52817 | -148.42124 | 36868 ft | 514 kts | 65° |
| 2026-05-06 08:22 | 61.55849 | -148.28650 | 36866 ft | 514 kts | 65° |
| 2026-05-06 08:22 | 61.58883 | -148.15077 | 36872 ft | 514 kts | 65° |
| 2026-05-06 08:23 | 61.61906 | -148.01472 | 36874 ft | 514 kts | 65° |
| 2026-05-06 08:23 | 61.64913 | -147.87848 | 36870 ft | 514 kts | 66° |
| 2026-05-06 08:24 | 61.67912 | -147.74168 | 36868 ft | 515 kts | 66° |
| 2026-05-06 08:24 | 61.70902 | -147.60446 | 36884 ft | 515 kts | 66° |
| 2026-05-06 08:25 | 61.73877 | -147.46705 | 36872 ft | 515 kts | 66° |
| 2026-05-06 08:25 | 61.76840 | -147.32932 | 36873 ft | 515 kts | 66° |
| 2026-05-06 08:26 | 61.79790 | -147.19122 | 36869 ft | 515 kts | 66° |
| 2026-05-06 08:26 | 61.82724 | -147.05298 | 36870 ft | 515 kts | 66° |
| 2026-05-06 08:27 | 61.85625 | -146.91539 | 36870 ft | 515 kts | 66° |
| 2026-05-06 08:27 | 61.88530 | -146.77664 | 36871 ft | 515 kts | 67° |
| 2026-05-06 08:28 | 61.91424 | -146.63752 | 36862 ft | 515 kts | 67° |
| 2026-05-06 08:28 | 61.94305 | -146.49809 | 36882 ft | 516 kts | 67° |
| 2026-05-06 08:29 | 61.97194 | -146.35729 | 36881 ft | 516 kts | 67° |
| 2026-05-06 08:29 | 62.00032 | -146.21805 | 36884 ft | 516 kts | 67° |
| 2026-05-06 08:30 | 62.02875 | -146.07760 | 36886 ft | 516 kts | 68° |
| 2026-05-06 08:30 | 62.05702 | -145.93696 | 36880 ft | 516 kts | 68° |
| 2026-05-06 08:31 | 62.08518 | -145.79595 | 36866 ft | 516 kts | 68° |
| 2026-05-06 08:31 | 62.11316 | -145.65484 | 36860 ft | 516 kts | 68° |
| 2026-05-06 08:32 | 62.14099 | -145.51345 | 36862 ft | 516 kts | 68° |
| 2026-05-06 08:32 | 62.16958 | -145.37253 | 36866 ft | 517 kts | 64° |
| 2026-05-06 08:33 | 62.20298 | -145.23620 | 36889 ft | 518 kts | 62° |
| 2026-05-06 08:33 | 62.23725 | -145.09991 | 36895 ft | 519 kts | 63° |
| 2026-05-06 08:34 | 62.28691 | -144.89461 | 36898 ft | 519 kts | 64° |
| 2026-05-06 08:35 | 62.31961 | -144.75625 | 36904 ft | 519 kts | 64° |
| 2026-05-06 08:35 | 62.35212 | -144.61772 | 36888 ft | 519 kts | 64° |
| 2026-05-06 08:36 | 62.38454 | -144.47881 | 36891 ft | 518 kts | 64° |
| 2026-05-06 08:36 | 62.41682 | -144.33970 | 36896 ft | 518 kts | 64° |
| 2026-05-06 08:37 | 62.44896 | -144.20033 | 36894 ft | 518 kts | 64° |
| 2026-05-06 08:37 | 62.48092 | -144.06080 | 36896 ft | 518 kts | 64° |
| 2026-05-06 08:38 | 62.51277 | -143.92086 | 36888 ft | 518 kts | 64° |
| 2026-05-06 08:38 | 62.54447 | -143.78064 | 36888 ft | 518 kts | 64° |
| 2026-05-06 08:39 | 62.57604 | -143.64012 | 36878 ft | 519 kts | 65° |
| 2026-05-06 08:39 | 62.60750 | -143.49914 | 36881 ft | 519 kts | 65° |
| 2026-05-06 08:40 | 62.63880 | -143.35790 | 36877 ft | 519 kts | 65° |
| 2026-05-06 08:40 | 62.66997 | -143.21636 | 36869 ft | 519 kts | 65° |
| 2026-05-06 08:41 | 62.70098 | -143.07458 | 36852 ft | 518 kts | 65° |
| 2026-05-06 08:41 | 62.73173 | -142.93303 | 36852 ft | 517 kts | 65° |
| 2026-05-06 08:42 | 62.76235 | -142.79117 | 36833 ft | 517 kts | 65° |
| 2026-05-06 08:42 | 62.79281 | -142.64904 | 36835 ft | 517 kts | 65° |
| 2026-05-06 08:43 | 62.82314 | -142.50657 | 36821 ft | 517 kts | 66° |
| 2026-05-06 08:43 | 62.85315 | -142.36464 | 36811 ft | 517 kts | 66° |
| 2026-05-06 08:44 | 62.88324 | -142.22139 | 36792 ft | 519 kts | 66° |
| 2026-05-06 08:44 | 62.91331 | -142.07718 | 36785 ft | 520 kts | 66° |
| 2026-05-06 08:45 | 62.94106 | -141.93073 | 36786 ft | 519 kts | 76° |
| 2026-05-06 08:45 | 62.95229 | -141.77524 | 36785 ft | 515 kts | 86° |
| 2026-05-06 08:46 | 62.95787 | -141.61815 | 36793 ft | 515 kts | 88° |
| 2026-05-06 08:46 | 62.96244 | -141.46107 | 36821 ft | 515 kts | 88° |
| 2026-05-06 08:47 | 62.96699 | -141.30397 | 36824 ft | 515 kts | 88° |
| 2026-05-06 08:47 | 62.97156 | -141.14692 | 36799 ft | 515 kts | 88° |
| 2026-05-06 08:48 | 62.97604 | -140.98961 | 36826 ft | 516 kts | 88° |
| 2026-05-06 08:48 | 62.98033 | -140.83323 | 36825 ft | 516 kts | 89° |
| 2026-05-06 08:49 | 62.98446 | -140.67560 | 36827 ft | 516 kts | 89° |
| 2026-05-06 08:49 | 62.98841 | -140.51812 | 36829 ft | 516 kts | 89° |
| 2026-05-06 08:50 | 62.99218 | -140.36050 | 36831 ft | 516 kts | 89° |
| 2026-05-06 08:50 | 62.99578 | -140.20282 | 36829 ft | 516 kts | 89° |
| 2026-05-06 08:51 | 62.99920 | -140.04529 | 36829 ft | 516 kts | 89° |
| 2026-05-06 08:51 | 63.00312 | -139.88756 | 36831 ft | 516 kts | 88° |
| 2026-05-06 08:52 | 63.00881 | -139.72999 | 36829 ft | 517 kts | 87° |
| 2026-05-06 08:52 | 63.01448 | -139.57228 | 36829 ft | 516 kts | 88° |
| 2026-05-06 08:53 | 63.01964 | -139.41545 | 36822 ft | 516 kts | 88° |
| 2026-05-06 08:53 | 63.02448 | -139.25792 | 36827 ft | 515 kts | 88° |
| 2026-05-06 08:54 | 63.02910 | -139.10054 | 36823 ft | 514 kts | 88° |
| 2026-05-06 08:54 | 63.03356 | -138.94312 | 36828 ft | 516 kts | 88° |
| 2026-05-06 08:55 | 63.03787 | -138.78528 | 36830 ft | 516 kts | 89° |
| 2026-05-06 08:55 | 63.04202 | -138.62713 | 36816 ft | 516 kts | 89° |
| 2026-05-06 08:56 | 63.04594 | -138.47020 | 36824 ft | 516 kts | 89° |
| 2026-05-06 08:56 | 63.04971 | -138.31222 | 36810 ft | 516 kts | 89° |
| 2026-05-06 08:57 | 63.05332 | -138.15466 | 36809 ft | 513 kts | 89° |
| 2026-05-06 08:57 | 63.05672 | -137.99822 | 36822 ft | 513 kts | 89° |
| 2026-05-06 08:57 | 63.05836 | -137.91971 | 35651 ft | 512 kts | 88° |
| 2026-05-06 08:58 | 63.05995 | -137.84159 | 36364 ft | 508 kts | 92° |
| 2026-05-06 08:58 | 63.06149 | -137.76394 | 36619 ft | 507 kts | 93° |
| 2026-05-06 08:58 | 63.06297 | -137.68585 | 36661 ft | 512 kts | 93° |
| 2026-05-06 08:59 | 63.06584 | -137.52848 | 36648 ft | 513 kts | 93° |
| 2026-05-06 08:59 | 63.06858 | -137.37131 | 36672 ft | 512 kts | 93° |
| 2026-05-06 09:00 | 63.07075 | -137.24092 | 36674 ft | 512 kts | 93° |
| 2026-05-06 09:00 | 63.07315 | -137.08415 | 36662 ft | 511 kts | 93° |
| 2026-05-06 09:01 | 63.07534 | -136.92749 | 36660 ft | 510 kts | 93° |
| 2026-05-06 09:01 | 63.07735 | -136.77098 | 36713 ft | 513 kts | 93° |
| 2026-05-06 09:02 | 63.07922 | -136.61358 | 36708 ft | 513 kts | 93° |
| 2026-05-06 09:02 | 63.08093 | -136.45608 | 36720 ft | 513 kts | 93° |
| 2026-05-06 09:03 | 63.08247 | -136.29875 | 36743 ft | 513 kts | 94° |
| 2026-05-06 09:03 | 63.08382 | -136.14166 | 36734 ft | 511 kts | 93° |
| 2026-05-06 09:04 | 63.08500 | -135.98505 | 36773 ft | 510 kts | 93° |
| 2026-05-06 09:04 | 63.08600 | -135.82868 | 36764 ft | 510 kts | 94° |
| 2026-05-06 09:05 | 63.08680 | -135.67151 | 36787 ft | 513 kts | 94° |
| 2026-05-06 09:05 | 63.08740 | -135.51510 | 36802 ft | 513 kts | 94° |
| 2026-05-06 09:06 | 63.08791 | -135.35773 | 36802 ft | 513 kts | 94° |
| 2026-05-06 09:06 | 63.08825 | -135.20030 | 36815 ft | 513 kts | 94° |
| 2026-05-06 09:07 | 63.08839 | -135.04275 | 36814 ft | 514 kts | 94° |
| 2026-05-06 09:07 | 63.08834 | -134.88495 | 36814 ft | 514 kts | 94° |
| 2026-05-06 09:08 | 63.08813 | -134.72720 | 36823 ft | 515 kts | 94° |
| 2026-05-06 09:08 | 63.08774 | -134.56872 | 36802 ft | 516 kts | 94° |
| 2026-05-06 09:09 | 63.08718 | -134.41027 | 36809 ft | 516 kts | 95° |
| 2026-05-06 09:09 | 63.08645 | -134.25185 | 36801 ft | 516 kts | 95° |
| 2026-05-06 09:10 | 63.08552 | -134.09337 | 36781 ft | 516 kts | 94° |
| 2026-05-06 09:10 | 63.08440 | -133.93483 | 36806 ft | 516 kts | 95° |
| 2026-05-06 09:11 | 63.08312 | -133.77757 | 36815 ft | 516 kts | 95° |
| 2026-05-06 09:11 | 63.08166 | -133.61894 | 36819 ft | 518 kts | 95° |
| 2026-05-06 09:12 | 63.08007 | -133.45985 | 36850 ft | 519 kts | 95° |
| 2026-05-06 09:12 | 63.07825 | -133.30076 | 36850 ft | 519 kts | 95° |
| 2026-05-06 09:13 | 63.07626 | -133.14180 | 36852 ft | 519 kts | 95° |
| 2026-05-06 09:13 | 63.07408 | -132.98279 | 36880 ft | 519 kts | 95° |
| 2026-05-06 09:14 | 63.07170 | -132.82327 | 36880 ft | 520 kts | 95° |
| 2026-05-06 09:14 | 63.06915 | -132.66378 | 36867 ft | 520 kts | 95° |
| 2026-05-06 09:15 | 63.06641 | -132.50367 | 36907 ft | 524 kts | 95° |
| 2026-05-06 09:15 | 63.06350 | -132.34314 | 36901 ft | 523 kts | 95° |
| 2026-05-06 09:16 | 63.06043 | -132.18319 | 36929 ft | 523 kts | 95° |
| 2026-05-06 09:16 | 63.05715 | -132.02289 | 36921 ft | 523 kts | 96° |
| 2026-05-06 09:17 | 63.05372 | -131.86384 | 36914 ft | 522 kts | 95° |
| 2026-05-06 09:17 | 63.05010 | -131.70414 | 36948 ft | 521 kts | 95° |
| 2026-05-06 09:18 | 63.04629 | -131.54441 | 36952 ft | 524 kts | 95° |
| 2026-05-06 09:18 | 63.04225 | -131.38354 | 36971 ft | 526 kts | 95° |
| 2026-05-06 09:19 | 63.03804 | -131.22273 | 36988 ft | 526 kts | 95° |
| 2026-05-06 09:19 | 63.03368 | -131.06214 | 36984 ft | 525 kts | 96° |
| 2026-05-06 09:20 | 63.02913 | -130.90148 | 37007 ft | 525 kts | 95° |
| 2026-05-06 09:20 | 63.02439 | -130.74103 | 36998 ft | 524 kts | 95° |
| 2026-05-06 09:21 | 63.01947 | -130.58086 | 36998 ft | 524 kts | 96° |
| 2026-05-06 09:21 | 63.01435 | -130.42059 | 37005 ft | 526 kts | 95° |
| 2026-05-06 09:22 | 63.00910 | -130.26074 | 37006 ft | 527 kts | 95° |
| 2026-05-06 09:22 | 63.00362 | -130.09979 | 37018 ft | 527 kts | 96° |
| 2026-05-06 09:23 | 62.99763 | -129.93805 | 37103 ft | 534 kts | 97° |
| 2026-05-06 09:23 | 62.99303 | -129.85698 | 37312 ft | 534 kts | 99° |
| 2026-05-06 09:23 | 62.98761 | -129.77616 | 37496 ft | 534 kts | 100° |
| 2026-05-06 09:23 | 62.98193 | -129.69547 | 37750 ft | 534 kts | 100° |
| 2026-05-06 09:24 | 62.97626 | -129.61481 | 37977 ft | 534 kts | 100° |
| 2026-05-06 09:24 | 62.97071 | -129.53423 | 38164 ft | 534 kts | 99° |
| 2026-05-06 09:24 | 62.96523 | -129.45323 | 38266 ft | 537 kts | 99° |
| 2026-05-06 09:24 | 62.95979 | -129.37211 | 38441 ft | 537 kts | 99° |
| 2026-05-06 09:25 | 62.95436 | -129.29082 | 38675 ft | 537 kts | 99° |
| 2026-05-06 09:25 | 62.94893 | -129.20973 | 38855 ft | 536 kts | 99° |
| 2026-05-06 09:25 | 62.94345 | -129.12874 | 39015 ft | 536 kts | 99° |
| 2026-05-06 09:26 | 62.93236 | -128.96704 | 39057 ft | 535 kts | 100° |
| 2026-05-06 09:26 | 62.92107 | -128.80566 | 39055 ft | 535 kts | 100° |
| 2026-05-06 09:27 | 62.90959 | -128.64445 | 39061 ft | 534 kts | 99° |
| 2026-05-06 09:27 | 62.89792 | -128.48347 | 39061 ft | 535 kts | 99° |
| 2026-05-06 09:28 | 62.88614 | -128.32328 | 39064 ft | 536 kts | 99° |
| 2026-05-06 09:28 | 62.87405 | -128.16156 | 39071 ft | 537 kts | 100° |
| 2026-05-06 09:29 | 62.86180 | -128.00039 | 39071 ft | 537 kts | 100° |
| 2026-05-06 09:29 | 62.84936 | -127.83942 | 39051 ft | 537 kts | 100° |
| 2026-05-06 09:30 | 62.83676 | -127.67858 | 39040 ft | 536 kts | 100° |
| 2026-05-06 09:30 | 62.82397 | -127.51759 | 39319 ft | 535 kts | 100° |
| 2026-05-06 09:30 | 62.81753 | -127.43758 | 39479 ft | 534 kts | 100° |
| 2026-05-06 09:31 | 62.81099 | -127.35758 | 39622 ft | 533 kts | 100° |
| 2026-05-06 09:31 | 62.80446 | -127.27793 | 39839 ft | 532 kts | 100° |
| 2026-05-06 09:31 | 62.79792 | -127.19848 | 39999 ft | 531 kts | 100° |
| 2026-05-06 09:31 | 62.79134 | -127.11912 | 40136 ft | 531 kts | 101° |
| 2026-05-06 09:32 | 62.78472 | -127.03981 | 40246 ft | 531 kts | 100° |
| 2026-05-06 09:32 | 62.77803 | -126.96038 | 40385 ft | 531 kts | 101° |
| 2026-05-06 09:32 | 62.77131 | -126.88135 | 40512 ft | 531 kts | 101° |
| 2026-05-06 09:32 | 62.76455 | -126.80214 | 40652 ft | 530 kts | 101° |
| 2026-05-06 09:33 | 62.75777 | -126.72316 | 40774 ft | 530 kts | 101° |
| 2026-05-06 09:33 | 62.75094 | -126.64404 | 40899 ft | 529 kts | 101° |
| 2026-05-06 09:33 | 62.74408 | -126.56506 | 40940 ft | 530 kts | 101° |
| 2026-05-06 09:34 | 62.73015 | -126.40674 | 41050 ft | 532 kts | 101° |
| 2026-05-06 09:34 | 62.71605 | -126.24898 | 41055 ft | 530 kts | 101° |
| 2026-05-06 09:35 | 62.70181 | -126.09158 | 41044 ft | 529 kts | 101° |
| 2026-05-06 09:35 | 62.68741 | -125.93439 | 41054 ft | 529 kts | 101° |
| 2026-05-06 09:36 | 62.67293 | -125.77837 | 41069 ft | 529 kts | 101° |
| 2026-05-06 09:36 | 62.65814 | -125.62129 | 41067 ft | 530 kts | 101° |
| 2026-05-06 09:37 | 62.64318 | -125.46438 | 41076 ft | 530 kts | 101° |
| 2026-05-06 09:37 | 62.62805 | -125.30750 | 41074 ft | 529 kts | 101° |
| 2026-05-06 09:38 | 62.61278 | -125.15111 | 41077 ft | 528 kts | 101° |
| 2026-05-06 09:38 | 62.59734 | -124.99509 | 41078 ft | 528 kts | 101° |
| 2026-05-06 09:39 | 62.58173 | -124.83923 | 41076 ft | 528 kts | 101° |
| 2026-05-06 09:39 | 62.56597 | -124.68370 | 41073 ft | 528 kts | 101° |
| 2026-05-06 09:40 | 62.55002 | -124.52819 | 41079 ft | 528 kts | 101° |
| 2026-05-06 09:40 | 62.52575 | -124.29514 | 41095 ft | 528 kts | 102° |
| 2026-05-06 09:41 | 62.50938 | -124.14023 | 41096 ft | 527 kts | 102° |
| 2026-05-06 09:41 | 62.49299 | -123.98688 | 41094 ft | 526 kts | 102° |
| 2026-05-06 09:42 | 62.47635 | -123.83277 | 41094 ft | 526 kts | 102° |
| 2026-05-06 09:42 | 62.45952 | -123.67886 | 41089 ft | 527 kts | 102° |
| 2026-05-06 09:43 | 62.44251 | -123.52492 | 41090 ft | 527 kts | 102° |
| 2026-05-06 09:43 | 62.42531 | -123.37104 | 41107 ft | 527 kts | 102° |
| 2026-05-06 09:44 | 62.40795 | -123.21741 | 41112 ft | 527 kts | 102° |
| 2026-05-06 09:44 | 62.39043 | -123.06403 | 41116 ft | 527 kts | 102° |
| 2026-05-06 09:45 | 62.37273 | -122.91076 | 41120 ft | 527 kts | 102° |
| 2026-05-06 09:45 | 62.35484 | -122.75747 | 41117 ft | 527 kts | 102° |
| 2026-05-06 09:46 | 62.33680 | -122.60446 | 41132 ft | 528 kts | 102° |
| 2026-05-06 09:46 | 62.31858 | -122.45161 | 41136 ft | 528 kts | 103° |
| 2026-05-06 09:47 | 62.30027 | -122.29947 | 41136 ft | 529 kts | 103° |
| 2026-05-06 09:47 | 62.28157 | -122.14577 | 41157 ft | 534 kts | 103° |
| 2026-05-06 09:48 | 62.26582 | -122.01744 | 41152 ft | 536 kts | 103° |
| 2026-05-06 09:48 | 62.24661 | -121.86252 | 41152 ft | 538 kts | 103° |
| 2026-05-06 09:49 | 62.22718 | -121.70745 | 41157 ft | 539 kts | 103° |
| 2026-05-06 09:49 | 62.20753 | -121.55210 | 41157 ft | 540 kts | 103° |
| 2026-05-06 09:50 | 62.18770 | -121.39694 | 41155 ft | 540 kts | 103° |
| 2026-05-06 09:50 | 62.16766 | -121.24173 | 41165 ft | 541 kts | 103° |
| 2026-05-06 09:51 | 62.14743 | -121.08663 | 41169 ft | 541 kts | 103° |
| 2026-05-06 09:51 | 62.12705 | -120.93187 | 41179 ft | 541 kts | 103° |
| 2026-05-06 09:52 | 62.10649 | -120.77720 | 41178 ft | 541 kts | 103° |
| 2026-05-06 09:52 | 62.08576 | -120.62284 | 41181 ft | 541 kts | 103° |
| 2026-05-06 09:53 | 62.06483 | -120.46846 | 41207 ft | 541 kts | 104° |
| 2026-05-06 09:53 | 62.04373 | -120.31428 | 41207 ft | 541 kts | 104° |
| 2026-05-06 09:54 | 62.02247 | -120.16041 | 41223 ft | 541 kts | 104° |
| 2026-05-06 09:54 | 61.99992 | -120.00816 | 41236 ft | 544 kts | 110° |
| 2026-05-06 09:55 | 61.96765 | -119.86239 | 41243 ft | 545 kts | 115° |
| 2026-05-06 09:55 | 61.93313 | -119.71895 | 41243 ft | 545 kts | 115° |
| 2026-05-06 09:56 | 61.89816 | -119.57612 | 41249 ft | 545 kts | 115° |
| 2026-05-06 09:56 | 61.86318 | -119.43340 | 41248 ft | 545 kts | 115° |
| 2026-05-06 09:57 | 61.82819 | -119.29102 | 41247 ft | 545 kts | 115° |
| 2026-05-06 09:57 | 61.79304 | -119.14873 | 41259 ft | 545 kts | 116° |
| 2026-05-06 09:58 | 61.75777 | -119.00688 | 41256 ft | 545 kts | 116° |
| 2026-05-06 09:58 | 61.72233 | -118.86527 | 41258 ft | 546 kts | 116° |
| 2026-05-06 09:59 | 61.68672 | -118.72395 | 41263 ft | 546 kts | 116° |
| 2026-05-06 09:59 | 61.65097 | -118.58294 | 41264 ft | 546 kts | 116° |
| 2026-05-06 10:00 | 61.61510 | -118.44238 | 41264 ft | 546 kts | 116° |
| 2026-05-06 10:00 | 61.57906 | -118.30205 | 41266 ft | 546 kts | 116° |
| 2026-05-06 10:01 | 61.54285 | -118.16189 | 41270 ft | 546 kts | 116° |
| 2026-05-06 10:01 | 61.50676 | -118.02311 | 41267 ft | 546 kts | 117° |
| 2026-05-06 10:02 | 61.47030 | -117.88380 | 41269 ft | 546 kts | 117° |
| 2026-05-06 10:02 | 61.43360 | -117.74441 | 41268 ft | 546 kts | 117° |
| 2026-05-06 10:03 | 61.39680 | -117.60551 | 41278 ft | 547 kts | 117° |
| 2026-05-06 10:03 | 61.35980 | -117.46670 | 41279 ft | 548 kts | 117° |
| 2026-05-06 10:04 | 61.32264 | -117.32816 | 41280 ft | 548 kts | 117° |
| 2026-05-06 10:04 | 61.28531 | -117.18990 | 41287 ft | 548 kts | 117° |
| 2026-05-06 10:05 | 61.24785 | -117.05193 | 41285 ft | 548 kts | 117° |
| 2026-05-06 10:05 | 61.21027 | -116.91437 | 41276 ft | 548 kts | 117° |
| 2026-05-06 10:06 | 61.17249 | -116.77694 | 41285 ft | 548 kts | 117° |
| 2026-05-06 10:06 | 61.13460 | -116.63994 | 41286 ft | 548 kts | 117° |
| 2026-05-06 10:07 | 61.09654 | -116.50325 | 41291 ft | 549 kts | 117° |
| 2026-05-06 10:07 | 61.05837 | -116.36688 | 41286 ft | 548 kts | 117° |
| 2026-05-06 10:08 | 61.02030 | -116.23165 | 41284 ft | 548 kts | 117° |
| 2026-05-06 10:08 | 60.98188 | -116.09599 | 41288 ft | 548 kts | 117° |
| 2026-05-06 10:09 | 60.94329 | -115.96058 | 41287 ft | 548 kts | 117° |
| 2026-05-06 10:09 | 60.90456 | -115.82552 | 41286 ft | 548 kts | 117° |
| 2026-05-06 10:10 | 60.86570 | -115.69075 | 41285 ft | 548 kts | 117° |
| 2026-05-06 10:10 | 60.82673 | -115.55639 | 41288 ft | 548 kts | 117° |
| 2026-05-06 10:11 | 60.78758 | -115.42222 | 41291 ft | 548 kts | 117° |
| 2026-05-06 10:11 | 60.74840 | -115.28878 | 41302 ft | 546 kts | 117° |
| 2026-05-06 10:12 | 60.70922 | -115.15610 | 41303 ft | 544 kts | 117° |
| 2026-05-06 10:12 | 60.67002 | -115.02404 | 41303 ft | 544 kts | 117° |
| 2026-05-06 10:13 | 60.63068 | -114.89227 | 41303 ft | 544 kts | 117° |
| 2026-05-06 10:13 | 60.59122 | -114.76085 | 41303 ft | 544 kts | 118° |
| 2026-05-06 10:14 | 60.55159 | -114.62966 | 41305 ft | 544 kts | 118° |
| 2026-05-06 10:14 | 60.51185 | -114.49885 | 41309 ft | 544 kts | 118° |
| 2026-05-06 10:15 | 60.47227 | -114.36931 | 41306 ft | 544 kts | 118° |
| 2026-05-06 10:15 | 60.43232 | -114.23926 | 41312 ft | 543 kts | 118° |
| 2026-05-06 10:16 | 60.39227 | -114.10964 | 41306 ft | 543 kts | 118° |
| 2026-05-06 10:16 | 60.35209 | -113.98029 | 41317 ft | 542 kts | 118° |
| 2026-05-06 10:17 | 60.31185 | -113.85149 | 41308 ft | 542 kts | 118° |
| 2026-05-06 10:17 | 60.27148 | -113.72299 | 41310 ft | 542 kts | 118° |
| 2026-05-06 10:18 | 60.23096 | -113.59471 | 41311 ft | 542 kts | 118° |
| 2026-05-06 10:18 | 60.19031 | -113.46675 | 41314 ft | 543 kts | 119° |
| 2026-05-06 10:19 | 60.14988 | -113.34014 | 41322 ft | 543 kts | 119° |
| 2026-05-06 10:19 | 60.10898 | -113.21281 | 41357 ft | 542 kts | 119° |
| 2026-05-06 10:20 | 60.06804 | -113.08600 | 41318 ft | 541 kts | 119° |
| 2026-05-06 10:20 | 60.02700 | -112.95963 | 41318 ft | 541 kts | 119° |
| 2026-05-06 10:21 | 59.98585 | -112.83356 | 41317 ft | 541 kts | 119° |
| 2026-05-06 10:21 | 59.94460 | -112.70785 | 41333 ft | 541 kts | 119° |
| 2026-05-06 10:22 | 59.90322 | -112.58246 | 41328 ft | 541 kts | 120° |
| 2026-05-06 10:22 | 59.86193 | -112.45793 | 41221 ft | 538 kts | 120° |
| 2026-05-06 10:23 | 59.82053 | -112.33379 | 41196 ft | 539 kts | 120° |
| 2026-05-06 10:23 | 59.77894 | -112.20975 | 41195 ft | 540 kts | 121° |
| 2026-05-06 10:24 | 59.73745 | -112.08666 | 41244 ft | 540 kts | 121° |
| 2026-05-06 10:24 | 59.69556 | -111.96305 | 41251 ft | 540 kts | 121° |
| 2026-05-06 10:25 | 59.65359 | -111.83985 | 41247 ft | 540 kts | 121° |
| 2026-05-06 10:25 | 59.61145 | -111.71677 | 41252 ft | 540 kts | 121° |
| 2026-05-06 10:26 | 59.56925 | -111.59416 | 41247 ft | 540 kts | 121° |
| 2026-05-06 10:26 | 59.52691 | -111.47183 | 41258 ft | 540 kts | 121° |
| 2026-05-06 10:27 | 59.48444 | -111.34969 | 41252 ft | 541 kts | 121° |
| 2026-05-06 10:27 | 59.44184 | -111.22786 | 41252 ft | 541 kts | 121° |
| 2026-05-06 10:28 | 59.39912 | -111.10631 | 41258 ft | 540 kts | 121° |
| 2026-05-06 10:28 | 59.35634 | -110.98522 | 41255 ft | 539 kts | 122° |
| 2026-05-06 10:29 | 59.31376 | -110.86530 | 41255 ft | 539 kts | 122° |
| 2026-05-06 10:29 | 59.27082 | -110.74496 | 41263 ft | 539 kts | 122° |
| 2026-05-06 10:30 | 59.22770 | -110.62476 | 41261 ft | 539 kts | 122° |
| 2026-05-06 10:30 | 59.18452 | -110.50498 | 41259 ft | 540 kts | 122° |
| 2026-05-06 10:31 | 59.14122 | -110.38550 | 41257 ft | 540 kts | 122° |
| 2026-05-06 10:31 | 59.09780 | -110.26628 | 41255 ft | 540 kts | 122° |
| 2026-05-06 10:32 | 59.05424 | -110.14729 | 41283 ft | 540 kts | 122° |
| 2026-05-06 10:32 | 59.01092 | -110.02936 | 41253 ft | 529 kts | 121° |
| 2026-05-06 10:33 | 58.97393 | -109.90807 | 41259 ft | 520 kts | 115° |
| 2026-05-06 10:33 | 58.93903 | -109.78537 | 41261 ft | 520 kts | 115° |
| 2026-05-06 10:34 | 58.90429 | -109.66240 | 41255 ft | 520 kts | 115° |
| 2026-05-06 10:34 | 58.87531 | -109.56056 | 41266 ft | 520 kts | 115° |
| 2026-05-06 10:35 | 58.83453 | -109.41850 | 41263 ft | 520 kts | 115° |
| 2026-05-06 10:35 | 58.79926 | -109.29650 | 41265 ft | 520 kts | 115° |
| 2026-05-06 10:36 | 58.76985 | -109.19530 | 41273 ft | 519 kts | 115° |
| 2026-05-06 10:36 | 58.73430 | -109.07351 | 41279 ft | 518 kts | 115° |
| 2026-05-06 10:37 | 58.69912 | -108.95362 | 41276 ft | 518 kts | 116° |
| 2026-05-06 10:37 | 58.66363 | -108.83325 | 41268 ft | 518 kts | 116° |
| 2026-05-06 10:38 | 58.62795 | -108.71287 | 41270 ft | 518 kts | 116° |
| 2026-05-06 10:38 | 58.59222 | -108.59297 | 41275 ft | 518 kts | 116° |
| 2026-05-06 10:39 | 58.55637 | -108.47328 | 41263 ft | 518 kts | 116° |
| 2026-05-06 10:39 | 58.52040 | -108.35381 | 41272 ft | 518 kts | 116° |
| 2026-05-06 10:40 | 58.48432 | -108.23460 | 41268 ft | 518 kts | 116° |
| 2026-05-06 10:40 | 58.44819 | -108.11578 | 41269 ft | 518 kts | 116° |
| 2026-05-06 10:41 | 58.41185 | -107.99693 | 41256 ft | 518 kts | 116° |
| 2026-05-06 10:41 | 58.37548 | -107.87856 | 41277 ft | 518 kts | 116° |
| 2026-05-06 10:42 | 58.33921 | -107.76110 | 41262 ft | 518 kts | 117° |
| 2026-05-06 10:42 | 58.30259 | -107.64314 | 41261 ft | 518 kts | 117° |
| 2026-05-06 10:43 | 58.26584 | -107.52530 | 41271 ft | 517 kts | 117° |
| 2026-05-06 10:44 | 58.21062 | -107.34941 | 41259 ft | 517 kts | 117° |
| 2026-05-06 10:44 | 58.17367 | -107.23243 | 41262 ft | 517 kts | 117° |
| 2026-05-06 10:45 | 58.13656 | -107.11554 | 41260 ft | 517 kts | 117° |
| 2026-05-06 10:45 | 58.09939 | -106.99900 | 41261 ft | 518 kts | 117° |
| 2026-05-06 10:46 | 58.06202 | -106.88245 | 41259 ft | 518 kts | 117° |
| 2026-05-06 10:46 | 58.02457 | -106.76623 | 41257 ft | 518 kts | 117° |
| 2026-05-06 10:47 | 57.98706 | -106.65036 | 41252 ft | 518 kts | 118° |
| 2026-05-06 10:47 | 57.94941 | -106.53466 | 41247 ft | 517 kts | 118° |
| 2026-05-06 10:48 | 57.91164 | -106.41914 | 41254 ft | 519 kts | 118° |
| 2026-05-06 10:48 | 57.87392 | -106.30433 | 41254 ft | 519 kts | 118° |
| 2026-05-06 10:49 | 57.83589 | -106.18914 | 41252 ft | 519 kts | 118° |
| 2026-05-06 10:49 | 57.79773 | -106.07412 | 41255 ft | 519 kts | 118° |
| 2026-05-06 10:50 | 57.75945 | -105.95928 | 41250 ft | 519 kts | 118° |
| 2026-05-06 10:50 | 57.72104 | -105.84462 | 41249 ft | 519 kts | 118° |
| 2026-05-06 10:51 | 57.68261 | -105.73045 | 41250 ft | 518 kts | 119° |
| 2026-05-06 10:51 | 57.64412 | -105.61666 | 41243 ft | 518 kts | 119° |
| 2026-05-06 10:52 | 57.60550 | -105.50300 | 41236 ft | 519 kts | 119° |
| 2026-05-06 10:52 | 57.56675 | -105.38951 | 41227 ft | 518 kts | 119° |
| 2026-05-06 10:53 | 57.52814 | -105.27697 | 41227 ft | 519 kts | 119° |
| 2026-05-06 10:53 | 57.48918 | -105.16395 | 41229 ft | 519 kts | 119° |
| 2026-05-06 10:54 | 57.45017 | -105.05128 | 41232 ft | 518 kts | 120° |
| 2026-05-06 10:54 | 57.41108 | -104.93895 | 41229 ft | 517 kts | 120° |
| 2026-05-06 10:55 | 57.37191 | -104.82691 | 41230 ft | 517 kts | 120° |
| 2026-05-06 10:55 | 57.33266 | -104.71515 | 41229 ft | 518 kts | 120° |
| 2026-05-06 10:56 | 57.29352 | -104.60424 | 41224 ft | 518 kts | 120° |
| 2026-05-06 10:56 | 57.25406 | -104.49290 | 41225 ft | 518 kts | 120° |
| 2026-05-06 10:57 | 57.21450 | -104.38182 | 41248 ft | 518 kts | 120° |
| 2026-05-06 10:57 | 57.17485 | -104.27099 | 41226 ft | 517 kts | 121° |
| 2026-05-06 10:58 | 57.13517 | -104.16063 | 41225 ft | 516 kts | 121° |
| 2026-05-06 10:58 | 57.09539 | -104.05045 | 41220 ft | 516 kts | 121° |
| 2026-05-06 10:59 | 57.05554 | -103.94059 | 41213 ft | 517 kts | 121° |
| 2026-05-06 10:59 | 57.01554 | -103.83080 | 41205 ft | 517 kts | 121° |
| 2026-05-06 11:00 | 56.97548 | -103.72137 | 41219 ft | 517 kts | 121° |
| 2026-05-06 11:00 | 56.93533 | -103.61220 | 41224 ft | 517 kts | 121° |
| 2026-05-06 11:01 | 56.89508 | -103.50321 | 41215 ft | 516 kts | 121° |
| 2026-05-06 11:01 | 56.85482 | -103.39472 | 41214 ft | 516 kts | 121° |
| 2026-05-06 11:02 | 56.81447 | -103.28645 | 41213 ft | 516 kts | 122° |
| 2026-05-06 11:02 | 56.77400 | -103.17836 | 41211 ft | 516 kts | 122° |
| 2026-05-06 11:03 | 56.73345 | -103.07052 | 41211 ft | 516 kts | 122° |
| 2026-05-06 11:03 | 56.69306 | -102.96360 | 41214 ft | 516 kts | 122° |
| 2026-05-06 11:04 | 56.65232 | -102.85620 | 41221 ft | 516 kts | 122° |
| 2026-05-06 11:04 | 56.61146 | -102.74899 | 41208 ft | 515 kts | 122° |
| 2026-05-06 11:05 | 56.57056 | -102.64213 | 41210 ft | 515 kts | 122° |
| 2026-05-06 11:05 | 56.52955 | -102.53548 | 41208 ft | 515 kts | 122° |
| 2026-05-06 11:06 | 56.48851 | -102.42920 | 41209 ft | 515 kts | 122° |
| 2026-05-06 11:06 | 56.44736 | -102.32310 | 41208 ft | 515 kts | 122° |
| 2026-05-06 11:07 | 56.40605 | -102.21706 | 41206 ft | 515 kts | 122° |
| 2026-05-06 11:07 | 56.36470 | -102.11135 | 41210 ft | 515 kts | 123° |
| 2026-05-06 11:08 | 56.32356 | -102.00666 | 41203 ft | 515 kts | 123° |
| 2026-05-06 11:08 | 56.28211 | -101.90161 | 41203 ft | 515 kts | 123° |
| 2026-05-06 11:09 | 56.24056 | -101.79677 | 41199 ft | 515 kts | 123° |
| 2026-05-06 11:09 | 56.19891 | -101.69214 | 41197 ft | 515 kts | 123° |
| 2026-05-06 11:10 | 56.15715 | -101.58768 | 41198 ft | 515 kts | 123° |
| 2026-05-06 11:10 | 56.11533 | -101.48350 | 41197 ft | 515 kts | 123° |
| 2026-05-06 11:11 | 56.07337 | -101.37943 | 41194 ft | 514 kts | 123° |
| 2026-05-06 11:11 | 56.03142 | -101.27583 | 41183 ft | 514 kts | 123° |
| 2026-05-06 11:12 | 55.98935 | -101.17237 | 41197 ft | 514 kts | 124° |
| 2026-05-06 11:12 | 55.94724 | -101.06923 | 41198 ft | 514 kts | 124° |
| 2026-05-06 11:13 | 55.90502 | -100.96626 | 41198 ft | 514 kts | 124° |
| 2026-05-06 11:13 | 55.86272 | -100.86355 | 41181 ft | 514 kts | 124° |
| 2026-05-06 11:14 | 55.82030 | -100.76098 | 41194 ft | 514 kts | 124° |
| 2026-05-06 11:14 | 55.77781 | -100.65866 | 41202 ft | 514 kts | 124° |
| 2026-05-06 11:15 | 55.73522 | -100.55651 | 41184 ft | 514 kts | 124° |
| 2026-05-06 11:15 | 55.69256 | -100.45465 | 41183 ft | 515 kts | 124° |
| 2026-05-06 11:16 | 55.65010 | -100.35364 | 41183 ft | 515 kts | 124° |
| 2026-05-06 11:16 | 55.60695 | -100.25146 | 41197 ft | 515 kts | 124° |
| 2026-05-06 11:17 | 55.56436 | -100.15101 | 41190 ft | 515 kts | 124° |
| 2026-05-06 11:17 | 55.52133 | -100.04993 | 41188 ft | 515 kts | 125° |
| 2026-05-06 11:18 | 55.47847 | -99.94896 | 41178 ft | 513 kts | 124° |
| 2026-05-06 11:18 | 55.43689 | -99.84677 | 41182 ft | 513 kts | 123° |
| 2026-05-06 11:19 | 55.39547 | -99.74443 | 41178 ft | 513 kts | 123° |
| 2026-05-06 11:19 | 55.35384 | -99.64266 | 41178 ft | 513 kts | 123° |
| 2026-05-06 11:20 | 55.31194 | -99.54110 | 41175 ft | 513 kts | 124° |
| 2026-05-06 11:20 | 55.26991 | -99.43979 | 41175 ft | 513 kts | 124° |
| 2026-05-06 11:21 | 55.22785 | -99.33878 | 41177 ft | 512 kts | 124° |
| 2026-05-06 11:21 | 55.18575 | -99.23807 | 41170 ft | 512 kts | 124° |
| 2026-05-06 11:22 | 55.14363 | -99.13772 | 41170 ft | 512 kts | 124° |
| 2026-05-06 11:22 | 55.10144 | -99.03761 | 41170 ft | 512 kts | 124° |
| 2026-05-06 11:23 | 55.06628 | -98.95447 | 41165 ft | 512 kts | 124° |
| 2026-05-06 11:23 | 55.01696 | -98.83837 | 41162 ft | 512 kts | 124° |
| 2026-05-06 11:24 | 54.98170 | -98.75567 | 41170 ft | 512 kts | 124° |
| 2026-05-06 11:24 | 54.93923 | -98.65643 | 41152 ft | 511 kts | 124° |
| 2026-05-06 11:25 | 54.89671 | -98.55749 | 41153 ft | 511 kts | 125° |
| 2026-05-06 11:25 | 54.85410 | -98.45873 | 41146 ft | 511 kts | 125° |
| 2026-05-06 11:26 | 54.81138 | -98.36010 | 41146 ft | 511 kts | 125° |
| 2026-05-06 11:26 | 54.76863 | -98.26179 | 41143 ft | 511 kts | 125° |
| 2026-05-06 11:27 | 54.72579 | -98.16367 | 41140 ft | 511 kts | 125° |
| 2026-05-06 11:27 | 54.68286 | -98.06573 | 41139 ft | 510 kts | 125° |
| 2026-05-06 11:28 | 54.64020 | -97.96880 | 41133 ft | 510 kts | 126° |
| 2026-05-06 11:28 | 54.59697 | -97.87095 | 41132 ft | 510 kts | 126° |
| 2026-05-06 11:29 | 54.55391 | -97.77387 | 41128 ft | 510 kts | 126° |
| 2026-05-06 11:29 | 54.51105 | -97.67761 | 41124 ft | 510 kts | 126° |
| 2026-05-06 11:30 | 54.46783 | -97.58093 | 41122 ft | 510 kts | 126° |
| 2026-05-06 11:30 | 54.42449 | -97.48436 | 41132 ft | 510 kts | 126° |
| 2026-05-06 11:31 | 54.38111 | -97.38807 | 41117 ft | 509 kts | 126° |
| 2026-05-06 11:31 | 54.33772 | -97.29212 | 41118 ft | 509 kts | 126° |
| 2026-05-06 11:32 | 54.29426 | -97.19640 | 41109 ft | 509 kts | 126° |
| 2026-05-06 11:32 | 54.25073 | -97.10088 | 41107 ft | 509 kts | 126° |
| 2026-05-06 11:33 | 54.20712 | -97.00556 | 41105 ft | 509 kts | 126° |
| 2026-05-06 11:33 | 54.16339 | -96.91035 | 41105 ft | 509 kts | 127° |
| 2026-05-06 11:34 | 54.11992 | -96.81607 | 41103 ft | 509 kts | 127° |
| 2026-05-06 11:34 | 54.07613 | -96.72145 | 41099 ft | 508 kts | 127° |
| 2026-05-06 11:35 | 54.03227 | -96.62703 | 41098 ft | 508 kts | 127° |
| 2026-05-06 11:35 | 53.98833 | -96.53279 | 41097 ft | 509 kts | 127° |
| 2026-05-06 11:36 | 53.94429 | -96.43872 | 41089 ft | 509 kts | 127° |
| 2026-05-06 11:36 | 53.90021 | -96.34490 | 41088 ft | 509 kts | 127° |
| 2026-05-06 11:37 | 53.85604 | -96.25124 | 41086 ft | 508 kts | 127° |
| 2026-05-06 11:37 | 53.81188 | -96.15794 | 41084 ft | 508 kts | 127° |
| 2026-05-06 11:38 | 53.76760 | -96.06476 | 41083 ft | 508 kts | 127° |
| 2026-05-06 11:38 | 53.72322 | -95.97173 | 41077 ft | 508 kts | 128° |
| 2026-05-06 11:39 | 53.67885 | -95.87904 | 41077 ft | 508 kts | 128° |
| 2026-05-06 11:39 | 53.63436 | -95.78645 | 41069 ft | 508 kts | 128° |
| 2026-05-06 11:40 | 53.58980 | -95.69407 | 41077 ft | 508 kts | 128° |
| 2026-05-06 11:40 | 53.54517 | -95.60187 | 41068 ft | 508 kts | 128° |
| 2026-05-06 11:41 | 53.50047 | -95.50987 | 41062 ft | 508 kts | 128° |
| 2026-05-06 11:41 | 53.45599 | -95.41867 | 41067 ft | 508 kts | 128° |
| 2026-05-06 11:42 | 53.41088 | -95.32652 | 41069 ft | 508 kts | 128° |
| 2026-05-06 11:42 | 53.36599 | -95.23514 | 41069 ft | 508 kts | 128° |
| 2026-05-06 11:43 | 53.32102 | -95.14393 | 41071 ft | 508 kts | 128° |
| 2026-05-06 11:43 | 53.27631 | -95.05360 | 41052 ft | 507 kts | 128° |
| 2026-05-06 11:44 | 53.20870 | -94.91759 | 41068 ft | 507 kts | 129° |
| 2026-05-06 11:44 | 53.16360 | -94.82728 | 41054 ft | 507 kts | 129° |
| 2026-05-06 11:45 | 53.11832 | -94.73693 | 41065 ft | 507 kts | 129° |
| 2026-05-06 11:45 | 53.07304 | -94.64692 | 41058 ft | 508 kts | 129° |
| 2026-05-06 11:46 | 53.02766 | -94.55701 | 41056 ft | 508 kts | 129° |
| 2026-05-06 11:46 | 52.98220 | -94.46729 | 41053 ft | 508 kts | 129° |
| 2026-05-06 11:47 | 52.93664 | -94.37769 | 41042 ft | 508 kts | 129° |
| 2026-05-06 11:47 | 52.89108 | -94.28840 | 41051 ft | 508 kts | 129° |
| 2026-05-06 11:48 | 52.84535 | -94.19910 | 41049 ft | 508 kts | 129° |
| 2026-05-06 11:48 | 52.79959 | -94.11006 | 41044 ft | 508 kts | 129° |
| 2026-05-06 11:49 | 52.75405 | -94.02178 | 41051 ft | 508 kts | 129° |
| 2026-05-06 11:49 | 52.70791 | -93.93263 | 41037 ft | 508 kts | 129° |
| 2026-05-06 11:50 | 52.66233 | -93.84488 | 41033 ft | 507 kts | 130° |
| 2026-05-06 11:50 | 52.61634 | -93.75666 | 41032 ft | 508 kts | 130° |
| 2026-05-06 11:51 | 52.57031 | -93.66865 | 41041 ft | 508 kts | 130° |
| 2026-05-06 11:51 | 52.52416 | -93.58075 | 41029 ft | 508 kts | 130° |
| 2026-05-06 11:52 | 52.47795 | -93.49303 | 41026 ft | 508 kts | 130° |
| 2026-05-06 11:52 | 52.43169 | -93.40552 | 41034 ft | 508 kts | 130° |
| 2026-05-06 11:53 | 52.38538 | -93.31823 | 41022 ft | 508 kts | 130° |
| 2026-05-06 11:53 | 52.33900 | -93.23110 | 41020 ft | 508 kts | 130° |
| 2026-05-06 11:54 | 52.29257 | -93.14418 | 41017 ft | 508 kts | 130° |
| 2026-05-06 11:54 | 52.24606 | -93.05742 | 41017 ft | 508 kts | 130° |
| 2026-05-06 11:55 | 52.19946 | -92.97078 | 41015 ft | 508 kts | 130° |
| 2026-05-06 11:55 | 52.15311 | -92.88492 | 41008 ft | 508 kts | 130° |
| 2026-05-06 11:56 | 52.10639 | -92.79866 | 41012 ft | 509 kts | 130° |
| 2026-05-06 11:56 | 52.05954 | -92.71245 | 41003 ft | 509 kts | 131° |
| 2026-05-06 11:57 | 52.01258 | -92.62635 | 40999 ft | 508 kts | 131° |
| 2026-05-06 11:57 | 51.96559 | -92.54046 | 40999 ft | 509 kts | 131° |
| 2026-05-06 11:58 | 51.91853 | -92.45474 | 40999 ft | 509 kts | 131° |
| 2026-05-06 11:58 | 51.87142 | -92.36926 | 40998 ft | 509 kts | 131° |
| 2026-05-06 11:59 | 51.82415 | -92.28376 | 40993 ft | 510 kts | 131° |
| 2026-05-06 11:59 | 51.77709 | -92.19893 | 40990 ft | 509 kts | 131° |
| 2026-05-06 12:00 | 51.72970 | -92.11379 | 40993 ft | 511 kts | 131° |
| 2026-05-06 12:00 | 51.68211 | -92.02860 | 40995 ft | 510 kts | 131° |
| 2026-05-06 12:01 | 51.63460 | -91.94383 | 40991 ft | 510 kts | 131° |
| 2026-05-06 12:01 | 51.58700 | -91.85918 | 40984 ft | 511 kts | 132° |
| 2026-05-06 12:02 | 51.53926 | -91.77457 | 40982 ft | 510 kts | 132° |
| 2026-05-06 12:02 | 51.49158 | -91.69035 | 40981 ft | 510 kts | 132° |
| 2026-05-06 12:03 | 51.44366 | -91.60602 | 40981 ft | 511 kts | 132° |
| 2026-05-06 12:03 | 51.39574 | -91.52194 | 40978 ft | 511 kts | 132° |
| 2026-05-06 12:04 | 51.34775 | -91.43803 | 40979 ft | 512 kts | 132° |
| 2026-05-06 12:04 | 51.30002 | -91.35480 | 40979 ft | 510 kts | 133° |
| 2026-05-06 12:05 | 51.25205 | -91.27147 | 40970 ft | 510 kts | 133° |
| 2026-05-06 12:05 | 51.20399 | -91.18828 | 40972 ft | 510 kts | 133° |
| 2026-05-06 12:06 | 51.15588 | -91.10526 | 40968 ft | 510 kts | 133° |
| 2026-05-06 12:06 | 51.10767 | -91.02234 | 40968 ft | 510 kts | 133° |
| 2026-05-06 12:07 | 51.05944 | -90.93968 | 40964 ft | 509 kts | 133° |
| 2026-05-06 12:07 | 51.01123 | -90.85729 | 40960 ft | 509 kts | 134° |
| 2026-05-06 12:08 | 50.96294 | -90.77506 | 40962 ft | 509 kts | 133° |
| 2026-05-06 12:08 | 50.91468 | -90.69314 | 40956 ft | 508 kts | 134° |
| 2026-05-06 12:09 | 50.86635 | -90.61137 | 40950 ft | 509 kts | 134° |
| 2026-05-06 12:09 | 50.81794 | -90.52973 | 40946 ft | 509 kts | 134° |
| 2026-05-06 12:10 | 50.76943 | -90.44818 | 40947 ft | 509 kts | 134° |
| 2026-05-06 12:10 | 50.72088 | -90.36682 | 40939 ft | 509 kts | 134° |
| 2026-05-06 12:11 | 50.67222 | -90.28556 | 40940 ft | 509 kts | 134° |
| 2026-05-06 12:11 | 50.62348 | -90.20444 | 40937 ft | 510 kts | 134° |
| 2026-05-06 12:12 | 50.57474 | -90.12355 | 40933 ft | 509 kts | 134° |
| 2026-05-06 12:12 | 50.53419 | -90.05646 | 40935 ft | 509 kts | 134° |
| 2026-05-06 12:13 | 50.48530 | -89.97596 | 40930 ft | 509 kts | 135° |
| 2026-05-06 12:13 | 50.43527 | -89.89748 | 40926 ft | 508 kts | 136° |
| 2026-05-06 12:14 | 50.38470 | -89.81983 | 40925 ft | 509 kts | 137° |
| 2026-05-06 12:14 | 50.33420 | -89.74211 | 40929 ft | 509 kts | 136° |
| 2026-05-06 12:15 | 50.28379 | -89.66432 | 40928 ft | 509 kts | 136° |
| 2026-05-06 12:15 | 50.23334 | -89.58660 | 40923 ft | 509 kts | 137° |
| 2026-05-06 12:16 | 50.18292 | -89.50915 | 40917 ft | 509 kts | 137° |
| 2026-05-06 12:16 | 50.13234 | -89.43173 | 40927 ft | 509 kts | 137° |
| 2026-05-06 12:17 | 50.08172 | -89.35450 | 40919 ft | 509 kts | 137° |
| 2026-05-06 12:17 | 50.03104 | -89.27742 | 40917 ft | 509 kts | 137° |
| 2026-05-06 12:18 | 49.98034 | -89.20055 | 40927 ft | 509 kts | 137° |
| 2026-05-06 12:18 | 49.92955 | -89.12377 | 40914 ft | 509 kts | 137° |
| 2026-05-06 12:19 | 49.87903 | -89.04765 | 40912 ft | 509 kts | 137° |
| 2026-05-06 12:19 | 49.82814 | -88.97120 | 40919 ft | 509 kts | 137° |
| 2026-05-06 12:20 | 49.77728 | -88.89504 | 40912 ft | 509 kts | 137° |
| 2026-05-06 12:20 | 49.72633 | -88.81896 | 40910 ft | 509 kts | 137° |
| 2026-05-06 12:21 | 49.67530 | -88.74302 | 40917 ft | 510 kts | 137° |
| 2026-05-06 12:21 | 49.62412 | -88.66708 | 40909 ft | 510 kts | 137° |
| 2026-05-06 12:22 | 49.57299 | -88.59144 | 40910 ft | 510 kts | 138° |
| 2026-05-06 12:22 | 49.52178 | -88.51591 | 40905 ft | 509 kts | 138° |
| 2026-05-06 12:23 | 49.47051 | -88.44053 | 40904 ft | 510 kts | 138° |
| 2026-05-06 12:23 | 49.41917 | -88.36529 | 40904 ft | 510 kts | 138° |
| 2026-05-06 12:24 | 49.36778 | -88.29019 | 40905 ft | 510 kts | 138° |
| 2026-05-06 12:24 | 49.31637 | -88.21530 | 40903 ft | 510 kts | 138° |
| 2026-05-06 12:25 | 49.26520 | -88.14096 | 40902 ft | 510 kts | 139° |
| 2026-05-06 12:25 | 49.21362 | -88.06626 | 40901 ft | 511 kts | 139° |
| 2026-05-06 12:26 | 49.16191 | -87.99161 | 40903 ft | 511 kts | 139° |
| 2026-05-06 12:26 | 49.11023 | -87.91722 | 40900 ft | 511 kts | 139° |
| 2026-05-06 12:27 | 49.05849 | -87.84297 | 40892 ft | 511 kts | 139° |
| 2026-05-06 12:27 | 49.00668 | -87.76884 | 40898 ft | 511 kts | 139° |
| 2026-05-06 12:28 | 48.95483 | -87.69487 | 40896 ft | 511 kts | 139° |
| 2026-05-06 12:28 | 48.90288 | -87.62100 | 40898 ft | 511 kts | 139° |
| 2026-05-06 12:29 | 48.85091 | -87.54731 | 40897 ft | 511 kts | 139° |
| 2026-05-06 12:29 | 48.79920 | -87.47420 | 40895 ft | 511 kts | 139° |
| 2026-05-06 12:30 | 48.74717 | -87.40084 | 40903 ft | 511 kts | 139° |
| 2026-05-06 12:30 | 48.69502 | -87.32755 | 40906 ft | 511 kts | 140° |
| 2026-05-06 12:31 | 48.64283 | -87.25442 | 40906 ft | 511 kts | 140° |
| 2026-05-06 12:31 | 48.59064 | -87.18149 | 40907 ft | 511 kts | 140° |
| 2026-05-06 12:32 | 48.53834 | -87.10864 | 40906 ft | 512 kts | 140° |
| 2026-05-06 12:32 | 48.48597 | -87.03591 | 40908 ft | 512 kts | 140° |
| 2026-05-06 12:33 | 48.43359 | -86.96335 | 40911 ft | 512 kts | 140° |
| 2026-05-06 12:33 | 48.38109 | -86.89087 | 40905 ft | 512 kts | 140° |
| 2026-05-06 12:34 | 48.32853 | -86.81851 | 40916 ft | 513 kts | 140° |
| 2026-05-06 12:34 | 48.27586 | -86.74620 | 40915 ft | 513 kts | 141° |
| 2026-05-06 12:35 | 48.22349 | -86.67452 | 40920 ft | 513 kts | 141° |
| 2026-05-06 12:35 | 48.17079 | -86.60260 | 40906 ft | 513 kts | 141° |
| 2026-05-06 12:36 | 48.11794 | -86.53067 | 40921 ft | 514 kts | 141° |
| 2026-05-06 12:36 | 48.06492 | -86.45873 | 40926 ft | 514 kts | 141° |
| 2026-05-06 12:37 | 48.01189 | -86.38699 | 40922 ft | 514 kts | 141° |
| 2026-05-06 12:37 | 47.95883 | -86.31540 | 40927 ft | 514 kts | 141° |
| 2026-05-06 12:38 | 47.90568 | -86.24390 | 40930 ft | 515 kts | 141° |
| 2026-05-06 12:38 | 47.85243 | -86.17248 | 40923 ft | 515 kts | 142° |
| 2026-05-06 12:39 | 47.79911 | -86.10117 | 40927 ft | 516 kts | 142° |
| 2026-05-06 12:39 | 47.74570 | -86.02995 | 40923 ft | 516 kts | 142° |
| 2026-05-06 12:40 | 47.69260 | -85.95934 | 40923 ft | 516 kts | 142° |
| 2026-05-06 12:40 | 47.63900 | -85.88828 | 40922 ft | 516 kts | 142° |
| 2026-05-06 12:41 | 47.58538 | -85.81739 | 40920 ft | 516 kts | 142° |
| 2026-05-06 12:41 | 47.53175 | -85.74668 | 40923 ft | 517 kts | 142° |
| 2026-05-06 12:42 | 47.47801 | -85.67603 | 40918 ft | 517 kts | 143° |
| 2026-05-06 12:42 | 47.42418 | -85.60548 | 40922 ft | 517 kts | 143° |
| 2026-05-06 12:43 | 47.37033 | -85.53509 | 40927 ft | 517 kts | 143° |
| 2026-05-06 12:43 | 47.31640 | -85.46480 | 40927 ft | 517 kts | 143° |
| 2026-05-06 12:44 | 47.26250 | -85.39472 | 40931 ft | 518 kts | 143° |
| 2026-05-06 12:44 | 47.20842 | -85.32464 | 40930 ft | 518 kts | 143° |
| 2026-05-06 12:45 | 47.15435 | -85.25476 | 40939 ft | 518 kts | 143° |
| 2026-05-06 12:46 | 47.07309 | -85.15010 | 40928 ft | 518 kts | 143° |
| 2026-05-06 12:46 | 47.01921 | -85.08096 | 40947 ft | 518 kts | 143° |
| 2026-05-06 12:47 | 46.96495 | -85.01151 | 40950 ft | 518 kts | 144° |
| 2026-05-06 12:47 | 46.91057 | -84.94212 | 40949 ft | 518 kts | 144° |
| 2026-05-06 12:48 | 46.85620 | -84.87294 | 40934 ft | 518 kts | 144° |
| 2026-05-06 12:48 | 46.80173 | -84.80381 | 40947 ft | 519 kts | 144° |
| 2026-05-06 12:49 | 46.74723 | -84.73483 | 40932 ft | 519 kts | 144° |
| 2026-05-06 12:49 | 46.69263 | -84.66593 | 40925 ft | 519 kts | 144° |
| 2026-05-06 12:50 | 46.63796 | -84.59713 | 40925 ft | 519 kts | 144° |
| 2026-05-06 12:50 | 46.58330 | -84.52853 | 40917 ft | 519 kts | 144° |
| 2026-05-06 12:51 | 46.52855 | -84.46000 | 40916 ft | 519 kts | 144° |
| 2026-05-06 12:51 | 46.47414 | -84.39210 | 40916 ft | 519 kts | 144° |
| 2026-05-06 12:52 | 46.42001 | -84.32270 | 40896 ft | 523 kts | 139° |
| 2026-05-06 12:52 | 46.37356 | -84.24039 | 40933 ft | 530 kts | 132° |
| 2026-05-06 12:53 | 46.32959 | -84.15450 | 40941 ft | 531 kts | 131° |
| 2026-05-06 12:53 | 46.28598 | -84.06830 | 40937 ft | 531 kts | 131° |
| 2026-05-06 12:54 | 46.24212 | -83.98238 | 40934 ft | 531 kts | 131° |
| 2026-05-06 12:54 | 46.19809 | -83.89679 | 40922 ft | 530 kts | 131° |
| 2026-05-06 12:55 | 46.15396 | -83.81141 | 40936 ft | 531 kts | 131° |
| 2026-05-06 12:55 | 46.10974 | -83.72609 | 40932 ft | 531 kts | 131° |
| 2026-05-06 12:56 | 46.06570 | -83.64138 | 40923 ft | 531 kts | 132° |
| 2026-05-06 12:56 | 46.02138 | -83.55635 | 40938 ft | 530 kts | 132° |
| 2026-05-06 12:57 | 45.97705 | -83.47155 | 40919 ft | 530 kts | 132° |
| 2026-05-06 12:57 | 45.93266 | -83.38692 | 40962 ft | 530 kts | 132° |
| 2026-05-06 12:58 | 45.88815 | -83.30233 | 40964 ft | 530 kts | 132° |
| 2026-05-06 12:58 | 45.84362 | -83.21793 | 40970 ft | 530 kts | 132° |
| 2026-05-06 12:59 | 45.79902 | -83.13365 | 40971 ft | 530 kts | 132° |
| 2026-05-06 12:59 | 45.75440 | -83.04959 | 40956 ft | 530 kts | 133° |
| 2026-05-06 13:00 | 45.70966 | -82.96556 | 40960 ft | 531 kts | 133° |
| 2026-05-06 13:00 | 45.66487 | -82.88168 | 40961 ft | 531 kts | 133° |
| 2026-05-06 13:01 | 45.62030 | -82.79845 | 40960 ft | 531 kts | 133° |
| 2026-05-06 13:01 | 45.57538 | -82.71483 | 40958 ft | 531 kts | 133° |
| 2026-05-06 13:02 | 45.53042 | -82.63137 | 40943 ft | 530 kts | 133° |
| 2026-05-06 13:02 | 45.48534 | -82.54795 | 40952 ft | 531 kts | 133° |
| 2026-05-06 13:03 | 45.44783 | -82.47872 | 40967 ft | 531 kts | 133° |
| 2026-05-06 13:03 | 45.40270 | -82.39563 | 40964 ft | 531 kts | 133° |
| 2026-05-06 13:04 | 45.35745 | -82.31258 | 40967 ft | 531 kts | 133° |
| 2026-05-06 13:04 | 45.31221 | -82.22979 | 40917 ft | 530 kts | 134° |
| 2026-05-06 13:05 | 45.26683 | -82.14699 | 40965 ft | 532 kts | 134° |
| 2026-05-06 13:05 | 45.22131 | -82.06419 | 40966 ft | 532 kts | 134° |
| 2026-05-06 13:06 | 45.17574 | -81.98152 | 40970 ft | 532 kts | 134° |
| 2026-05-06 13:06 | 45.13008 | -81.89892 | 40968 ft | 532 kts | 134° |
| 2026-05-06 13:07 | 45.08440 | -81.81653 | 40955 ft | 532 kts | 134° |
| 2026-05-06 13:07 | 45.03863 | -81.73421 | 40972 ft | 533 kts | 134° |
| 2026-05-06 13:08 | 44.99266 | -81.65179 | 40962 ft | 534 kts | 134° |
| 2026-05-06 13:08 | 44.94667 | -81.56955 | 40932 ft | 533 kts | 134° |
| 2026-05-06 13:09 | 44.90058 | -81.48738 | 40940 ft | 534 kts | 134° |
| 2026-05-06 13:09 | 44.85472 | -81.40585 | 40922 ft | 535 kts | 134° |
| 2026-05-06 13:10 | 44.80840 | -81.32375 | 40916 ft | 535 kts | 134° |
| 2026-05-06 13:10 | 44.76200 | -81.24174 | 40883 ft | 535 kts | 135° |
| 2026-05-06 13:11 | 44.71553 | -81.15981 | 40908 ft | 535 kts | 135° |
| 2026-05-06 13:11 | 44.66903 | -81.07809 | 40912 ft | 536 kts | 135° |
| 2026-05-06 13:12 | 44.62243 | -80.99644 | 40903 ft | 536 kts | 135° |
| 2026-05-06 13:12 | 44.57574 | -80.91485 | 40914 ft | 536 kts | 135° |
| 2026-05-06 13:13 | 44.52901 | -80.83340 | 40913 ft | 535 kts | 135° |
| 2026-05-06 13:13 | 44.48235 | -80.75232 | 40909 ft | 535 kts | 135° |
| 2026-05-06 13:14 | 44.43560 | -80.67133 | 40909 ft | 535 kts | 135° |
| 2026-05-06 13:14 | 44.38881 | -80.59049 | 40909 ft | 535 kts | 135° |
| 2026-05-06 13:15 | 44.34196 | -80.50977 | 40897 ft | 534 kts | 135° |
| 2026-05-06 13:15 | 44.29514 | -80.42932 | 40905 ft | 533 kts | 135° |
| 2026-05-06 13:16 | 44.24861 | -80.34961 | 40905 ft | 533 kts | 135° |
| 2026-05-06 13:16 | 44.20166 | -80.26940 | 40902 ft | 533 kts | 135° |
| 2026-05-06 13:17 | 44.15471 | -80.18942 | 40899 ft | 533 kts | 136° |
| 2026-05-06 13:17 | 44.10771 | -80.10955 | 40901 ft | 533 kts | 136° |
| 2026-05-06 13:18 | 44.06072 | -80.02993 | 40902 ft | 532 kts | 136° |
| 2026-05-06 13:18 | 44.01368 | -79.95045 | 40903 ft | 532 kts | 136° |
| 2026-05-06 13:19 | 43.96655 | -79.87104 | 40877 ft | 532 kts | 136° |
| 2026-05-06 13:19 | 43.91937 | -79.79176 | 40868 ft | 533 kts | 136° |
| 2026-05-06 13:20 | 43.87213 | -79.71259 | 40895 ft | 532 kts | 136° |
| 2026-05-06 13:20 | 43.82578 | -79.63511 | 40890 ft | 532 kts | 136° |
| 2026-05-06 13:21 | 43.77880 | -79.55682 | 40889 ft | 532 kts | 136° |
| 2026-05-06 13:21 | 43.73124 | -79.47776 | 40873 ft | 532 kts | 136° |
| 2026-05-06 13:22 | 43.68417 | -79.39974 | 40881 ft | 532 kts | 137° |
| 2026-05-06 13:22 | 43.64423 | -79.31259 | 40892 ft | 545 kts | 119° |
| 2026-05-06 13:23 | 43.61517 | -79.21543 | 40889 ft | 549 kts | 116° |
| 2026-05-06 13:23 | 43.58809 | -79.11692 | 40890 ft | 550 kts | 115° |
| 2026-05-06 13:24 | 43.56094 | -79.01842 | 40888 ft | 549 kts | 116° |
| 2026-05-06 13:24 | 43.53342 | -78.92024 | 40893 ft | 549 kts | 116° |
| 2026-05-06 13:25 | 43.50566 | -78.82224 | 40894 ft | 548 kts | 116° |
| 2026-05-06 13:25 | 43.47770 | -78.72458 | 40888 ft | 547 kts | 118° |
| 2026-05-06 13:26 | 43.44417 | -78.63119 | 40885 ft | 544 kts | 123° |
| 2026-05-06 13:26 | 43.40896 | -78.53896 | 40886 ft | 545 kts | 124° |
| 2026-05-06 13:27 | 43.37357 | -78.44687 | 40887 ft | 545 kts | 124° |
| 2026-05-06 13:27 | 43.33808 | -78.35485 | 40884 ft | 545 kts | 124° |
| 2026-05-06 13:28 | 43.30254 | -78.26303 | 40882 ft | 545 kts | 124° |
| 2026-05-06 13:28 | 43.26713 | -78.17185 | 40882 ft | 545 kts | 124° |
| 2026-05-06 13:29 | 43.23142 | -78.08021 | 40889 ft | 545 kts | 124° |
| 2026-05-06 13:29 | 43.19565 | -77.98867 | 40840 ft | 544 kts | 124° |
| 2026-05-06 13:30 | 43.15974 | -77.89711 | 40887 ft | 547 kts | 124° |
| 2026-05-06 13:30 | 43.12360 | -77.80524 | 40881 ft | 548 kts | 124° |
| 2026-05-06 13:31 | 43.08739 | -77.71346 | 40881 ft | 548 kts | 124° |
| 2026-05-06 13:31 | 43.05107 | -77.62173 | 40877 ft | 548 kts | 125° |
| 2026-05-06 13:32 | 43.01470 | -77.53015 | 40883 ft | 549 kts | 125° |
| 2026-05-06 13:32 | 42.97818 | -77.43850 | 40871 ft | 550 kts | 125° |
| 2026-05-06 13:33 | 42.94155 | -77.34683 | 40868 ft | 550 kts | 125° |
| 2026-05-06 13:33 | 42.90483 | -77.25526 | 40869 ft | 551 kts | 125° |
| 2026-05-06 13:34 | 42.86816 | -77.16414 | 40881 ft | 553 kts | 125° |
| 2026-05-06 13:34 | 42.83110 | -77.07229 | 40875 ft | 553 kts | 125° |
| 2026-05-06 13:35 | 42.79398 | -76.98058 | 40868 ft | 553 kts | 125° |
| 2026-05-06 13:35 | 42.75679 | -76.88900 | 40868 ft | 553 kts | 126° |
| 2026-05-06 13:36 | 42.71951 | -76.79751 | 40875 ft | 554 kts | 126° |
| 2026-05-06 13:36 | 42.68204 | -76.70581 | 40852 ft | 555 kts | 126° |
| 2026-05-06 13:37 | 42.64447 | -76.61416 | 40838 ft | 555 kts | 126° |
| 2026-05-06 13:37 | 42.60679 | -76.52256 | 40837 ft | 557 kts | 126° |
| 2026-05-06 13:38 | 42.56884 | -76.43060 | 40832 ft | 559 kts | 125° |
| 2026-05-06 13:38 | 42.53072 | -76.33845 | 40835 ft | 560 kts | 126° |
| 2026-05-06 13:39 | 42.49198 | -76.24787 | 40830 ft | 557 kts | 128° |
| 2026-05-06 13:39 | 42.45101 | -76.15871 | 40829 ft | 557 kts | 128° |
| 2026-05-06 13:40 | 42.41023 | -76.06945 | 40812 ft | 558 kts | 128° |
| 2026-05-06 13:40 | 42.36946 | -75.98013 | 40710 ft | 557 kts | 128° |
| 2026-05-06 13:40 | 42.34914 | -75.93565 | 40421 ft | 555 kts | 128° |
| 2026-05-06 13:41 | 42.32880 | -75.89122 | 40191 ft | 557 kts | 128° |
| 2026-05-06 13:41 | 42.30839 | -75.84674 | 39933 ft | 558 kts | 128° |
| 2026-05-06 13:41 | 42.28792 | -75.80212 | 39694 ft | 560 kts | 129° |
| 2026-05-06 13:41 | 42.26740 | -75.75741 | 39455 ft | 561 kts | 128° |
| 2026-05-06 13:42 | 42.24681 | -75.71259 | 39224 ft | 562 kts | 129° |
| 2026-05-06 13:42 | 42.22612 | -75.66767 | 38989 ft | 563 kts | 129° |
| 2026-05-06 13:42 | 42.20541 | -75.62280 | 38755 ft | 564 kts | 129° |
| 2026-05-06 13:42 | 42.18462 | -75.57778 | 38537 ft | 565 kts | 129° |
| 2026-05-06 13:43 | 42.16380 | -75.53279 | 38259 ft | 566 kts | 129° |
| 2026-05-06 13:43 | 42.14297 | -75.48784 | 37991 ft | 565 kts | 129° |
| 2026-05-06 13:43 | 42.12217 | -75.44296 | 37704 ft | 564 kts | 129° |
| 2026-05-06 13:43 | 42.10141 | -75.39827 | 37415 ft | 562 kts | 129° |
| 2026-05-06 13:44 | 42.08113 | -75.35326 | 37127 ft | 564 kts | 125° |
| 2026-05-06 13:44 | 42.06543 | -75.30528 | 36827 ft | 572 kts | 112° |
| 2026-05-06 13:44 | 42.05649 | -75.25293 | 36566 ft | 576 kts | 101° |
| 2026-05-06 13:44 | 42.05079 | -75.19964 | 36307 ft | 576 kts | 99° |
| 2026-05-06 13:45 | 42.04548 | -75.14619 | 36042 ft | 575 kts | 100° |
| 2026-05-06 13:45 | 42.03472 | -75.04005 | 35555 ft | 570 kts | 100° |
| 2026-05-06 13:45 | 42.02924 | -74.98734 | 35303 ft | 567 kts | 101° |
| 2026-05-06 13:46 | 42.02374 | -74.93502 | 35060 ft | 563 kts | 101° |
| 2026-05-06 13:46 | 42.01824 | -74.88301 | 34824 ft | 559 kts | 101° |
| 2026-05-06 13:46 | 42.01276 | -74.83149 | 34588 ft | 554 kts | 101° |
| 2026-05-06 13:46 | 42.00731 | -74.78042 | 34341 ft | 551 kts | 101° |
| 2026-05-06 13:47 | 42.00186 | -74.72963 | 34073 ft | 545 kts | 102° |
| 2026-05-06 13:47 | 41.99645 | -74.67949 | 33594 ft | 539 kts | 102° |
| 2026-05-06 13:47 | 41.99107 | -74.62989 | 33073 ft | 534 kts | 102° |
| 2026-05-06 13:47 | 41.98571 | -74.58068 | 32544 ft | 529 kts | 102° |
| 2026-05-06 13:48 | 41.98038 | -74.53198 | 32149 ft | 522 kts | 102° |
| 2026-05-06 13:48 | 41.97248 | -74.48510 | 31780 ft | 507 kts | 114° |
| 2026-05-06 13:48 | 41.95781 | -74.44361 | 31313 ft | 489 kts | 130° |
| 2026-05-06 13:48 | 41.93800 | -74.40643 | 30835 ft | 480 kts | 134° |
| 2026-05-06 13:49 | 41.91804 | -74.37161 | 30389 ft | 475 kts | 135° |
| 2026-05-06 13:49 | 41.89791 | -74.33665 | 29927 ft | 471 kts | 134° |
| 2026-05-06 13:49 | 41.87799 | -74.30199 | 29405 ft | 466 kts | 134° |
| 2026-05-06 13:49 | 41.85834 | -74.26771 | 28971 ft | 461 kts | 134° |
| 2026-05-06 13:50 | 41.83893 | -74.23383 | 28515 ft | 454 kts | 134° |
| 2026-05-06 13:50 | 41.81993 | -74.20064 | 28076 ft | 446 kts | 134° |
| 2026-05-06 13:50 | 41.80106 | -74.16778 | 27654 ft | 442 kts | 134° |
| 2026-05-06 13:50 | 41.78238 | -74.13526 | 27178 ft | 438 kts | 135° |
| 2026-05-06 13:51 | 41.76388 | -74.10308 | 26753 ft | 434 kts | 135° |
| 2026-05-06 13:51 | 41.74442 | -74.07279 | 26319 ft | 421 kts | 145° |
| 2026-05-06 13:51 | 41.72940 | -74.05722 | 26013 ft | 406 kts | 157° |
| 2026-05-06 13:51 | 41.70413 | -74.04230 | 25323 ft | 391 kts | 174° |
| 2026-05-06 13:52 | 41.67790 | -74.03813 | 24317 ft | 373 kts | 190° |
| 2026-05-06 13:52 | 41.65235 | -74.04116 | 23360 ft | 369 kts | 194° |
| 2026-05-06 13:52 | 41.62682 | -74.04548 | 22730 ft | 367 kts | 194° |
| 2026-05-06 13:52 | 41.60163 | -74.04964 | 22265 ft | 362 kts | 194° |
| 2026-05-06 13:53 | 41.57674 | -74.05365 | 21738 ft | 359 kts | 193° |
| 2026-05-06 13:53 | 41.55206 | -74.05756 | 21217 ft | 355 kts | 193° |
| 2026-05-06 13:53 | 41.52759 | -74.06140 | 20735 ft | 352 kts | 193° |
| 2026-05-06 13:53 | 41.50340 | -74.06517 | 20230 ft | 349 kts | 193° |
| 2026-05-06 13:54 | 41.47935 | -74.06890 | 19686 ft | 346 kts | 193° |
| 2026-05-06 13:54 | 41.45548 | -74.07260 | 19206 ft | 343 kts | 192° |
| 2026-05-06 13:54 | 41.43191 | -74.07623 | 18903 ft | 339 kts | 192° |
| 2026-05-06 13:54 | 41.40903 | -74.07971 | 18865 ft | 323 kts | 192° |
| 2026-05-06 13:55 | 41.38714 | -74.08304 | 18864 ft | 313 kts | 193° |
| 2026-05-06 13:55 | 41.36590 | -74.08756 | 18847 ft | 302 kts | 199° |
| 2026-05-06 13:55 | 41.34693 | -74.09699 | 18732 ft | 284 kts | 212° |
| 2026-05-06 13:55 | 41.33034 | -74.11003 | 18437 ft | 277 kts | 216° |
| 2026-05-06 13:56 | 41.31417 | -74.12395 | 17819 ft | 274 kts | 216° |
| 2026-05-06 13:56 | 41.29818 | -74.13782 | 17343 ft | 272 kts | 215° |
| 2026-05-06 13:56 | 41.28263 | -74.15124 | 16849 ft | 267 kts | 215° |
| 2026-05-06 13:56 | 41.26715 | -74.16453 | 16125 ft | 265 kts | 215° |
| 2026-05-06 13:57 | 41.25161 | -74.17780 | 15698 ft | 264 kts | 215° |
| 2026-05-06 13:57 | 41.23627 | -74.19087 | 15303 ft | 261 kts | 215° |
| 2026-05-06 13:57 | 41.22110 | -74.20385 | 14980 ft | 257 kts | 215° |
| 2026-05-06 13:57 | 41.20617 | -74.21658 | 14627 ft | 254 kts | 215° |
| 2026-05-06 13:58 | 41.19048 | -74.22730 | 14188 ft | 258 kts | 200° |
| 2026-05-06 13:58 | 41.17225 | -74.22793 | 13815 ft | 271 kts | 176° |
| 2026-05-06 13:58 | 41.15481 | -74.21693 | 13369 ft | 287 kts | 152° |
| 2026-05-06 13:58 | 41.14166 | -74.19615 | 12654 ft | 304 kts | 127° |
| 2026-05-06 13:59 | 41.13336 | -74.17009 | 11938 ft | 308 kts | 118° |
| 2026-05-06 13:59 | 41.12633 | -74.14338 | 11286 ft | 304 kts | 117° |
| 2026-05-06 13:59 | 41.11963 | -74.11706 | 10669 ft | 299 kts | 117° |
| 2026-05-06 13:59 | 41.11306 | -74.09115 | 10066 ft | 294 kts | 117° |
| 2026-05-06 14:00 | 41.10661 | -74.06563 | 9407 ft | 290 kts | 117° |
| 2026-05-06 14:00 | 41.09962 | -74.04087 | 8687 ft | 282 kts | 123° |
| 2026-05-06 14:00 | 41.09110 | -74.01776 | 7982 ft | 277 kts | 126° |
| 2026-05-06 14:00 | 41.08229 | -73.99517 | 7295 ft | 277 kts | 126° |
| 2026-05-06 14:01 | 41.07340 | -73.97246 | 6903 ft | 277 kts | 126° |
| 2026-05-06 14:01 | 41.06458 | -73.94991 | 6539 ft | 274 kts | 126° |
| 2026-05-06 14:01 | 41.05580 | -73.92747 | 6170 ft | 274 kts | 126° |
| 2026-05-06 14:01 | 41.04707 | -73.90518 | 5976 ft | 269 kts | 126° |
| 2026-05-06 14:02 | 41.03889 | -73.88411 | 5966 ft | 253 kts | 126° |
| 2026-05-06 14:02 | 41.03140 | -73.86471 | 5969 ft | 237 kts | 127° |
| 2026-05-06 14:02 | 41.02410 | -73.84583 | 5980 ft | 226 kts | 128° |
| 2026-05-06 14:02 | 41.01698 | -73.82747 | 5979 ft | 220 kts | 128° |
| 2026-05-06 14:03 | 41.01025 | -73.81002 | 5906 ft | 206 kts | 128° |
| 2026-05-06 14:03 | 41.00378 | -73.79328 | 5625 ft | 203 kts | 129° |
| 2026-05-06 14:03 | 40.99727 | -73.77661 | 5267 ft | 205 kts | 129° |
| 2026-05-06 14:03 | 40.99073 | -73.75984 | 4932 ft | 205 kts | 129° |
| 2026-05-06 14:04 | 40.98420 | -73.74309 | 4597 ft | 205 kts | 129° |
| 2026-05-06 14:04 | 40.97768 | -73.72638 | 4283 ft | 204 kts | 130° |
| 2026-05-06 14:04 | 40.97064 | -73.71045 | 3905 ft | 195 kts | 142° |
| 2026-05-06 14:04 | 40.96060 | -73.69988 | 3575 ft | 178 kts | 163° |
| 2026-05-06 14:05 | 40.94996 | -73.69214 | 3371 ft | 169 kts | 166° |
| 2026-05-06 14:05 | 40.93987 | -73.68501 | 3218 ft | 160 kts | 167° |
| 2026-05-06 14:05 | 40.93024 | -73.67822 | 3047 ft | 155 kts | 168° |
| 2026-05-06 14:05 | 40.92099 | -73.67171 | 2957 ft | 147 kts | 168° |
| 2026-05-06 14:06 | 40.91201 | -73.66542 | 2965 ft | 147 kts | 168° |
| 2026-05-06 14:06 | 40.90292 | -73.65899 | 2959 ft | 149 kts | 167° |
| 2026-05-06 14:06 | 40.89383 | -73.65253 | 2975 ft | 150 kts | 167° |
| 2026-05-06 14:06 | 40.88470 | -73.64593 | 2964 ft | 148 kts | 167° |
| 2026-05-06 14:07 | 40.87557 | -73.63925 | 2969 ft | 148 kts | 167° |
| 2026-05-06 14:07 | 40.86656 | -73.63285 | 2966 ft | 144 kts | 171° |
| 2026-05-06 14:07 | 40.85748 | -73.62983 | 2965 ft | 129 kts | 191° |
| 2026-05-06 14:07 | 40.84902 | -73.63151 | 2981 ft | 121 kts | 203° |
| 2026-05-06 14:08 | 40.84092 | -73.63400 | 2971 ft | 115 kts | 203° |
| 2026-05-06 14:08 | 40.83379 | -73.63637 | 2979 ft | 99 kts | 207° |
| 2026-05-06 14:08 | 40.82749 | -73.63918 | 2988 ft | 94 kts | 210° |
| 2026-05-06 14:08 | 40.82149 | -73.64251 | 2983 ft | 94 kts | 212° |
| 2026-05-06 14:09 | 40.81556 | -73.64628 | 2981 ft | 95 kts | 213° |
| 2026-05-06 14:09 | 40.80973 | -73.65040 | 2960 ft | 94 kts | 214° |
| 2026-05-06 14:09 | 40.80401 | -73.65454 | 2974 ft | 94 kts | 213° |
| 2026-05-06 14:09 | 40.79826 | -73.65860 | 2980 ft | 95 kts | 214° |
| 2026-05-06 14:10 | 40.79243 | -73.66267 | 2972 ft | 94 kts | 214° |
| 2026-05-06 14:10 | 40.78665 | -73.66671 | 2974 ft | 93 kts | 216° |
| 2026-05-06 14:10 | 40.78087 | -73.67057 | 2943 ft | 94 kts | 212° |
| 2026-05-06 14:10 | 40.77468 | -73.67341 | 2857 ft | 96 kts | 207° |
| 2026-05-06 14:11 | 40.76849 | -73.67631 | 2742 ft | 93 kts | 211° |
| 2026-05-06 14:11 | 40.76245 | -73.67951 | 2655 ft | 93 kts | 212° |
| 2026-05-06 14:11 | 40.75646 | -73.68281 | 2671 ft | 94 kts | 212° |
| 2026-05-06 14:11 | 40.75047 | -73.68618 | 2611 ft | 93 kts | 212° |
| 2026-05-06 14:12 | 40.74454 | -73.68959 | 2547 ft | 93 kts | 212° |
| 2026-05-06 14:12 | 40.73896 | -73.69352 | 2497 ft | 93 kts | 218° |
| 2026-05-06 14:12 | 40.73312 | -73.69903 | 2389 ft | 113 kts | 218° |
| 2026-05-06 14:12 | 40.72583 | -73.70447 | 2050 ft | 125 kts | 213° |
| 2026-05-06 14:13 | 40.71839 | -73.71006 | 1798 ft | 120 kts | 214° |
| 2026-05-06 14:13 | 40.71119 | -73.71583 | 1608 ft | 122 kts | 214° |
| 2026-05-06 14:13 | 40.70376 | -73.72183 | 1452 ft | 128 kts | 211° |
| 2026-05-06 14:13 | 40.69590 | -73.72753 | 1429 ft | 130 kts | 210° |
| 2026-05-06 14:14 | 40.68813 | -73.73369 | 1205 ft | 130 kts | 212° |
| 2026-05-06 14:14 | 40.68042 | -73.73997 | 950 ft | 132 kts | 213° |
| 2026-05-06 14:14 | 40.67298 | -73.74621 | 767 ft | 134 kts | 208° |
| 2026-05-06 14:14 | 40.66482 | -73.75228 | 590 ft | 138 kts | 208° |
| 2026-05-06 14:15 | 40.65658 | -73.75865 | 386 ft | 139 kts | 205° |
| 2026-05-06 14:15 | 40.64896 | -73.76452 | 136 ft | 135 kts | 205° |
| 2026-05-06 14:15 | 40.64166 | -73.77030 | 39 ft | 132 kts | 207° |
| 2026-05-06 14:15 | 40.63445 | -73.77589 | 30 ft | 101 kts | 210° |
| 2026-05-06 14:16 | 40.62976 | -73.77958 | 31 ft | 36 kts | 212° |
| 2026-05-06 14:16 | 40.62790 | -73.78102 | 31 ft | 29 kts | 210° |
| 2026-05-06 14:16 | 40.62722 | -73.78154 | 32 ft | 0 kts | 211° |
| 2026-05-06 14:17 | 40.62690 | -73.78179 | 32 ft | 15 kts | 210° |
| 2026-05-06 14:17 | 40.62600 | -73.78249 | 35 ft | 15 kts | 209° |
| 2026-05-06 14:17 | 40.62537 | -73.78295 | 34 ft | 11 kts | 209° |